Provisional Data: Sterling Run near Sterling Run, PA


Please select a monitoring station.
Please select start date.
Please select start date.

Toggle Unit: C/F Toggle Unit: C/F
Sample Time Temperature (C) Temperature (F) Specific Conductivity (mS/cm) pH   Turbidity (NTU+) DO (mg/L)
8/9/2021 12:00:00 AM 19.12 66.416 0.086 6.54 1.34 8.44
8/9/2021 12:15:00 AM 19.09 66.362 0.086 6.52 1.36 8.44
8/9/2021 12:30:00 AM 19.03 66.254 0.086 6.53 1.33 8.44
8/9/2021 12:45:00 AM 18.98 66.164 0.086 6.52 1.36 8.44
8/9/2021 1:00:00 AM 18.93 66.074 0.086 6.53 1.37 8.47
8/9/2021 1:15:00 AM 18.9 66.02 0.086 6.53 1.39 8.47
8/9/2021 1:30:00 AM 18.87 65.966 0.086 6.53 1.37 8.49
8/9/2021 1:45:00 AM 18.84 65.912 0.086 6.54 1.33 8.51
8/9/2021 2:00:00 AM 18.82 65.876 0.086 6.52 1.34 8.48
8/9/2021 2:15:00 AM 18.79 65.82201 0.086 6.52 1.31 8.5
8/9/2021 2:30:00 AM 18.77 65.786 0.086 6.52 1.4 8.5
8/9/2021 2:45:00 AM 18.77 65.786 0.086 6.52 1.37 8.46
8/9/2021 3:00:00 AM 18.74 65.732 0.086 6.53 1.37 8.5
8/9/2021 3:15:00 AM 18.72 65.696 0.086 6.51 1.31 8.48
8/9/2021 3:30:00 AM 18.68 65.624 0.086 6.53 1.3 8.5
8/9/2021 3:45:00 AM 18.65 65.57 0.086 6.52 1.28 8.51
8/9/2021 4:00:00 AM 18.63 65.534 0.086 6.53 1.33 8.53
8/9/2021 4:15:00 AM 18.61 65.498 0.086 6.52 1.42 8.54
8/9/2021 4:30:00 AM 18.58 65.444 0.086 6.54 1.4 8.57
8/9/2021 4:45:00 AM 18.56 65.408 0.086 6.52 1.4 8.56
8/9/2021 5:00:00 AM 18.55 65.39 0.086 6.52 1.33 8.5
8/9/2021 5:15:00 AM 18.53 65.354 0.086 6.51 1.33 8.52
8/9/2021 5:30:00 AM 18.49 65.282 0.086 6.52 2.54 8.56
8/9/2021 5:45:00 AM 18.47 65.246 0.086 6.52 1.37 8.57
8/9/2021 6:00:00 AM 18.46 65.228 0.086 6.52 1.6 8.53
8/9/2021 6:15:00 AM 18.42 65.156 0.086 6.52 1.39 8.57
8/9/2021 6:30:00 AM 18.41 65.138 0.086 6.51 1.36 8.55
8/9/2021 6:45:00 AM 18.39 65.102 0.086 6.51 1.37 8.59
8/9/2021 7:00:00 AM 18.38 65.084 0.086 6.53 1.31 8.64
8/9/2021 7:15:00 AM 18.38 65.084 0.086 6.53 1.34 8.63
8/9/2021 7:30:00 AM 18.36 65.048 0.086 6.55 1.33 8.7
8/9/2021 7:45:00 AM 18.36 65.048 0.086 6.56 1.33 8.75
8/9/2021 8:00:00 AM 18.36 65.048 0.086 6.56 1.33 8.79
8/9/2021 8:15:00 AM 18.38 65.084 0.086 6.57 1.33 8.83
8/9/2021 8:30:00 AM 18.41 65.138 0.086 6.59 1.28 8.9
8/9/2021 8:45:00 AM 18.46 65.228 0.086 6.6 1.29 8.95
8/9/2021 9:00:00 AM 18.5 65.3 0.086 6.59 1.25 8.88
8/9/2021 9:15:00 AM 18.6 65.48 0.086 6.64 1.32 9.1
8/9/2021 9:30:00 AM 18.76 65.768 0.085 6.62 1.3 9.12
8/9/2021 9:45:00 AM 18.9 66.02 0.085 6.62 1.33 8.99
8/9/2021 10:00:00 AM 19.04 66.272 0.085 6.66 1.35 9.14
8/9/2021 10:15:00 AM 19.19 66.542 0.085 6.64 1.33 9.07
8/9/2021 10:30:00 AM 19.27 66.686 0.085 6.68 1.32 9.16
8/9/2021 10:45:00 AM 19.48 67.064 0.085 6.63 1.33 9.02
8/9/2021 11:00:00 AM 19.83 67.694 0.085 6.63 1.3 9.01
8/9/2021 11:15:00 AM 20.03 68.054 0.085 6.6 1.29 8.88
8/9/2021 11:30:00 AM 19.41 66.938 0.092 6.1 1.24 6.04
8/9/2021 11:45:00 AM 20.44 68.792 0.085 6.6 1.3 8.84
8/9/2021 12:00:00 PM 20.68 69.224 0.085 6.66 1.35 8.94
8/9/2021 12:15:00 PM 20.77 69.386 0.085 6.62 1.26 8.31
8/9/2021 12:30:00 PM 20.88 69.584 0.085 6.68 1.3 8.87
8/9/2021 12:45:00 PM 21.07 69.926 0.085 6.62 1.28 8.74
8/9/2021 1:00:00 PM 21.1 69.98 0.086 6.59 1.34 8.61
8/9/2021 1:15:00 PM 21.06 69.908 0.085 6.59 1.32 8.63
8/9/2021 1:30:00 PM 20.93 69.674 0.085 6.72 1.29 8.87
8/9/2021 1:45:00 PM 21.11 69.998 0.085 6.72 1.29 8.88
8/9/2021 2:00:00 PM 21.17 70.106 0.085 6.67 1.28 8.66
8/9/2021 2:15:00 PM 21 69.8 0.085 6.53 1.32 8.3
8/9/2021 2:30:00 PM 21.18 70.124 0.085 6.69 1.27 8.72
8/9/2021 2:45:00 PM 21.33 70.394 0.085 6.71 1.31 8.74
8/9/2021 3:00:00 PM 21.18 70.124 0.085 6.67 1.29 8.67
8/9/2021 3:15:00 PM 21.06 69.908 0.085 6.72 1.59 8.72
8/9/2021 3:30:00 PM 21.02 69.836 0.085 6.74 1.46 8.75
8/9/2021 3:45:00 PM 21.26 70.268 0.085 6.72 1.33 8.74
8/9/2021 4:00:00 PM 21.1 69.98 0.085 6.71 1.29 8.72
8/9/2021 4:15:00 PM 20.88 69.584 0.087 6.69 1.38 8.65
8/9/2021 4:30:00 PM 20.94 69.692 0.085 6.72 1.32 8.69
8/9/2021 4:45:00 PM 20.93 69.674 0.085 6.72 1.31 8.72
8/9/2021 5:00:00 PM 21.03 69.854 0.085 6.72 1.37 8.71
8/9/2021 5:15:00 PM 21 69.8 0.085 6.7 1.34 8.69
8/9/2021 5:30:00 PM 20.93 69.674 0.085 6.7 1.35 8.69
8/9/2021 5:45:00 PM 20.9 69.62 0.085 6.72 1.3 8.69
8/9/2021 6:00:00 PM 20.82 69.476 0.085 6.72 1.31 8.7
8/9/2021 6:15:00 PM 20.76 69.368 0.085 6.7 1.33 8.66
8/9/2021 6:30:00 PM 20.74 69.332 0.085 6.69 1.28 8.65
8/9/2021 6:45:00 PM 20.67 69.206 0.085 6.68 1.37 8.62
8/9/2021 7:00:00 PM 20.62 69.116 0.085 6.67 1.34 8.57
8/9/2021 7:15:00 PM 20.57 69.026 0.085 6.66 1.31 8.56
8/9/2021 7:30:00 PM 20.52 68.936 0.086 6.64 1.31 8.5
8/9/2021 7:45:00 PM 20.47 68.846 0.086 6.63 1.32 8.45
8/9/2021 8:00:00 PM 20.42 68.756 0.086 6.62 1.31 8.42
8/9/2021 8:15:00 PM 20.36 68.648 0.086 6.6 1.31 8.38
8/9/2021 8:30:00 PM 20.31 68.558 0.086 6.58 1.37 8.35
8/9/2021 8:45:00 PM 20.25 68.45 0.086 6.57 1.37 8.29
8/9/2021 9:00:00 PM 20.19 68.342 0.086 6.56 1.36 8.28
8/9/2021 9:15:00 PM 20.16 68.288 0.087 6.55 1.33 8.23
8/9/2021 9:30:00 PM 20.09 68.162 0.087 6.54 1.35 8.25
8/9/2021 9:45:00 PM 20.05 68.09 0.087 6.54 1.3 8.25
8/9/2021 10:00:00 PM 20.02 68.036 0.087 6.54 1.36 8.26
8/9/2021 10:15:00 PM 19.95 67.91 0.087 6.53 1.32 8.26
8/9/2021 10:30:00 PM 19.91 67.838 0.087 6.53 1.34 8.25
8/9/2021 10:45:00 PM 19.87 67.766 0.087 6.54 1.31 8.3
8/9/2021 11:00:00 PM 19.83 67.694 0.087 6.54 1.35 8.28
8/9/2021 11:15:00 PM 19.79 67.622 0.087 6.5 1.37 8.24
8/9/2021 11:30:00 PM 19.77 67.586 0.087 6.54 1.31 8.28
8/9/2021 11:45:00 PM 19.7 67.46 0.087 6.54 1.36 8.32
8/10/2021 12:00:00 AM 19.65 67.37 0.087 6.55 1.29 8.34
8/10/2021 12:15:00 AM 19.6 67.28 0.087 6.53 1.32 8.3
8/10/2021 12:30:00 AM 19.57 67.226 0.087 6.53 1.37 8.3
8/10/2021 12:45:00 AM 19.53 67.154 0.087 6.54 1.3 8.32
8/10/2021 1:00:00 AM 19.53 67.154 0.087 6.53 1.36 8.29
8/10/2021 1:15:00 AM 19.47 67.046 0.087 6.53 1.37 8.3
8/10/2021 1:30:00 AM 19.41 66.938 0.087 6.53 1.34 8.34
8/10/2021 1:45:00 AM 19.36 66.848 0.087 6.51 1.38 8.3
8/10/2021 2:00:00 AM 19.32 66.776 0.087 6.54 1.34 8.38
8/10/2021 2:15:00 AM 19.28 66.704 0.087 6.54 1.33 8.4
8/10/2021 2:30:00 AM 19.31 66.758 0.087 6.51 1.39 8.3
8/10/2021 2:45:00 AM 19.24 66.632 0.087 6.53 1.34 8.38
8/10/2021 3:00:00 AM 19.2 66.56 0.087 6.52 1.35 8.4
8/10/2021 3:15:00 AM 19.19 66.542 0.087 6.51 1.33 8.36
8/10/2021 3:30:00 AM 19.17 66.506 0.087 6.52 1.32 8.37
8/10/2021 3:45:00 AM 19.13 66.434 0.087 6.52 1.37 8.4
8/10/2021 4:00:00 AM 19.11 66.398 0.087 6.51 1.4 8.37
8/10/2021 4:15:00 AM 19.09 66.362 0.087 6.52 1.32 8.4
8/10/2021 4:30:00 AM 19.05 66.29 0.087 6.49 1.43 8.4
8/10/2021 4:45:00 AM 19.04 66.272 0.086 6.52 2.04 8.42
8/10/2021 5:00:00 AM 19.04 66.272 0.086 6.5 1.87 8.35
8/10/2021 5:15:00 AM 19.02 66.236 0.086 6.5 1.66 8.37
8/10/2021 5:30:00 AM 18.99 66.182 0.087 6.52 1.55 8.43
8/10/2021 5:45:00 AM 18.97 66.146 0.086 6.49 1.71 8.3
8/10/2021 6:00:00 AM 18.93 66.074 0.086 6.47 1.53 8.36
8/10/2021 6:15:00 AM 18.93 66.074 0.087 6.46 1.46 8.27
8/10/2021 6:30:00 AM 18.92 66.056 0.086 6.46 1.42 8.31
8/10/2021 6:45:00 AM 18.9 66.02 0.086 6.5 1.62 8.36
8/10/2021 7:00:00 AM 18.88 65.984 0.086 6.51 1.36 8.41
8/10/2021 7:15:00 AM 18.88 65.984 0.086 6.52 1.34 8.48
8/10/2021 7:30:00 AM 18.9 66.02 0.086 6.51 1.39 8.48
8/10/2021 7:45:00 AM 18.89 66.002 0.086 6.53 1.34 8.62
8/10/2021 8:00:00 AM 18.89 66.002 0.086 6.56 1.41 8.65
8/10/2021 8:15:00 AM 18.9 66.02 0.086 6.57 1.37 8.68
8/10/2021 8:30:00 AM 18.91 66.038 0.086 6.57 1.82 8.74
8/10/2021 8:45:00 AM 18.96 66.128 0.086 6.59 1.34 8.79
8/10/2021 9:00:00 AM 18.99 66.182 0.086 6.61 1.41 8.89
8/10/2021 9:15:00 AM 19.09 66.362 0.086 6.62 1.39 8.93
8/10/2021 9:30:00 AM 19.15 66.47 0.086 6.62 1.39 8.92
8/10/2021 9:45:00 AM 19.18 66.524 0.086 6.57 1.36 8.69
8/10/2021 10:00:00 AM 19.2 66.56 0.086 6.63 1.37 8.89
8/10/2021 10:15:00 AM 19.28 66.704 0.086 6.63 1.36 8.88
8/10/2021 10:30:00 AM 19.3 66.74 0.086 6.66 1.34 8.95
8/10/2021 10:45:00 AM 19.39 66.902 0.086 6.64 1.34 8.9
8/10/2021 11:00:00 AM 19.69 67.442 0.086 6.67 1.32 8.99
8/10/2021 11:15:00 AM 19.89 67.802 0.086 6.68 1.35 8.98
8/10/2021 11:30:00 AM 19.96 67.92799 0.086 6.67 1.39 8.93
8/10/2021 11:45:00 AM 19.95 67.91 0.086 6.67 1.34 8.98
8/10/2021 12:00:00 PM 20.1 68.18 0.086 6.68 1.35 8.94
8/10/2021 12:15:00 PM 20.06 68.108 0.086 6.68 1.41 8.94
8/10/2021 12:30:00 PM 20.06 68.108 0.085 6.69 1.38 8.92
8/10/2021 12:45:00 PM 20.01 68.018 0.085 6.69 1.47 8.87
8/10/2021 1:00:00 PM 19.99 67.982 0.085 6.68 1.44 8.8
8/10/2021 1:15:00 PM 20.06 68.108 0.085 6.7 1.39 8.87
8/10/2021 1:30:00 PM 20.3 68.54 0.086 6.64 1.36 8.71
8/10/2021 1:45:00 PM 20.16 68.288 0.086 6.54 1.79 8.34
8/10/2021 2:00:00 PM 20.16 68.288 0.085 6.61 1.79 8.51
8/10/2021 2:15:00 PM 20.19 68.342 0.085 6.6 1.61 8.54
8/10/2021 2:30:00 PM 20.33 68.594 0.086 6.36 1.55 7.72
8/10/2021 2:45:00 PM 20.44 68.792 0.087 6.3 1.52 7.29
8/10/2021 3:00:00 PM 20.55 68.99 0.087 6.31 1.47 6.99
8/10/2021 3:15:00 PM 20.75 69.35 0.086 6.62 1.53 8.62
8/10/2021 3:30:00 PM 20.69 69.242 0.085 6.65 1.37 8.65
8/10/2021 3:45:00 PM 20.69 69.242 0.085 6.67 1.39 8.64
8/10/2021 4:00:00 PM 20.88 69.584 0.085 6.6 1.39 8.55
8/10/2021 4:15:00 PM 20.94 69.692 0.085 6.69 1.37 8.73
8/10/2021 4:30:00 PM 20.87 69.566 0.085 6.71 1.38 8.68
8/10/2021 4:45:00 PM 20.83 69.494 0.085 6.67 1.34 8.61
8/10/2021 5:00:00 PM 20.96 69.728 0.085 6.69 1.37 8.67
8/10/2021 5:15:00 PM 20.91 69.638 0.085 6.66 1.3 8.56
8/10/2021 5:30:00 PM 20.84 69.512 0.085 6.66 1.31 8.52
8/10/2021 5:45:00 PM 20.83 69.494 0.085 6.64 1.41 8.48
8/10/2021 6:00:00 PM 20.82 69.476 0.085 6.66 1.37 8.53
8/10/2021 6:15:00 PM 20.76 69.368 0.085 6.66 1.37 8.52
8/10/2021 6:30:00 PM 20.73 69.314 0.085 6.62 1.31 8.44
8/10/2021 6:45:00 PM 20.72 69.296 0.085 6.64 1.35 8.47
8/10/2021 7:00:00 PM 20.68 69.224 0.085 6.59 1.4 8.32
8/10/2021 7:15:00 PM 20.63 69.134 0.085 6.63 1.46 8.4
8/10/2021 7:30:00 PM 20.57 69.026 0.086 6.63 1.54 8.37
8/10/2021 7:45:00 PM 20.54 68.972 0.086 6.58 1.6 8.24
8/10/2021 8:00:00 PM 20.48 68.864 0.086 6.6 1.7 8.28
8/10/2021 8:15:00 PM 20.42 68.756 0.086 6.59 1.63 8.24
8/10/2021 8:30:00 PM 20.36 68.648 0.085 6.59 1.57 8.23
8/10/2021 8:45:00 PM 20.3 68.54 0.085 6.58 1.67 8.23
8/10/2021 9:00:00 PM 20.27 68.486 0.086 6.55 1.41 8.21
8/10/2021 9:15:00 PM 20.22 68.396 0.086 6.57 1.41 8.19
8/10/2021 9:30:00 PM 20.14 68.252 0.085 6.56 1.37 8.25
8/10/2021 9:45:00 PM 20.1 68.18 0.086 6.57 1.39 8.23
8/10/2021 10:00:00 PM 20.07 68.126 0.086 6.57 1.38 8.23
8/10/2021 10:15:00 PM 20.02 68.036 0.086 6.56 1.4 8.21
8/10/2021 10:30:00 PM 19.95 67.91 0.086 6.57 1.35 8.25
8/10/2021 10:45:00 PM 19.93 67.874 0.086 6.52 1.42 8.2
8/10/2021 11:00:00 PM 19.9 67.82 0.086 6.55 1.38 8.22
8/10/2021 11:15:00 PM 19.86 67.748 0.086 6.54 1.4 8.24
8/10/2021 11:30:00 PM 19.81 67.658 0.086 6.51 1.36 8.21
8/10/2021 11:45:00 PM 19.77 67.586 0.086 6.54 1.35 8.25
8/11/2021 12:00:00 AM 19.72 67.496 0.086 6.55 1.36 8.29
8/11/2021 12:15:00 AM 19.69 67.442 0.086 6.54 1.39 8.25
8/11/2021 12:30:00 AM 19.66 67.388 0.086 6.54 1.33 8.28
8/11/2021 12:45:00 AM 19.62 67.316 0.086 6.53 1.41 8.3
8/11/2021 1:00:00 AM 19.59 67.262 0.087 6.54 1.36 8.31
8/11/2021 1:15:00 AM 19.55 67.19 0.087 6.53 1.41 8.29
8/11/2021 1:30:00 AM 19.5 67.1 0.087 6.54 1.42 8.32
8/11/2021 1:45:00 AM 19.47 67.046 0.087 6.53 1.44 8.29
8/11/2021 2:00:00 AM 19.44 66.992 0.087 6.52 1.59 8.28
8/11/2021 2:15:00 AM 19.4 66.92 0.087 6.53 1.34 8.33
8/11/2021 2:30:00 AM 19.37 66.866 0.087 6.52 1.44 8.32
8/11/2021 2:45:00 AM 19.33 66.794 0.087 6.53 1.37 8.31
8/11/2021 3:00:00 AM 19.3 66.74 0.088 6.51 1.36 8.33
8/11/2021 3:15:00 AM 19.28 66.704 0.088 6.52 1.33 8.34
8/11/2021 3:30:00 AM 19.25 66.65 0.088 6.53 1.38 8.35
8/11/2021 3:45:00 AM 19.24 66.632 0.088 6.53 1.4 8.37
8/11/2021 4:00:00 AM 19.2 66.56 0.088 6.53 1.49 8.37
8/11/2021 4:15:00 AM 19.21 66.578 0.088 6.52 1.34 8.35
8/11/2021 4:30:00 AM 19.17 66.506 0.088 6.52 1.34 8.38
8/11/2021 4:45:00 AM 19.16 66.488 0.088 6.52 1.38 8.37
8/11/2021 5:00:00 AM 19.17 66.506 0.088 6.51 1.31 8.34
8/11/2021 5:15:00 AM 19.15 66.47 0.088 6.51 1.41 8.38
8/11/2021 5:30:00 AM 19.14 66.452 0.088 6.49 1.34 8.3
8/11/2021 5:45:00 AM 19.11 66.398 0.088 6.52 1.37 8.4
8/11/2021 6:00:00 AM 19.09 66.362 0.089 6.5 1.32 8.39
8/11/2021 6:15:00 AM 19.07 66.326 0.089 6.51 1.59 8.41
8/11/2021 6:30:00 AM 19.08 66.344 0.089 6.51 1.38 8.39
8/11/2021 6:45:00 AM 19.07 66.326 0.089 6.5 1.38 8.4
8/11/2021 7:00:00 AM 19.07 66.326 0.089 6.51 1.38 8.47
8/11/2021 7:15:00 AM 19.07 66.326 0.089 6.51 1.32 8.52
8/11/2021 7:30:00 AM 19.07 66.326 0.089 6.53 1.33 8.53
8/11/2021 7:45:00 AM 19.07 66.326 0.089 6.55 1.33 8.55
8/11/2021 8:00:00 AM 19.09 66.362 0.089 6.53 1.31 8.52
8/11/2021 8:15:00 AM 19.11 66.398 0.089 6.51 1.63 8.44
8/11/2021 8:30:00 AM 19.11 66.398 0.089 6.52 1.32 8.56
8/11/2021 8:45:00 AM 19.13 66.434 0.089 6.56 1.35 8.63
8/11/2021 9:00:00 AM 19.15 66.47 0.089 6.57 1.33 8.68
8/11/2021 9:15:00 AM 19.18 66.524 0.089 6.55 1.34 8.69
8/11/2021 9:30:00 AM 19.28 66.704 0.089 6.6 1.33 8.8
8/11/2021 9:45:00 AM 19.35 66.83 0.088 6.6 1.37 8.82
8/11/2021 10:00:00 AM 19.35 66.83 0.088 6.61 1.29 8.81
8/11/2021 10:15:00 AM 19.36 66.848 0.088 6.6 1.38 8.77
8/11/2021 10:30:00 AM 19.42 66.956 0.088 6.6 1.34 8.76
8/11/2021 10:45:00 AM 19.49 67.082 0.088 6.63 1.39 8.83
8/11/2021 11:00:00 AM 19.59 67.262 0.088 6.65 1.42 8.88
8/11/2021 11:15:00 AM 19.74 67.532 0.088 6.62 1.32 8.78
8/11/2021 11:30:00 AM 19.72 67.496 0.088 6.63 1.31 8.78
8/11/2021 11:45:00 AM 19.84 67.712 0.088 6.65 1.31 8.85
8/11/2021 12:00:00 PM 20.26 68.468 0.088 6.66 1.31 8.86
8/11/2021 12:15:00 PM 20.31 68.558 0.088 6.66 1.32 8.86
8/11/2021 12:30:00 PM 20.37 68.666 0.088 6.67 1.29 8.88
8/11/2021 12:45:00 PM 20.57 69.026 0.089 6.54 1.4 8.36
8/11/2021 1:00:00 PM 20.46 68.828 0.09 6.44 1.32 7.79
8/11/2021 1:15:00 PM 20.72 69.296 0.089 6.53 1.28 8.37
8/11/2021 1:30:00 PM 20.93 69.674 0.088 6.67 1.3 8.73
8/11/2021 1:45:00 PM 20.98 69.764 0.089 6.3 1.3 7.34
8/11/2021 2:00:00 PM 21.03 69.854 0.091 6.51 1.32 8.32
8/11/2021 2:15:00 PM 21.49 70.682 0.089 6.56 1.4 8.36
8/11/2021 2:30:00 PM 21.06 69.908 0.091 6.24 1.27 6.97
8/11/2021 2:45:00 PM 21.68 71.024 0.088 6.69 1.29 8.61
8/11/2021 3:00:00 PM 21.79 71.222 0.088 6.64 1.32 8.48
8/11/2021 3:15:00 PM 21.71 71.078 0.088 6.7 1.3 8.6
8/11/2021 3:30:00 PM 21.83 71.294 0.088 6.75 1.31 8.64
8/11/2021 3:45:00 PM 21.74 71.132 0.088 6.69 1.28 8.52
8/11/2021 4:00:00 PM 21.81 71.258 0.088 6.71 1.3 8.55
8/11/2021 4:15:00 PM 21.8 71.24 0.088 6.73 1.32 8.57
8/11/2021 4:30:00 PM 21.79 71.222 0.088 6.73 1.29 8.58
8/11/2021 4:45:00 PM 21.76 71.168 0.088 6.73 1.27 8.55
8/11/2021 5:00:00 PM 21.73 71.114 0.088 6.73 1.32 8.54
8/11/2021 5:15:00 PM 21.67 71.006 0.088 6.72 1.42 8.53
8/11/2021 5:30:00 PM 21.65 70.97 0.088 6.72 1.32 8.56
8/11/2021 5:45:00 PM 21.54 70.772 0.088 6.69 1.31 8.45
8/11/2021 6:00:00 PM 21.44 70.592 0.088 6.7 1.29 8.43
8/11/2021 6:15:00 PM 21.38 70.484 0.088 6.69 1.39 8.41
8/11/2021 6:30:00 PM 21.34 70.412 0.088 6.69 1.31 8.43
8/11/2021 6:45:00 PM 21.28 70.304 0.088 6.66 1.36 8.36
8/11/2021 7:00:00 PM 21.21 70.17799 0.088 6.67 1.34 8.35
8/11/2021 7:15:00 PM 21.16 70.088 0.088 6.66 1.39 8.34
8/11/2021 7:30:00 PM 21.11 69.998 0.088 6.64 1.32 8.32
8/11/2021 7:45:00 PM 21.04 69.872 0.089 6.63 1.47 8.26
8/11/2021 8:00:00 PM 20.97 69.746 0.089 6.61 1.81 8.22
8/11/2021 8:15:00 PM 20.92 69.656 0.089 6.59 1.36 8.16
8/11/2021 8:30:00 PM 20.85 69.53 0.089 6.59 1.36 8.13
8/11/2021 8:45:00 PM 20.8 69.44 0.089 6.58 1.39 8.13
8/11/2021 9:00:00 PM 20.75 69.35 0.089 6.57 1.39 8.14
8/11/2021 9:15:00 PM 20.71 69.278 0.089 6.58 1.32 8.11
8/11/2021 9:30:00 PM 20.66 69.188 0.089 6.56 1.39 8.11
8/11/2021 9:45:00 PM 20.59 69.062 0.089 6.57 1.38 8.15
8/11/2021 10:00:00 PM 20.53 68.954 0.089 6.56 1.35 8.12
8/11/2021 10:15:00 PM 20.47 68.846 0.089 6.56 1.34 8.13
8/11/2021 10:30:00 PM 20.4 68.72 0.089 6.53 1.38 8.11
8/11/2021 10:45:00 PM 20.38 68.684 0.089 6.54 1.38 8.08
8/11/2021 11:00:00 PM 20.3 68.54 0.089 6.53 1.38 8.13
8/11/2021 11:15:00 PM 20.26 68.468 0.089 6.54 1.37 8.1
8/11/2021 11:30:00 PM 20.21 68.378 0.089 6.52 1.47 8.11
8/11/2021 11:45:00 PM 20.15 68.27 0.089 6.55 1.33 8.18
8/12/2021 12:00:00 AM 20.12 68.216 0.089 6.55 1.43 8.16
8/12/2021 12:15:00 AM 20.06 68.108 0.089 6.55 1.28 8.2
8/12/2021 12:30:00 AM 20.03 68.054 0.089 6.54 1.33 8.17
8/12/2021 12:45:00 AM 19.99 67.982 0.089 6.53 1.36 8.18
8/12/2021 1:00:00 AM 19.93 67.874 0.089 6.54 1.35 8.2
8/12/2021 1:15:00 AM 19.89 67.802 0.089 6.54 1.29 8.22
8/12/2021 1:30:00 AM 19.85 67.73 0.089 6.53 1.41 8.19
8/12/2021 1:45:00 AM 19.8 67.64 0.089 6.53 1.36 8.18
8/12/2021 2:00:00 AM 19.75 67.55 0.089 6.51 1.43 8.2
8/12/2021 2:15:00 AM 19.72 67.496 0.089 6.51 1.37 8.14
8/12/2021 2:30:00 AM 19.69 67.442 0.089 6.51 1.37 8.15
8/12/2021 2:45:00 AM 19.65 67.37 0.089 6.51 1.39 8.18
8/12/2021 3:00:00 AM 19.62 67.316 0.089 6.51 1.33 8.16
8/12/2021 3:15:00 AM 19.56 67.208 0.089 6.53 1.33 8.26
8/12/2021 3:30:00 AM 19.57 67.226 0.089 6.51 1.36 8.17
8/12/2021 3:45:00 AM 19.51 67.118 0.089 6.52 4.99 8.22
8/12/2021 4:00:00 AM 19.47 67.046 0.089 6.53 1.33 8.26
8/12/2021 4:15:00 AM 19.44 66.992 0.089 6.52 1.36 8.25
8/12/2021 4:30:00 AM 19.39 66.902 0.089 6.52 1.4 8.28
8/12/2021 4:45:00 AM 19.38 66.884 0.089 6.5 1.33 8.23
8/12/2021 5:00:00 AM 19.33 66.794 0.089 6.53 1.32 8.3
8/12/2021 5:15:00 AM 19.29 66.722 0.089 6.51 1.36 8.31
8/12/2021 5:30:00 AM 19.27 66.686 0.089 6.51 1.37 8.27
8/12/2021 5:45:00 AM 19.25 66.65 0.089 6.5 1.59 8.24
8/12/2021 6:00:00 AM 19.2 66.56 0.089 6.51 1.41 8.28
8/12/2021 6:15:00 AM 19.18 66.524 0.089 6.49 1.36 8.24
8/12/2021 6:30:00 AM 19.14 66.452 0.089 6.5 1.32 8.29
8/12/2021 6:45:00 AM 19.15 66.47 0.089 6.48 1.37 8.24
8/12/2021 7:00:00 AM 19.13 66.434 0.089 6.5 1.39 8.31
8/12/2021 7:15:00 AM 19.11 66.398 0.089 6.51 1.38 8.37
8/12/2021 7:30:00 AM 19.11 66.398 0.089 6.51 1.42 8.36
8/12/2021 7:45:00 AM 19.1 66.38 0.089 6.53 1.36 8.47
8/12/2021 8:00:00 AM 19.1 66.38 0.089 6.56 1.4 8.57
8/12/2021 8:15:00 AM 19.13 66.434 0.088 6.57 1.36 8.63
8/12/2021 8:30:00 AM 19.17 66.506 0.088 6.58 1.37 8.66
8/12/2021 8:45:00 AM 19.22 66.596 0.088 6.62 1.43 8.76
8/12/2021 9:00:00 AM 19.3 66.74 0.088 6.61 1.35 8.78
8/12/2021 9:15:00 AM 19.42 66.956 0.088 6.64 1.37 8.84
8/12/2021 9:30:00 AM 19.57 67.226 0.088 6.67 1.34 8.9
8/12/2021 9:45:00 AM 19.77 67.586 0.088 6.69 1.31 8.99
8/12/2021 10:00:00 AM 19.94 67.892 0.088 6.65 1.36 8.82
8/12/2021 10:15:00 AM 20.01 68.018 0.088 6.69 1.36 8.91
8/12/2021 10:30:00 AM 20.38 68.684 0.088 6.68 1.34 8.86
8/12/2021 10:45:00 AM 20.63 69.134 0.088 6.62 1.38 8.69
8/12/2021 11:00:00 AM 20.56 69.008 0.088 6.62 1.41 8.66
8/12/2021 11:15:00 AM 20.64 69.152 0.088 6.72 1.42 8.88
8/12/2021 11:30:00 AM 20.66 69.188 0.088 6.71 1.4 8.85
8/12/2021 11:45:00 AM 20.73 69.314 0.088 6.69 1.37 8.8
8/12/2021 12:00:00 PM 20.82 69.476 0.088 6.7 1.36 8.79
8/12/2021 12:15:00 PM 21 69.8 0.088 6.69 1.31 8.75
8/12/2021 12:30:00 PM 20.86 69.548 0.088 6.68 1.38 8.61
8/12/2021 12:45:00 PM 20.74 69.332 0.087 6.7 1.35 8.64
8/12/2021 1:00:00 PM 21.13 70.034 0.087 6.7 1.32 8.72
8/12/2021 1:15:00 PM 21.31 70.358 0.088 6.64 1.32 8.5
8/12/2021 1:30:00 PM 21.3 70.34 0.088 6.67 1.3 8.59
8/12/2021 1:45:00 PM 21.58 70.844 0.088 6.65 1.33 8.52
8/12/2021 2:00:00 PM 21.78 71.204 0.088 6.62 1.33 8.44
8/12/2021 2:15:00 PM 21.82 71.276 0.088 6.69 1.3 8.57
8/12/2021 2:30:00 PM 21.98 71.564 0.087 6.71 1.31 8.57
8/12/2021 2:45:00 PM 21.98 71.564 0.088 6.69 1.31 8.5
8/12/2021 3:00:00 PM 22.01 71.618 0.087 6.72 1.37 8.54
8/12/2021 3:15:00 PM 22 71.6 0.087 6.71 1.3 8.51
8/12/2021 3:30:00 PM 22.2 71.96 0.088 6.73 1.38 8.51
8/12/2021 3:45:00 PM 22.03 71.654 0.087 6.73 1.38 8.47
8/12/2021 4:00:00 PM 21.97 71.546 0.087 6.75 1.34 8.49
8/12/2021 4:15:00 PM 21.98 71.564 0.087 6.73 1.35 8.45
8/12/2021 4:30:00 PM 22.02 71.636 0.087 6.72 1.4 8.44
8/12/2021 4:45:00 PM 22.06 71.708 0.088 6.68 1.44 8.41
8/12/2021 5:00:00 PM 22.1 71.78 0.088 6.67 1.39 8.36
8/12/2021 5:15:00 PM 22.11 71.798 0.088 6.69 1.29 8.39
8/12/2021 5:30:00 PM 22.1 71.78 0.088 6.7 1.33 8.39
8/12/2021 5:45:00 PM 22.06 71.708 0.088 6.7 1.34 8.38
8/12/2021 6:00:00 PM 21.94 71.492 0.088 6.69 1.39 8.3
8/12/2021 6:15:00 PM 21.87 71.366 0.088 6.67 1.32 8.27
8/12/2021 6:30:00 PM 21.79 71.222 0.088 6.65 1.39 8.19
8/12/2021 6:45:00 PM 21.71 71.078 0.088 6.63 1.36 8.14
8/12/2021 7:00:00 PM 21.64 70.952 0.089 6.62 1.42 8.09
8/12/2021 7:15:00 PM 21.58 70.844 0.089 6.59 1.63 8.06
8/12/2021 7:30:00 PM 21.53 70.754 0.089 6.58 1.45 8.04
8/12/2021 7:45:00 PM 21.46 70.628 0.089 6.57 1.33 8.03
8/12/2021 8:00:00 PM 21.41 70.538 0.089 6.58 1.32 8.04
8/12/2021 8:15:00 PM 21.38 70.484 0.089 6.56 1.39 7.98
8/12/2021 8:30:00 PM 21.31 70.358 0.089 6.58 1.4 8.02
8/12/2021 8:45:00 PM 21.22 70.196 0.091 6.49 1.94 7.92
8/12/2021 9:00:00 PM 21.23 70.214 0.089 6.45 1.52 7.61
8/12/2021 9:15:00 PM 21.14 70.052 0.088 6.54 1.44 7.94
8/12/2021 9:30:00 PM 21.08 69.944 0.088 6.56 1.46 7.94
8/12/2021 9:45:00 PM 21.02 69.836 0.089 6.45 1.57 7.57
8/12/2021 10:00:00 PM 20.97 69.746 0.088 6.53 1.56 7.9
8/12/2021 10:15:00 PM 20.9 69.62 0.088 6.54 1.48 7.92
8/12/2021 10:30:00 PM 20.84 69.512 0.088 6.54 1.6 7.91
8/12/2021 10:45:00 PM 20.76 69.368 0.088 6.55 1.45 7.98
8/12/2021 11:00:00 PM 20.68 69.224 0.088 6.54 1.46 8
8/12/2021 11:15:00 PM 20.62 69.116 0.088 6.52 1.54 7.92
8/12/2021 11:30:00 PM 20.54 68.972 0.088 6.54 1.41 8.01
8/12/2021 11:45:00 PM 20.49 68.882 0.088 6.51 1.41 7.97
8/13/2021 12:00:00 AM 20.45 68.81 0.088 6.48 1.51 7.9
8/13/2021 12:15:00 AM 20.39 68.702 0.088 6.48 1.39 7.93
8/13/2021 12:30:00 AM 20.34 68.612 0.088 6.49 1.48 7.89
8/13/2021 12:45:00 AM 20.3 68.54 0.088 6.45 1.35 7.83
8/13/2021 1:00:00 AM 20.25 68.45 0.088 6.49 1.45 7.9
8/13/2021 1:15:00 AM 20.2 68.36 0.088 6.47 1.38 7.98
8/13/2021 1:30:00 AM 20.16 68.288 0.088 6.51 1.43 8.02
8/13/2021 1:45:00 AM 20.12 68.216 0.088 6.48 1.34 8.04
8/13/2021 2:00:00 AM 20.09 68.162 0.088 6.5 1.41 8.06
8/13/2021 2:15:00 AM 20.06 68.108 0.088 6.49 1.36 8.06
8/13/2021 2:30:00 AM 20.09 68.162 0.088 6.47 1.46 7.88
8/13/2021 2:45:00 AM 20.01 68.018 0.088 6.47 1.39 8.04
8/13/2021 3:00:00 AM 19.98 67.964 0.088 6.49 1.38 8.06
8/13/2021 3:15:00 AM 19.98 67.964 0.088 6.44 1.4 7.93
8/13/2021 3:30:00 AM 19.96 67.92799 0.088 6.45 1.41 7.9
8/13/2021 3:45:00 AM 19.92 67.856 0.088 6.44 1.52 7.88
8/13/2021 4:00:00 AM 19.88 67.784 0.088 6.44 1.4 7.9
8/13/2021 4:15:00 AM 19.85 67.73 0.088 6.47 1.38 8
8/13/2021 4:30:00 AM 19.8 67.64 0.088 6.48 1.39 8.05
8/13/2021 4:45:00 AM 19.78 67.604 0.088 6.48 1.41 8.05
8/13/2021 5:00:00 AM 19.72 67.496 0.088 6.47 1.52 8.1
8/13/2021 5:15:00 AM 19.69 67.442 0.088 6.52 1.47 8.19
8/13/2021 5:30:00 AM 19.66 67.388 0.088 6.51 1.38 8.18
8/13/2021 5:45:00 AM 19.64 67.352 0.088 6.52 1.48 8.2
8/13/2021 6:00:00 AM 19.62 67.316 0.088 6.51 2.22 8.2
8/13/2021 6:15:00 AM 19.59 67.262 0.087 6.5 1.54 8.23
8/13/2021 6:30:00 AM 19.6 67.28 0.088 6.51 1.5 8.17
8/13/2021 6:45:00 AM 19.55 67.19 0.087 6.52 1.53 8.23
8/13/2021 7:00:00 AM 19.54 67.172 0.087 6.49 1.58 8.21
8/13/2021 7:15:00 AM 19.56 67.208 0.087 6.47 1.47 8.13
8/13/2021 7:30:00 AM 19.52 67.136 0.087 6.52 1.46 8.26
8/13/2021 7:45:00 AM 19.51 67.118 0.087 6.54 1.42 8.39
8/13/2021 8:00:00 AM 19.52 67.136 0.087 6.54 1.41 8.45
8/13/2021 8:15:00 AM 19.55 67.19 0.087 6.57 1.36 8.51
8/13/2021 8:30:00 AM 19.6 67.28 0.087 6.56 1.41 8.52
8/13/2021 8:45:00 AM 19.63 67.334 0.087 6.61 1.41 8.65
8/13/2021 9:00:00 AM 19.65 67.37 0.087 6.62 1.48 8.69
8/13/2021 9:15:00 AM 19.67 67.406 0.087 6.61 1.57 8.71
8/13/2021 9:30:00 AM 19.79 67.622 0.087 6.61 1.39 8.69
8/13/2021 9:45:00 AM 19.94 67.892 0.087 6.63 1.44 8.67
8/13/2021 10:00:00 AM 20.1 68.18 0.087 6.51 1.4 8.48
8/13/2021 10:15:00 AM 20.29 68.522 0.087 6.56 1.43 8.49
8/13/2021 10:30:00 AM 20.48 68.864 0.087 6.59 1.35 8.57
8/13/2021 10:45:00 AM 20.73 69.314 0.087 6.6 1.37 8.65
8/13/2021 11:00:00 AM 20.96 69.728 0.087 6.63 1.35 8.65
8/13/2021 11:15:00 AM 21.11 69.998 0.088 6.54 1.38 8.4
8/13/2021 11:30:00 AM 21.26 70.268 0.087 6.59 1.29 8.48
8/13/2021 11:45:00 AM 21.28 70.304 0.087 6.68 1.33 8.67
8/13/2021 12:00:00 PM 21.34 70.412 0.087 6.67 2.56 8.66
8/13/2021 12:15:00 PM 21.12 70.016 0.09 6.33 1.33 7.57
8/13/2021 12:30:00 PM 21.48 70.664 0.087 6.68 1.44 8.68
8/13/2021 12:45:00 PM 21.43 70.574 0.087 6.65 1.38 8.54
8/13/2021 1:00:00 PM 21.45 70.61 0.087 6.72 1.39 8.69
8/13/2021 1:15:00 PM 21.54 70.772 0.087 6.71 1.45 8.65
8/13/2021 1:30:00 PM 21.48 70.664 0.09 6.65 1.42 8.38
8/13/2021 1:45:00 PM 21.92 71.456 0.088 6.65 1.38 8.4
8/13/2021 2:00:00 PM 21.96 71.528 0.088 6.6 1.37 8.32
8/13/2021 2:15:00 PM 22 71.6 0.087 6.67 1.75 8.44
8/13/2021 2:30:00 PM 21.76 71.168 0.084 6.6 2.94 8.01
8/13/2021 2:45:00 PM 21.78 71.204 0.086 6.47 2.65 7.78
8/13/2021 3:00:00 PM 21.78 71.204 0.086 6.39 3.1 7.55
8/13/2021 3:15:00 PM 22 71.6 0.085 6.66 2.31 8.36
8/13/2021 3:30:00 PM 21.92 71.456 0.085 6.54 2.09 8.06
8/13/2021 3:45:00 PM 21.98 71.564 0.086 6.52 2 7.96
8/13/2021 4:00:00 PM 22.08 71.744 0.086 6.65 1.75 8.32
8/13/2021 4:15:00 PM 21.95 71.51 0.086 6.67 2.1 8.3
8/13/2021 4:30:00 PM 22.1 71.78 0.085 6.52 2.31 7.79
8/13/2021 4:45:00 PM 22.21 71.978 0.085 6.59 2.47 8.04
8/13/2021 5:00:00 PM 22.14 71.852 0.085 6.57 2.09 8.03
8/13/2021 5:15:00 PM 22.09 71.762 0.084 6.59 2.04 8.14
8/13/2021 5:30:00 PM 22.01 71.618 0.084 6.62 2.05 8.2
8/13/2021 5:45:00 PM 21.96 71.528 0.085 6.6 1.95 8.17
8/13/2021 6:00:00 PM 21.88 71.384 0.085 6.61 1.75 8.18
8/13/2021 6:15:00 PM 21.75 71.15 0.085 6.63 1.67 8.19
8/13/2021 6:30:00 PM 21.67 71.006 0.085 6.62 1.63 8.16
8/13/2021 6:45:00 PM 21.6 70.88 0.086 6.6 1.6 8.08
8/13/2021 7:00:00 PM 21.53 70.754 0.086 6.6 1.53 8.07
8/13/2021 7:15:00 PM 21.45 70.61 0.086 6.61 1.51 8.09
8/13/2021 7:30:00 PM 21.43 70.574 0.086 6.55 1.58 7.92
8/13/2021 7:45:00 PM 21.35 70.43 0.086 6.54 1.61 7.94
8/13/2021 8:00:00 PM 21.27 70.286 0.086 6.57 1.5 8.03
8/13/2021 8:15:00 PM 21.22 70.196 0.087 6.55 1.89 7.97
8/13/2021 8:30:00 PM 21.15 70.07 0.087 6.55 2.09 7.98
8/13/2021 8:45:00 PM 21.1 69.98 0.087 6.52 1.59 7.88
8/13/2021 9:00:00 PM 21.03 69.854 0.087 6.52 1.6 7.91
8/13/2021 9:15:00 PM 21 69.8 0.087 6.51 1.54 7.83
8/13/2021 9:30:00 PM 20.94 69.692 0.087 6.53 1.92 7.93
8/13/2021 9:45:00 PM 20.89 69.602 0.087 6.53 1.57 7.96
8/13/2021 10:00:00 PM 20.84 69.512 0.087 6.53 1.53 7.97
8/13/2021 10:15:00 PM 20.81 69.458 0.086 6.51 1.52 7.97
8/13/2021 10:30:00 PM 20.76 69.368 0.086 6.55 1.54 8.01
8/13/2021 10:45:00 PM 20.73 69.314 0.086 6.54 1.51 8.04
8/13/2021 11:00:00 PM 20.77 69.386 0.084 6.57 2.19 8.01
8/13/2021 11:15:00 PM 20.74 69.332 0.085 6.53 2.06 7.87
8/13/2021 11:30:00 PM 20.65 69.17 0.084 6.52 2.12 7.95
8/13/2021 11:45:00 PM 20.58 69.044 0.084 6.54 1.75 8.03
8/14/2021 12:00:00 AM 20.55 68.99 0.085 6.53 1.69 7.97
8/14/2021 12:15:00 AM 20.48 68.864 0.085 6.53 1.71 8
8/14/2021 12:30:00 AM 20.46 68.828 0.085 6.52 1.59 7.94
8/14/2021 12:45:00 AM 20.39 68.702 0.085 6.53 1.52 7.99
8/14/2021 1:00:00 AM 20.35 68.63 0.085 6.53 1.51 8.03
8/14/2021 1:15:00 AM 20.34 68.612 0.085 6.52 1.53 7.97
8/14/2021 1:30:00 AM 20.32 68.576 0.085 6.52 1.49 7.96
8/14/2021 1:45:00 AM 20.27 68.486 0.085 6.53 1.5 7.98
8/14/2021 2:00:00 AM 20.26 68.468 0.085 6.52 1.69 7.93
8/14/2021 2:15:00 AM 20.23 68.414 0.085 6.51 1.45 7.89
8/14/2021 2:30:00 AM 20.17 68.306 0.085 6.54 1.5 8.04
8/14/2021 2:45:00 AM 20.16 68.288 0.086 6.51 1.53 7.98
8/14/2021 3:00:00 AM 20.13 68.234 0.085 6.51 1.42 7.99
8/14/2021 3:15:00 AM 20.08 68.144 0.085 6.55 1.48 8.12
8/14/2021 3:30:00 AM 20.06 68.108 0.085 6.54 1.45 8.09
8/14/2021 3:45:00 AM 20.04 68.07201 0.085 6.54 1.51 8.12
8/14/2021 4:00:00 AM 19.99 67.982 0.085 6.55 1.64 8.12
8/14/2021 4:15:00 AM 19.97 67.946 0.086 6.56 1.65 8.19
8/14/2021 4:30:00 AM 19.96 67.92799 0.086 6.54 1.77 8.16
8/14/2021 4:45:00 AM 19.92 67.856 0.086 6.55 1.71 8.21
8/14/2021 5:00:00 AM 19.91 67.838 0.086 6.55 1.73 8.18
8/14/2021 5:15:00 AM 19.89 67.802 0.086 6.54 1.68 8.18
8/14/2021 5:30:00 AM 19.86 67.748 0.086 6.55 1.63 8.2
8/14/2021 5:45:00 AM 19.84 67.712 0.086 6.52 1.6 8.19
8/14/2021 6:00:00 AM 19.82 67.676 0.086 6.55 1.51 8.19
8/14/2021 6:15:00 AM 19.81 67.658 0.086 6.54 2.19 8.18
8/14/2021 6:30:00 AM 19.79 67.622 0.086 6.54 1.73 8.2
8/14/2021 6:45:00 AM 19.77 67.586 0.086 6.54 1.59 8.23
8/14/2021 7:00:00 AM 19.76 67.568 0.086 6.54 1.62 8.23
8/14/2021 7:15:00 AM 19.74 67.532 0.086 6.56 1.62 8.28
8/14/2021 7:30:00 AM 19.75 67.55 0.086 6.55 1.7 8.25
8/14/2021 7:45:00 AM 19.74 67.532 0.086 6.56 1.66 8.34
8/14/2021 8:00:00 AM 19.72 67.496 0.086 6.57 1.57 8.34
8/14/2021 8:15:00 AM 19.74 67.532 0.086 6.53 1.57 8.25
8/14/2021 8:30:00 AM 19.73 67.514 0.086 6.54 1.55 8.3
8/14/2021 8:45:00 AM 19.74 67.532 0.087 6.53 1.74 8.25
8/14/2021 9:00:00 AM 19.73 67.514 0.086 6.57 1.59 8.41
8/14/2021 9:15:00 AM 19.74 67.532 0.086 6.58 1.59 8.48
8/14/2021 9:30:00 AM 19.79 67.622 0.087 6.56 1.49 8.45
8/14/2021 9:45:00 AM 19.76 67.568 0.087 6.57 1.87 8.4
8/14/2021 10:00:00 AM 19.74 67.532 0.087 6.57 1.48 8.39
8/14/2021 10:15:00 AM 19.7 67.46 0.087 6.57 1.43 8.41
8/14/2021 10:30:00 AM 19.68 67.424 0.087 6.58 1.42 8.5
8/14/2021 10:45:00 AM 19.71 67.478 0.087 6.65 1.44 8.64
8/14/2021 11:00:00 AM 19.78 67.604 0.087 6.66 1.47 8.69
8/14/2021 11:15:00 AM 19.86 67.748 0.087 6.68 1.47 8.81
8/14/2021 11:30:00 AM 19.9 67.82 0.087 6.67 1.45 8.73
8/14/2021 11:45:00 AM 19.94 67.892 0.087 6.66 1.47 8.71
8/14/2021 12:00:00 PM 20.02 68.036 0.087 6.67 1.51 8.77
8/14/2021 12:15:00 PM 20.2 68.36 0.088 6.52 1.52 8.44
8/14/2021 12:30:00 PM 20.52 68.936 0.087 6.63 1.48 8.62
8/14/2021 12:45:00 PM 20.67 69.206 0.088 6.44 1.5 7.93
8/14/2021 1:00:00 PM 20.94 69.692 0.087 6.65 1.47 8.63
8/14/2021 1:15:00 PM 21.09 69.962 0.088 6.62 1.58 8.58
8/14/2021 1:30:00 PM 21.23 70.214 0.088 6.63 1.47 8.59
8/14/2021 1:45:00 PM 21.38 70.484 0.087 6.7 1.5 8.65
8/14/2021 2:00:00 PM 21.08 69.944 0.089 6.56 1.55 8.15
8/14/2021 2:15:00 PM 21.42 70.556 0.087 6.65 1.57 8.51
8/14/2021 2:30:00 PM 21.38 70.484 0.087 6.65 1.82 8.48
8/14/2021 2:45:00 PM 21.57 70.826 0.087 6.72 1.41 8.58
8/14/2021 3:00:00 PM 21.51 70.718 0.087 6.72 1.43 8.59
8/14/2021 3:15:00 PM 21.48 70.664 0.087 6.7 1.43 8.52
8/14/2021 3:30:00 PM 21.59 70.862 0.087 6.72 1.39 8.53
8/14/2021 3:45:00 PM 21.6 70.88 0.087 6.73 1.44 8.51
8/14/2021 4:00:00 PM 21.55 70.79 0.087 6.74 1.4 8.51
8/14/2021 4:15:00 PM 21.55 70.79 0.087 6.72 1.37 8.5
8/14/2021 4:30:00 PM 21.51 70.718 0.087 6.71 1.38 8.45
8/14/2021 4:45:00 PM 21.45 70.61 0.087 6.71 1.42 8.47
8/14/2021 5:00:00 PM 21.38 70.484 0.087 6.72 1.4 8.49
8/14/2021 5:15:00 PM 21.27 70.286 0.087 6.71 1.4 8.47
8/14/2021 5:30:00 PM 21.14 70.052 0.087 6.67 1.41 8.39
8/14/2021 5:45:00 PM 21.03 69.854 0.087 6.64 1.49 8.37
8/14/2021 6:00:00 PM 20.97 69.746 0.087 6.64 1.38 8.32
8/14/2021 6:15:00 PM 20.82 69.476 0.087 6.66 1.43 8.36
8/14/2021 6:30:00 PM 20.76 69.368 0.087 6.65 1.43 8.32
8/14/2021 6:45:00 PM 20.69 69.242 0.087 6.65 1.58 8.35
8/14/2021 7:00:00 PM 20.62 69.116 0.087 6.66 1.44 8.36
8/14/2021 7:15:00 PM 20.58 69.044 0.087 6.65 1.41 8.34
8/14/2021 7:30:00 PM 20.52 68.936 0.087 6.64 1.48 8.32
8/14/2021 7:45:00 PM 20.44 68.792 0.087 6.62 1.52 8.31
8/14/2021 8:00:00 PM 20.36 68.648 0.087 6.63 1.49 8.3
8/14/2021 8:15:00 PM 20.29 68.522 0.087 6.62 1.49 8.25
8/14/2021 8:30:00 PM 20.2 68.36 0.087 6.62 1.57 8.25
8/14/2021 8:45:00 PM 20.13 68.234 0.087 6.58 1.4 8.24
8/14/2021 9:00:00 PM 20.05 68.09 0.087 6.6 1.64 8.24
8/14/2021 9:15:00 PM 19.96 67.92799 0.087 6.6 1.47 8.25
8/14/2021 9:30:00 PM 19.89 67.802 0.087 6.57 1.41 8.25
8/14/2021 9:45:00 PM 19.81 67.658 0.087 6.58 1.45 8.28
8/14/2021 10:00:00 PM 19.75 67.55 0.087 6.57 1.42 8.22
8/14/2021 10:15:00 PM 19.64 67.352 0.087 6.57 1.45 8.29
8/14/2021 10:30:00 PM 19.56 67.208 0.087 6.57 1.47 8.3
8/14/2021 10:45:00 PM 19.48 67.064 0.087 6.58 1.43 8.33
8/14/2021 11:00:00 PM 19.41 66.938 0.087 6.57 1.42 8.33
8/14/2021 11:15:00 PM 19.32 66.776 0.087 6.6 1.44 8.4
8/14/2021 11:30:00 PM 19.25 66.65 0.087 6.58 1.41 8.36
8/14/2021 11:45:00 PM 19.19 66.542 0.087 6.57 13.34 8.37
8/15/2021 12:00:00 AM 19.11 66.398 0.087 6.57 1.42 8.37
8/15/2021 12:15:00 AM 19.03 66.254 0.087 6.57 1.42 8.42
8/15/2021 12:30:00 AM 18.94 66.092 0.087 6.57 1.5 8.46
8/15/2021 12:45:00 AM 18.88 65.984 0.087 6.58 1.47 8.45
8/15/2021 1:00:00 AM 18.79 65.82201 0.087 6.59 1.47 8.49
8/15/2021 1:15:00 AM 18.73 65.714 0.087 6.58 1.48 8.5
8/15/2021 1:30:00 AM 18.65 65.57 0.087 6.58 1.46 8.51
8/15/2021 1:45:00 AM 18.6 65.48 0.087 6.58 1.46 8.51
8/15/2021 2:00:00 AM 18.51 65.318 0.087 6.58 1.44 8.54
8/15/2021 2:15:00 AM 18.46 65.228 0.087 6.58 1.4 8.54
8/15/2021 2:30:00 AM 18.38 65.084 0.087 6.58 1.48 8.55
8/15/2021 2:45:00 AM 18.32 64.976 0.087 6.56 1.49 8.6
8/15/2021 3:00:00 AM 18.27 64.886 0.087 6.58 1.49 8.63
8/15/2021 3:15:00 AM 18.24 64.832 0.087 6.56 1.45 8.57
8/15/2021 3:30:00 AM 18.16 64.688 0.087 6.59 1.45 8.64
8/15/2021 3:45:00 AM 18.13 64.634 0.087 6.58 1.45 8.63
8/15/2021 4:00:00 AM 18.06 64.508 0.087 6.59 1.45 8.68
8/15/2021 4:15:00 AM 18.01 64.418 0.087 6.6 1.39 8.7
8/15/2021 4:30:00 AM 17.99 64.382 0.087 6.58 1.4 8.67
8/15/2021 4:45:00 AM 17.94 64.292 0.087 6.59 1.43 8.69
8/15/2021 5:00:00 AM 17.9 64.22 0.087 6.58 1.46 8.69
8/15/2021 5:15:00 AM 17.86 64.148 0.087 6.59 1.46 8.73
8/15/2021 5:30:00 AM 17.82 64.076 0.087 6.59 1.52 8.73
8/15/2021 5:45:00 AM 17.76 63.968 0.087 6.61 1.54 8.79
8/15/2021 6:00:00 AM 17.74 63.932 0.087 6.58 1.52 8.77
8/15/2021 6:15:00 AM 17.72 63.896 0.087 6.59 1.45 8.73
8/15/2021 6:30:00 AM 17.68 63.824 0.087 6.6 1.45 8.79
8/15/2021 6:45:00 AM 17.65 63.77 0.087 6.59 1.46 8.81
8/15/2021 7:00:00 AM 17.61 63.698 0.087 6.62 1.47 8.86
8/15/2021 7:15:00 AM 17.58 63.644 0.087 6.61 1.42 8.9
8/15/2021 7:30:00 AM 17.58 63.644 0.087 6.61 1.4 8.87
8/15/2021 7:45:00 AM 17.56 63.608 0.087 6.63 1.44 8.96
8/15/2021 8:00:00 AM 17.55 63.59 0.087 6.66 1.4 9.05
8/15/2021 8:15:00 AM 17.56 63.608 0.087 6.63 1.44 9.02
8/15/2021 8:30:00 AM 17.56 63.608 0.087 6.66 1.43 9.07
8/15/2021 8:45:00 AM 17.57 63.626 0.087 6.67 1.46 9.13
8/15/2021 9:00:00 AM 17.58 63.644 0.086 6.7 1.42 9.23
8/15/2021 9:15:00 AM 17.61 63.698 0.086 6.69 1.44 9.22
8/15/2021 9:30:00 AM 17.68 63.824 0.086 6.69 1.39 9.22
8/15/2021 9:45:00 AM 17.79 64.022 0.086 6.72 1.39 9.29
8/15/2021 10:00:00 AM 17.88 64.184 0.086 6.74 1.37 9.33
8/15/2021 10:15:00 AM 18.15 64.67 0.086 6.71 1.39 9.31
8/15/2021 10:30:00 AM 18.32 64.976 0.086 6.77 1.33 9.34
8/15/2021 10:45:00 AM 18.38 65.084 0.086 6.8 1.38 9.44
8/15/2021 11:00:00 AM 18.45 65.21 0.086 6.79 1.39 9.36
8/15/2021 11:15:00 AM 18.45 65.21 0.086 6.79 1.36 9.35
8/15/2021 11:30:00 AM 18.5 65.3 0.086 6.76 1.38 9.31
8/15/2021 11:45:00 AM 18.54 65.372 0.086 6.79 1.38 9.33
8/15/2021 12:00:00 PM 18.57 65.426 0.086 6.78 1.39 9.32
8/15/2021 12:15:00 PM 18.62 65.516 0.086 6.76 1.38 9.3
8/15/2021 12:30:00 PM 18.91 66.038 0.086 6.78 1.37 9.29
8/15/2021 12:45:00 PM 19.27 66.686 0.086 6.69 1.39 9.03
8/15/2021 1:00:00 PM 19.44 66.992 0.086 6.73 1.36 9.08
8/15/2021 1:15:00 PM 19.59 67.262 0.086 6.68 1.38 8.94
8/15/2021 1:30:00 PM 19.8 67.64 0.086 6.67 1.3 8.92
8/15/2021 1:45:00 PM 19.85 67.73 0.086 6.74 1.38 9.03
8/15/2021 2:00:00 PM 19.87 67.766 0.086 6.77 1.33 9.07
8/15/2021 2:15:00 PM 20.01 68.018 0.086 6.77 1.33 9.06
8/15/2021 2:30:00 PM 19.92 67.856 0.086 6.77 1.33 9.03
8/15/2021 2:45:00 PM 19.98 67.964 0.086 6.8 1.35 9.09
8/15/2021 3:00:00 PM 20.06 68.108 0.086 6.75 1.36 8.98
8/15/2021 3:15:00 PM 20.09 68.162 0.086 6.74 1.39 8.91
8/15/2021 3:30:00 PM 20.1 68.18 0.086 6.78 1.83 8.99
8/15/2021 3:45:00 PM 20.12 68.216 0.086 6.79 1.35 8.99
8/15/2021 4:00:00 PM 20.18 68.324 0.086 6.81 1.39 9
8/15/2021 4:15:00 PM 20.18 68.324 0.086 6.8 1.42 8.97
8/15/2021 4:30:00 PM 20.16 68.288 0.086 6.8 1.34 8.97
8/15/2021 4:45:00 PM 20.28 68.504 0.086 6.76 1.36 8.93
8/15/2021 5:00:00 PM 20.23 68.414 0.086 6.78 1.36 8.89
8/15/2021 5:15:00 PM 20.09 68.162 0.086 6.76 1.36 8.84
8/15/2021 5:30:00 PM 19.99 67.982 0.086 6.77 1.43 8.84
8/15/2021 5:45:00 PM 19.96 67.92799 0.086 6.77 1.98 8.85
8/15/2021 6:00:00 PM 19.89 67.802 0.086 6.73 1.32 8.79
8/15/2021 6:15:00 PM 19.8 67.64 0.086 6.73 1.37 8.77
8/15/2021 6:30:00 PM 19.74 67.532 0.086 6.74 1.45 8.77
8/15/2021 6:45:00 PM 19.7 67.46 0.086 6.71 1.37 8.73
8/15/2021 7:00:00 PM 19.67 67.406 0.086 6.67 1.34 8.66
8/15/2021 7:15:00 PM 19.63 67.334 0.087 6.66 1.37 8.61
8/15/2021 7:30:00 PM 19.57 67.226 0.087 6.66 1.5 8.58
8/15/2021 7:45:00 PM 19.52 67.136 0.087 6.65 1.52 8.53
8/15/2021 8:00:00 PM 19.47 67.046 0.087 6.63 1.39 8.5
8/15/2021 8:15:00 PM 19.41 66.938 0.087 6.63 1.36 8.46
8/15/2021 8:30:00 PM 19.35 66.83 0.087 6.61 1.49 8.44
8/15/2021 8:45:00 PM 19.3 66.74 0.087 6.59 1.33 8.39
8/15/2021 9:00:00 PM 19.25 66.65 0.087 6.6 1.43 8.39
8/15/2021 9:15:00 PM 19.2 66.56 0.087 6.54 1.47 8.3
8/15/2021 9:30:00 PM 19.14 66.452 0.087 6.59 1.33 8.37
8/15/2021 9:45:00 PM 19.1 66.38 0.087 6.59 1.42 8.38
8/15/2021 10:00:00 PM 19.07 66.326 0.087 6.55 1.47 8.35
8/15/2021 10:15:00 PM 19.04 66.272 0.087 6.56 1.41 8.34
8/15/2021 10:30:00 PM 18.98 66.164 0.087 6.59 1.38 8.4
8/15/2021 10:45:00 PM 18.95 66.11 0.087 6.57 1.36 8.36
8/15/2021 11:00:00 PM 18.91 66.038 0.087 6.57 1.4 8.38
8/15/2021 11:15:00 PM 18.87 65.966 0.087 6.57 1.43 8.39
8/15/2021 11:30:00 PM 18.82 65.876 0.087 6.57 1.42 8.41
8/15/2021 11:45:00 PM 18.78 65.804 0.087 6.59 1.36 8.45
8/16/2021 12:00:00 AM 18.76 65.768 0.087 6.56 1.43 8.4
8/16/2021 12:15:00 AM 18.72 65.696 0.087 6.56 1.33 8.42
8/16/2021 12:30:00 AM 18.68 65.624 0.087 6.56 1.36 8.43
8/16/2021 12:45:00 AM 18.65 65.57 0.087 6.56 1.43 8.44
8/16/2021 1:00:00 AM 18.6 65.48 0.087 6.56 1.38 8.47
8/16/2021 1:15:00 AM 18.57 65.426 0.088 6.56 1.36 8.46
8/16/2021 1:30:00 AM 18.53 65.354 0.087 6.58 1.45 8.5
8/16/2021 1:45:00 AM 18.5 65.3 0.087 6.55 1.4 8.49
8/16/2021 2:00:00 AM 18.48 65.264 0.087 6.56 1.41 8.48
8/16/2021 2:15:00 AM 18.44 65.192 0.087 6.58 1.39 8.54
8/16/2021 2:30:00 AM 18.41 65.138 0.087 6.57 1.4 8.55
8/16/2021 2:45:00 AM 18.39 65.102 0.087 6.58 1.39 8.51
8/16/2021 3:00:00 AM 18.35 65.03 0.087 6.58 1.39 8.53
8/16/2021 3:15:00 AM 18.34 65.012 0.087 6.58 1.44 8.53
8/16/2021 3:30:00 AM 18.32 64.976 0.087 6.57 1.37 8.53
8/16/2021 3:45:00 AM 18.28 64.904 0.087 6.56 1.42 8.56
8/16/2021 4:00:00 AM 18.26 64.868 0.087 6.57 1.39 8.56
8/16/2021 4:15:00 AM 18.24 64.832 0.087 6.58 1.34 8.57
8/16/2021 4:30:00 AM 18.23 64.814 0.087 6.57 1.37 8.55
8/16/2021 4:45:00 AM 18.19 64.742 0.087 6.58 1.34 8.61
8/16/2021 5:00:00 AM 18.18 64.724 0.087 6.57 1.43 8.59
8/16/2021 5:15:00 AM 18.15 64.67 0.087 6.57 1.37 8.6
8/16/2021 5:30:00 AM 18.13 64.634 0.087 6.57 1.42 8.6
8/16/2021 5:45:00 AM 18.12 64.616 0.087 6.58 1.39 8.57
8/16/2021 6:00:00 AM 18.1 64.58 0.087 6.58 1.47 8.61
8/16/2021 6:15:00 AM 18.08 64.544 0.087 6.58 1.54 8.6
8/16/2021 6:30:00 AM 18.07 64.526 0.087 6.54 1.32 8.57
8/16/2021 6:45:00 AM 18.04 64.472 0.087 6.59 1.46 8.63
8/16/2021 7:00:00 AM 18.04 64.472 0.087 6.58 1.41 8.64
8/16/2021 7:15:00 AM 18.04 64.472 0.087 6.56 1.43 8.66
8/16/2021 7:30:00 AM 18.04 64.472 0.087 6.58 1.41 8.7
8/16/2021 7:45:00 AM 18.05 64.49 0.087 6.6 1.39 8.74
8/16/2021 8:00:00 AM 18.09 64.562 0.087 6.61 1.39 8.78
8/16/2021 8:15:00 AM 18.1 64.58 0.087 6.64 1.45 8.88
8/16/2021 8:30:00 AM 18.13 64.634 0.087 6.63 1.4 8.86
8/16/2021 8:45:00 AM 18.21 64.778 0.087 6.64 1.42 8.93
8/16/2021 9:00:00 AM 18.23 64.814 0.087 6.67 1.42 9.06
8/16/2021 9:15:00 AM 18.28 64.904 0.087 6.69 1.4 9.09
8/16/2021 9:30:00 AM 18.34 65.012 0.087 6.7 1.35 9.09
8/16/2021 9:45:00 AM 18.37 65.066 0.087 6.71 1.42 9.1
8/16/2021 10:00:00 AM 18.42 65.156 0.087 6.7 1.4 9.07
8/16/2021 10:15:00 AM 18.49 65.282 0.087 6.7 1.34 9.09
8/16/2021 10:30:00 AM 18.57 65.426 0.087 6.73 1.35 9.12
8/16/2021 10:45:00 AM 18.62 65.516 0.087 6.73 1.31 9.12
8/16/2021 11:00:00 AM 18.69 65.642 0.087 6.73 1.39 9.11
8/16/2021 11:15:00 AM 18.75 65.75 0.087 6.73 1.38 9.1
8/16/2021 11:30:00 AM 18.8 65.84 0.086 6.74 1.33 9.14
8/16/2021 11:45:00 AM 18.83 65.894 0.086 6.74 1.31 9.1
8/16/2021 12:00:00 PM 18.87 65.966 0.086 6.77 1.39 9.14
8/16/2021 12:15:00 PM 18.99 66.182 0.086 6.74 1.37 9.09
8/16/2021 12:30:00 PM 19.07 66.326 0.086 6.73 1.35 9.05
8/16/2021 12:45:00 PM 19.15 66.47 0.086 6.75 1.34 9.07
8/16/2021 1:00:00 PM 19.19 66.542 0.086 6.71 1.36 9
8/16/2021 1:15:00 PM 19.2 66.56 0.086 6.75 1.33 9.02
8/16/2021 1:30:00 PM 19.19 66.542 0.086 6.76 1.36 9.05
8/16/2021 1:45:00 PM 19.16 66.488 0.086 6.75 1.38 8.98
8/16/2021 2:00:00 PM 19.17 66.506 0.086 6.75 1.35 8.98
8/16/2021 2:15:00 PM 19.18 66.524 0.086 6.76 1.4 9.01
8/16/2021 2:30:00 PM 19.21 66.578 0.086 6.75 1.39 8.98
8/16/2021 2:45:00 PM 19.3 66.74 0.086 6.73 1.35 8.96
8/16/2021 3:00:00 PM 19.32 66.776 0.087 6.71 1.35 8.93
8/16/2021 3:15:00 PM 19.34 66.812 0.086 6.75 1.35 8.97
8/16/2021 3:30:00 PM 19.36 66.848 0.086 6.73 1.38 8.97
8/16/2021 3:45:00 PM 19.36 66.848 0.086 6.72 1.39 8.91
8/16/2021 4:00:00 PM 19.35 66.83 0.087 6.71 1.38 8.87
8/16/2021 4:15:00 PM 19.34 66.812 0.087 6.72 1.36 8.87
8/16/2021 4:30:00 PM 19.32 66.776 0.087 6.7 1.42 8.83
8/16/2021 4:45:00 PM 19.3 66.74 0.087 6.69 1.47 8.82
8/16/2021 5:00:00 PM 19.27 66.686 0.087 6.71 1.45 8.81
8/16/2021 5:15:00 PM 19.27 66.686 0.087 6.7 1.38 8.83
8/16/2021 5:30:00 PM 19.28 66.704 0.087 6.72 1.43 8.86
8/16/2021 5:45:00 PM 19.29 66.722 0.087 6.69 1.37 8.83
8/16/2021 6:00:00 PM 19.28 66.704 0.087 6.67 1.39 8.75
8/16/2021 6:15:00 PM 19.26 66.668 0.087 6.67 1.42 8.72
8/16/2021 6:30:00 PM 19.23 66.614 0.087 6.66 1.35 8.69
8/16/2021 6:45:00 PM 19.21 66.578 0.087 6.64 1.36 8.61
8/16/2021 7:00:00 PM 19.18 66.524 0.087 6.66 1.38 8.65
8/16/2021 7:15:00 PM 19.16 66.488 0.087 6.65 1.34 8.61
8/16/2021 7:30:00 PM 19.12 66.416 0.087 6.63 1.38 8.53
8/16/2021 7:45:00 PM 19.09 66.362 0.087 6.6 1.46 8.49
8/16/2021 8:00:00 PM 19.07 66.326 0.088 6.6 1.36 8.43
8/16/2021 8:15:00 PM 19.04 66.272 0.088 6.58 1.92 8.43
8/16/2021 8:30:00 PM 19.02 66.236 0.088 6.58 1.39 8.41
8/16/2021 8:45:00 PM 19.01 66.218 0.088 6.53 1.42 8.34
8/16/2021 9:00:00 PM 18.98 66.164 0.088 6.56 1.53 8.38
8/16/2021 9:15:00 PM 18.96 66.128 0.088 6.58 1.42 8.39
8/16/2021 9:30:00 PM 18.95 66.11 0.088 6.57 1.41 8.36
8/16/2021 9:45:00 PM 18.92 66.056 0.088 6.56 1.43 8.42
8/16/2021 10:00:00 PM 18.9 66.02 0.088 6.58 1.34 8.41
8/16/2021 10:15:00 PM 18.89 66.002 0.088 6.58 1.43 8.42
8/16/2021 10:30:00 PM 18.86 65.948 0.088 6.6 1.41 8.48
8/16/2021 10:45:00 PM 18.84 65.912 0.088 6.56 1.41 8.44
8/16/2021 11:00:00 PM 18.82 65.876 0.088 6.57 1.35 8.45
8/16/2021 11:15:00 PM 18.81 65.858 0.088 6.58 1.39 8.44
8/16/2021 11:30:00 PM 18.78 65.804 0.088 6.58 1.43 8.48
8/16/2021 11:45:00 PM 18.77 65.786 0.088 6.56 1.42 8.46
8/17/2021 12:00:00 AM 18.77 65.786 0.088 6.55 1.43 8.42
8/17/2021 12:15:00 AM 18.76 65.768 0.088 6.55 1.4 8.42
8/17/2021 12:30:00 AM 18.76 65.768 0.088 6.57 1.42 8.44
8/17/2021 12:45:00 AM 18.74 65.732 0.088 6.54 1.43 8.44
8/17/2021 1:00:00 AM 18.74 65.732 0.088 6.56 1.41 8.43
8/17/2021 1:15:00 AM 18.75 65.75 0.088 6.55 1.46 8.37
8/17/2021 1:30:00 AM 18.74 65.732 0.088 6.54 1.35 8.4
8/17/2021 1:45:00 AM 18.72 65.696 0.088 6.57 1.37 8.43
8/17/2021 2:00:00 AM 18.69 65.642 0.088 6.58 1.4 8.48
8/17/2021 2:15:00 AM 18.71 65.67799 0.088 6.56 1.4 8.41
8/17/2021 2:30:00 AM 18.66 65.588 0.088 6.58 1.37 8.52
8/17/2021 2:45:00 AM 18.67 65.606 0.088 6.55 1.46 8.5
8/17/2021 3:00:00 AM 18.65 65.57 0.088 6.59 1.42 8.52
8/17/2021 3:15:00 AM 18.64 65.552 0.088 6.59 1.38 8.53
8/17/2021 3:30:00 AM 18.64 65.552 0.088 6.56 1.4 8.49
8/17/2021 3:45:00 AM 18.62 65.516 0.088 6.58 1.45 8.53
8/17/2021 4:00:00 AM 18.62 65.516 0.088 6.57 1.45 8.49
8/17/2021 4:15:00 AM 18.6 65.48 0.088 6.58 1.44 8.54
8/17/2021 4:30:00 AM 18.6 65.48 0.088 6.56 1.39 8.47
8/17/2021 4:45:00 AM 18.6 65.48 0.088 6.52 1.35 8.44
8/17/2021 5:00:00 AM 18.58 65.444 0.088 6.56 1.47 8.49
8/17/2021 5:15:00 AM 18.58 65.444 0.088 6.55 1.41 8.48
8/17/2021 5:30:00 AM 18.57 65.426 0.088 6.54 1.41 8.48
8/17/2021 5:45:00 AM 18.56 65.408 0.088 6.55 1.72 8.49
8/17/2021 6:00:00 AM 18.55 65.39 0.088 6.56 1.44 8.52
8/17/2021 6:15:00 AM 18.54 65.372 0.088 6.55 1.4 8.5
8/17/2021 6:30:00 AM 18.53 65.354 0.088 6.52 1.47 8.5
8/17/2021 6:45:00 AM 18.53 65.354 0.088 6.52 1.4 8.45
8/17/2021 7:00:00 AM 18.53 65.354 0.088 6.52 1.4 8.49
8/17/2021 7:15:00 AM 18.52 65.336 0.088 6.54 1.44 8.53
8/17/2021 7:30:00 AM 18.53 65.354 0.088 6.55 1.42 8.54
8/17/2021 7:45:00 AM 18.53 65.354 0.088 6.53 1.44 8.58
8/17/2021 8:00:00 AM 18.56 65.408 0.088 6.54 1.46 8.57
8/17/2021 8:15:00 AM 18.56 65.408 0.088 6.57 1.46 8.64
8/17/2021 8:30:00 AM 18.56 65.408 0.088 6.54 1.38 8.68
8/17/2021 8:45:00 AM 18.6 65.48 0.088 6.59 1.4 8.76
8/17/2021 9:00:00 AM 18.65 65.57 0.088 6.61 1.41 8.86
8/17/2021 9:15:00 AM 18.7 65.66 0.088 6.61 1.35 8.93
8/17/2021 9:30:00 AM 18.75 65.75 0.088 6.64 1.39 8.99
8/17/2021 9:45:00 AM 18.81 65.858 0.088 6.67 1.64 9.04
8/17/2021 10:00:00 AM 18.85 65.93 0.088 6.66 1.64 9
8/17/2021 10:15:00 AM 18.92 66.056 0.088 6.67 1.5 9.05
8/17/2021 10:30:00 AM 19.01 66.218 0.088 6.69 1.41 9.05
8/17/2021 10:45:00 AM 19.23 66.614 0.088 6.67 1.44 9.03
8/17/2021 11:00:00 AM 19.41 66.938 0.088 6.67 1.51 8.89
8/17/2021 11:15:00 AM 19.4 66.92 0.088 6.73 1.48 9.03
8/17/2021 11:30:00 AM 19.46 67.028 0.088 6.76 1.43 9.1
8/17/2021 11:45:00 AM 19.52 67.136 0.088 6.73 1.45 9.01
8/17/2021 12:00:00 PM 19.61 67.298 0.088 6.73 1.51 9.01
8/17/2021 12:15:00 PM 19.72 67.496 0.088 6.67 1.53 8.88
8/17/2021 12:30:00 PM 19.76 67.568 0.088 6.74 1.46 8.96
8/17/2021 12:45:00 PM 19.82 67.676 0.088 6.75 1.4 8.98
8/17/2021 1:00:00 PM 19.87 67.766 0.088 6.75 1.36 8.97
8/17/2021 1:15:00 PM 19.91 67.838 0.088 6.73 1.43 8.9
8/17/2021 1:30:00 PM 20.01 68.018 0.088 6.7 1.39 8.84
8/17/2021 1:45:00 PM 20.01 68.018 0.088 6.67 1.44 8.68
8/17/2021 2:00:00 PM 19.99 67.982 0.088 6.71 1.46 8.73
8/17/2021 2:15:00 PM 20.14 68.252 0.088 6.72 1.4 8.82
8/17/2021 2:30:00 PM 20.17 68.306 0.088 6.67 1.4 8.72
8/17/2021 2:45:00 PM 20.16 68.288 0.088 6.69 1.35 8.7
8/17/2021 3:00:00 PM 20.14 68.252 0.088 6.73 1.38 8.73
8/17/2021 3:15:00 PM 20.11 68.198 0.088 6.68 1.4 8.61
8/17/2021 3:30:00 PM 20.06 68.108 0.088 6.71 1.44 8.62
8/17/2021 3:45:00 PM 20.05 68.09 0.088 6.7 1.7 8.6
8/17/2021 4:00:00 PM 20.03 68.054 0.088 6.69 1.55 8.62
8/17/2021 4:15:00 PM 19.68 67.424 0.091 6.16 1.6 6.07
8/17/2021 4:30:00 PM 19.55 67.19 0.091 6.13 1.68 5.83
8/17/2021 4:45:00 PM 19.61 67.298 0.091 6.14 1.74 5.66
8/17/2021 5:00:00 PM 19.68 67.424 0.092 6.14 1.6 5.75
8/17/2021 5:15:00 PM 19.83 67.694 0.091 6.22 1.55 6.73
8/17/2021 5:30:00 PM 20.06 68.108 0.087 6.63 1.65 8.51
8/17/2021 5:45:00 PM 19.85 67.73 0.091 6.22 1.68 6.54
8/17/2021 6:00:00 PM 19.87 67.766 0.091 6.22 1.76 6.5
8/17/2021 6:15:00 PM 19.96 67.92799 0.089 6.36 1.44 7.26
8/17/2021 6:30:00 PM 19.91 67.838 0.09 6.34 1.48 7.12
8/17/2021 6:45:00 PM 19.97 67.946 0.09 6.27 1.52 7.12
8/17/2021 7:00:00 PM 19.97 67.946 0.089 6.43 1.47 7.68
8/17/2021 7:15:00 PM 19.95 67.91 0.089 6.36 1.55 7.42
8/17/2021 7:30:00 PM 19.92 67.856 0.089 6.4 1.46 7.65
8/17/2021 7:45:00 PM 19.91 67.838 0.089 6.56 1.73 8.15
8/17/2021 8:00:00 PM 19.79 67.622 0.088 6.65 2.22 8.5
8/17/2021 8:15:00 PM 19.68 67.424 0.088 6.65 2.02 8.55
8/17/2021 8:30:00 PM 19.59 67.262 0.088 6.64 2.01 8.58
8/17/2021 8:45:00 PM 19.51 67.118 0.089 6.62 2.29 8.59
8/17/2021 9:00:00 PM 19.42 66.956 0.091 6.61 3.18 8.61
8/17/2021 9:15:00 PM 19.32 66.776 0.092 6.58 2.86 8.65
8/17/2021 9:30:00 PM 19.23 66.614 0.092 6.58 3.01 8.7
8/17/2021 9:45:00 PM 19.14 66.452 0.091 6.57 3.08 8.74
8/17/2021 10:00:00 PM 19.09 66.362 0.09 6.56 2.95 8.74
8/17/2021 10:15:00 PM 19.05 66.29 0.089 6.53 3.22 8.75
8/17/2021 10:30:00 PM 19.03 66.254 0.088 6.52 3.18 8.75
8/17/2021 10:45:00 PM 19.01 66.218 0.087 6.51 3.55 8.76
8/17/2021 11:00:00 PM 18.99 66.182 0.088 6.51 3.55 8.78
8/17/2021 11:15:00 PM 18.99 66.182 0.088 6.49 3.53 8.76
8/17/2021 11:30:00 PM 18.98 66.164 0.088 6.5 3.41 8.77
8/17/2021 11:45:00 PM 18.98 66.164 0.087 6.51 3.31 8.77
8/18/2021 12:00:00 AM 18.99 66.182 0.087 6.51 3.11 8.77
8/18/2021 12:15:00 AM 18.99 66.182 0.087 6.52 3.07 8.77
8/18/2021 12:30:00 AM 19 66.2 0.087 6.51 3.09 8.76
8/18/2021 12:45:00 AM 19.01 66.218 0.087 6.52 3.07 8.73
8/18/2021 1:00:00 AM 19.01 66.218 0.087 6.54 2.94 8.74
8/18/2021 1:15:00 AM 19.01 66.218 0.087 6.52 2.91 8.74
8/18/2021 1:30:00 AM 19.01 66.218 0.087 6.52 2.88 8.73
8/18/2021 1:45:00 AM 19.01 66.218 0.087 6.5 2.88 8.72
8/18/2021 2:00:00 AM 19 66.2 0.086 6.52 2.77 8.74
8/18/2021 2:15:00 AM 19.01 66.218 0.086 6.51 2.67 8.72
8/18/2021 2:30:00 AM 19.01 66.218 0.086 6.51 2.63 8.71
8/18/2021 2:45:00 AM 19.01 66.218 0.085 6.52 3.1 8.72
8/18/2021 3:00:00 AM 19.01 66.218 0.085 6.52 2.52 8.72
8/18/2021 3:15:00 AM 19 66.2 0.085 6.5 2.62 8.71
8/18/2021 3:30:00 AM 18.99 66.182 0.085 6.51 2.5 8.72
8/18/2021 3:45:00 AM 18.98 66.164 0.084 6.51 2.54 8.71
8/18/2021 4:00:00 AM 18.98 66.164 0.084 6.51 2.44 8.71
8/18/2021 4:15:00 AM 18.97 66.146 0.084 6.49 2.43 8.72
8/18/2021 4:30:00 AM 18.99 66.182 0.083 6.51 2.49 8.73
8/18/2021 4:45:00 AM 18.99 66.182 0.083 6.52 2.53 8.73
8/18/2021 5:00:00 AM 18.99 66.182 0.082 6.52 2.45 8.73
8/18/2021 5:15:00 AM 18.97 66.146 0.082 6.54 2.6 8.75
8/18/2021 5:30:00 AM 18.97 66.146 0.082 6.53 2.61 8.74
8/18/2021 5:45:00 AM 18.96 66.128 0.081 6.54 2.61 8.75
8/18/2021 6:00:00 AM 18.95 66.11 0.081 6.54 2.62 8.75
8/18/2021 6:15:00 AM 18.93 66.074 0.081 6.54 2.87 8.76
8/18/2021 6:30:00 AM 18.92 66.056 0.081 6.51 2.83 8.76
8/18/2021 6:45:00 AM 18.91 66.038 0.081 6.52 3.07 8.76
8/18/2021 7:00:00 AM 18.9 66.02 0.08 6.52 3.02 8.77
8/18/2021 7:15:00 AM 18.9 66.02 0.081 6.5 2.96 8.73
8/18/2021 7:30:00 AM 18.9 66.02 0.081 6.49 3.11 8.77
8/18/2021 7:45:00 AM 18.88 65.984 0.08 6.54 3.12 8.85
8/18/2021 8:00:00 AM 18.88 65.984 0.08 6.51 3.09 8.84
8/18/2021 8:15:00 AM 18.87 65.966 0.08 6.54 3.68 8.84
8/18/2021 8:30:00 AM 18.87 65.966 0.08 6.54 3.41 8.86
8/18/2021 8:45:00 AM 18.87 65.966 0.08 6.57 3.6 8.88
8/18/2021 9:00:00 AM 18.87 65.966 0.08 6.57 3.92 8.9
8/18/2021 9:15:00 AM 18.87 65.966 0.08 6.62 3.8 8.92
8/18/2021 9:30:00 AM 18.88 65.984 0.08 6.62 3.46 8.94
8/18/2021 9:45:00 AM 18.89 66.002 0.079 6.63 3.58 8.96
8/18/2021 10:00:00 AM 18.89 66.002 0.079 6.63 3.6 8.95
8/18/2021 10:15:00 AM 18.88 65.984 0.08 6.63 3.46 8.92
8/18/2021 10:30:00 AM 18.89 66.002 0.08 6.62 3.51 8.92
8/18/2021 10:45:00 AM 18.89 66.002 0.08 6.63 3.45 8.94
8/18/2021 11:00:00 AM 18.89 66.002 0.08 6.64 3.3 8.98
8/18/2021 11:15:00 AM 18.9 66.02 0.08 6.64 3.77 8.94
8/18/2021 11:30:00 AM 18.91 66.038 0.081 6.65 3.53 8.95
8/18/2021 11:45:00 AM 18.91 66.038 0.081 6.65 3.5 8.94
8/18/2021 12:00:00 PM 18.91 66.038 0.081 6.64 3.63 8.94
8/18/2021 12:15:00 PM 18.91 66.038 0.081 6.64 3.64 8.92
8/18/2021 12:30:00 PM 18.92 66.056 0.081 6.64 3.85 8.92
8/18/2021 12:45:00 PM 18.9 66.02 0.081 6.65 3.76 8.94
8/18/2021 1:00:00 PM 18.9 66.02 0.081 6.64 4.09 8.93
8/18/2021 1:15:00 PM 18.9 66.02 0.08 6.63 4.38 8.94
8/18/2021 1:30:00 PM 18.92 66.056 0.08 6.64 4.96 8.96
8/18/2021 1:45:00 PM 18.94 66.092 0.08 6.65 5.95 8.99
8/18/2021 2:00:00 PM 18.97 66.146 0.079 6.68 8.74 8.96
8/18/2021 2:15:00 PM 18.99 66.182 0.078 6.68 9.53 8.96
8/18/2021 2:30:00 PM 18.96 66.128 0.078 6.68 11.5 8.95
8/18/2021 2:45:00 PM 18.96 66.128 0.077 6.7 18.6 8.98
8/18/2021 3:00:00 PM 18.98 66.164 0.076 6.67 29.88 8.98
8/18/2021 3:15:00 PM 19.07 66.326 0.074 6.73 42.4 9
8/18/2021 3:30:00 PM 19.05 66.29 0.073 6.71 71 9.03
8/18/2021 3:45:00 PM 19.02 66.236 0.071 6.72 110.33 9.04
8/18/2021 4:00:00 PM 18.99 66.182 0.066 6.68 199.56 9.06
8/18/2021 4:15:00 PM 18.88 65.984 0.06 6.62 315.33 9.09
8/18/2021 4:30:00 PM 18.87 65.966 0.052 6.32 463.69 9.07
8/18/2021 4:45:00 PM 18.89 66.002 0.05 6.23 608.6 9.12
8/18/2021 5:00:00 PM 18.94 66.092 0.046 6.08 569.46 9.03
8/18/2021 5:15:00 PM 18.99 66.182 0.041 5.96 469.17 9.11
8/18/2021 5:30:00 PM 19.04 66.272 0.04 5.84 553.08 9.09
8/18/2021 5:45:00 PM 19.02 66.236 0.039 5.89 411.36 9.11
8/18/2021 6:00:00 PM 18.99 66.182 0.038 5.88 359.45 9.1
8/18/2021 6:15:00 PM 18.99 66.182 0.038 5.89 351.12 9.03
8/18/2021 6:30:00 PM 19 66.2 0.038 5.92 331.46 8.91
8/18/2021 6:45:00 PM 19.02 66.236 0.037 5.97 424.11 8.59
8/18/2021 7:00:00 PM 19.02 66.236 0.038 5.91 784.72 9.04
8/18/2021 7:15:00 PM 19 66.2 0.038 5.99 225.4 9.06
8/18/2021 7:30:00 PM 18.97 66.146 0.039 5.99 202.73 8.94
8/18/2021 7:45:00 PM 18.93 66.074 0.039 5.96 173.02 8.85
8/18/2021 8:00:00 PM 18.88 65.984 0.039 6 169.95 8.95
8/18/2021 8:15:00 PM 18.84 65.912 0.04 5.97 168.93 8.35
8/18/2021 8:30:00 PM 18.78 65.804 0.04 5.97 234.68 8.07
8/18/2021 8:45:00 PM 18.72 65.696 0.04 5.99 195.72 7.71
8/18/2021 9:00:00 PM 18.66 65.588 0.04 5.88 145.11 7.67
8/18/2021 9:15:00 PM 18.61 65.498 0.041 5.93 135.8 7.65
8/18/2021 9:30:00 PM 18.55 65.39 0.041 5.94 266.65 7.52
8/18/2021 9:45:00 PM 18.53 65.354 0.041 5.95 140.5 7.78
8/18/2021 10:00:00 PM 18.48 65.264 0.042 5.96 124.05 8.27
8/18/2021 10:15:00 PM 18.37 65.066 0.041 5.91 93.18 8.06
8/18/2021 10:30:00 PM 18.31 64.958 0.042 5.96 75.85 8.27
8/18/2021 10:45:00 PM 18.26 64.868 0.042 5.9 61.69 8.24
8/18/2021 11:00:00 PM 18.18 64.724 0.042 5.91 57.36 7.93
8/18/2021 11:15:00 PM 18.14 64.652 0.042 5.96 53.48 7.69
8/18/2021 11:30:00 PM 18.11 64.598 0.043 5.97 50.41 8.28
8/18/2021 11:45:00 PM 18.02 64.436 0.043 5.97 49.07 7.33
8/19/2021 12:00:00 AM 17.96 64.328 0.043 5.99 46.29 7.26
8/19/2021 12:15:00 AM 17.9 64.22 0.043 6.02 45.67 6.56
8/19/2021 12:30:00 AM 17.83 64.094 0.043 6.04 42.69 6.26
8/19/2021 12:45:00 AM 17.77 63.986 0.043 6.05 42 6.22
8/19/2021 1:00:00 AM 17.71 63.878 0.043 6.05 41.19 5.92
8/19/2021 1:15:00 AM 17.67 63.806 0.044 6.07 39.33 6
8/19/2021 1:30:00 AM 17.61 63.698 0.043 6.09 39.14 6.11
8/19/2021 1:45:00 AM 17.55 63.59 0.044 6.1 37.52 6.13
8/19/2021 2:00:00 AM 17.5 63.5 0.044 6.13 36.32 6.21
8/19/2021 2:15:00 AM 17.45 63.41 0.044 6.14 35.84 6.48
8/19/2021 2:30:00 AM 17.39 63.302 0.044 6.14 36.03 6.94
8/19/2021 2:45:00 AM 17.34 63.212 0.044 6.15 34.58 7.26
8/19/2021 3:00:00 AM 17.3 63.14 0.044 6.16 34.07 7.14
8/19/2021 3:15:00 AM 17.24 63.032 0.044 6.19 34.7 7.38
8/19/2021 3:30:00 AM 17.19 62.942 0.044 6.2 32.96 7.92
8/19/2021 3:45:00 AM 17.14 62.852 0.044 6.22 163.38 8.12
8/19/2021 4:00:00 AM 17.09 62.762 0.044 6.18 274.28 8.06
8/19/2021 4:15:00 AM 17.05 62.69 0.044 6.23 36.63 8.32
8/19/2021 4:30:00 AM 17 62.6 0.044 6.23 34.24 8.14
8/19/2021 4:45:00 AM 16.96 62.528 0.044 6.23 280.44 8.29
8/19/2021 5:00:00 AM 16.93 62.474 0.044 6.19 105.38 8.31
8/19/2021 5:15:00 AM 16.89 62.402 0.044 6.21 33.28 8.31
8/19/2021 5:30:00 AM 16.85 62.33 0.044 6.24 32.22 8.48
8/19/2021 5:45:00 AM 16.81 62.258 0.044 6.22 60.01 8.59
8/19/2021 6:00:00 AM 16.77 62.186 0.045 6.22 364.41 8.54
8/19/2021 6:15:00 AM 16.73 62.114 0.045 6.23 211.02 8.35
8/19/2021 6:30:00 AM 16.68 62.024 0.045 6.21 32.02 8.28
8/19/2021 6:45:00 AM 16.65 61.97 0.045 6.22 164.2 8.33
8/19/2021 7:00:00 AM 16.6 61.88 0.045 6.24 58.32 8.38
8/19/2021 7:15:00 AM 16.56 61.808 0.045 6.25 104.19 8.52
8/19/2021 7:30:00 AM 16.53 61.754 0.045 6.21 29.85 8.45
8/19/2021 7:45:00 AM 16.5 61.7 0.045 6.24 28.06 8.57
8/19/2021 8:00:00 AM 16.48 61.664 0.045 6.24 35.15 8.57
8/19/2021 8:15:00 AM 16.45 61.61 0.045 6.25 26.27 8.35
8/19/2021 8:30:00 AM 16.43 61.574 0.045 6.27 25.61 8.5
8/19/2021 8:45:00 AM 16.41 61.538 0.045 6.24 25.66 8.6
8/19/2021 9:00:00 AM 16.39 61.502 0.045 6.29 25.68 8.81
8/19/2021 9:15:00 AM 16.39 61.502 0.045 6.3 25.04 8.8
8/19/2021 9:30:00 AM 16.4 61.52 0.045 6.27 25.24 8.8
8/19/2021 9:45:00 AM 16.38 61.484 0.045 6.33 26.04 8.77
8/19/2021 10:00:00 AM 16.38 61.484 0.045 6.28 26.23 8.7
8/19/2021 10:15:00 AM 16.39 61.502 0.045 6.34 25.33 8.6
8/19/2021 10:30:00 AM 16.39 61.502 0.045 6.34 24.85 8.62
8/19/2021 10:45:00 AM 16.38 61.484 0.045 6.34 24.81 8.53
8/19/2021 11:00:00 AM 16.4 61.52 0.045 6.35 24.14 8.44
8/19/2021 11:15:00 AM 16.44 61.592 0.044 6.31 24.01 8.41
8/19/2021 11:30:00 AM 16.46 61.628 0.044 6.34 23.48 8.35
8/19/2021 11:45:00 AM 16.49 61.682 0.044 6.34 23.17 8.35
8/19/2021 12:00:00 PM 16.55 61.79 0.044 6.34 22.97 8.34
8/19/2021 12:15:00 PM 16.62 61.916 0.044 6.35 23.62 8.42
8/19/2021 12:30:00 PM 16.67 62.006 0.044 6.35 22.55 8.41
8/19/2021 12:45:00 PM 16.71 62.078 0.044 6.35 22.26 8.39
8/19/2021 1:00:00 PM 16.7 62.06 0.044 6.36 22.83 8.32
8/19/2021 1:15:00 PM 16.82 62.276 0.044 6.37 23.24 8.19
8/19/2021 1:30:00 PM 16.93 62.474 0.044 6.37 22.82 8.14
8/19/2021 1:45:00 PM 16.98 62.564 0.044 6.4 23.69 8.14
8/19/2021 2:00:00 PM 17.01 62.618 0.044 6.4 22.88 8.03
8/19/2021 2:15:00 PM 17.06 62.708 0.044 6.39 23.56 8
8/19/2021 2:30:00 PM 17.12 62.816 0.044 6.4 23.55 8.33
8/19/2021 2:45:00 PM 17.12 62.816 0.044 6.37 22.17 8.56
8/19/2021 3:00:00 PM 17.14 62.852 0.043 6.4 22.26 8.69
8/19/2021 3:15:00 PM 17.19 62.942 0.043 6.37 22.55 8.87
8/19/2021 3:30:00 PM 17.21 62.978 0.043 6.39 21.83 8.52
8/19/2021 3:45:00 PM 17.22 62.996 0.043 6.39 22.07 8.75
8/19/2021 4:00:00 PM 17.23 63.014 0.043 6.38 21.94 8.6
8/19/2021 4:15:00 PM 17.24 63.032 0.043 6.39 21.22 8.83
8/19/2021 4:30:00 PM 17.28 63.104 0.043 6.39 22.93 8.82
8/19/2021 4:45:00 PM 17.34 63.212 0.043 6.39 22.31 9.01
8/19/2021 5:00:00 PM 17.36 63.248 0.043 6.39 22.5 8.71
8/19/2021 5:15:00 PM 17.35 63.23 0.044 6.4 20.91 8.83
8/19/2021 5:30:00 PM 17.33 63.194 0.044 6.4 21.79 8.76
8/19/2021 5:45:00 PM 17.3 63.14 0.044 6.4 22.2 9.16
8/19/2021 6:00:00 PM 17.26 63.068 0.045 6.31 45.14 9.15
8/19/2021 6:15:00 PM 17.23 63.014 0.045 6.34 60.85 9.35
8/19/2021 6:30:00 PM 17.2 62.96 0.045 6.34 115.28 9.33
8/19/2021 6:45:00 PM 17.18 62.924 0.045 6.34 63.56 9.15
8/19/2021 7:00:00 PM 17.15 62.87 0.045 6.33 52.37 9.26
8/19/2021 7:15:00 PM 17.11 62.798 0.045 6.35 46.81 9.23
8/19/2021 7:30:00 PM 17.08 62.744 0.045 6.35 97.01 9.34
8/19/2021 7:45:00 PM 17.03 62.654 0.045 6.32 21.58 8.96
8/19/2021 8:00:00 PM 16.99 62.582 0.045 6.33 20.34 9.02
8/19/2021 8:15:00 PM 16.93 62.474 0.045 6.32 19.61 9.09
8/19/2021 8:30:00 PM 16.88 62.384 0.045 6.31 19.55 9.12
8/19/2021 8:45:00 PM 16.83 62.294 0.045 6.32 19.71 9.15
8/19/2021 9:00:00 PM 16.78 62.204 0.045 6.32 19.5 9.15
8/19/2021 9:15:00 PM 16.72 62.096 0.045 6.35 19.44 9.17
8/19/2021 9:30:00 PM 16.66 61.988 0.045 6.3 19.84 9.16
8/19/2021 9:45:00 PM 16.61 61.898 0.045 6.34 20.25 9.26
8/19/2021 10:00:00 PM 16.55 61.79 0.045 6.32 19.18 9.24
8/19/2021 10:15:00 PM 16.5 61.7 0.045 6.33 19.76 9.19
8/19/2021 10:30:00 PM 16.45 61.61 0.045 6.33 18.94 9.15
8/19/2021 10:45:00 PM 16.4 61.52 0.046 6.33 19.76 9.13
8/19/2021 11:00:00 PM 16.34 61.412 0.045 6.33 19.45 9.21
8/19/2021 11:15:00 PM 16.3 61.34 0.046 6.34 18.68 9.29
8/19/2021 11:30:00 PM 16.25 61.25 0.045 6.34 18.49 9.31
8/19/2021 11:45:00 PM 16.2 61.16 0.046 6.33 19.81 9.35
8/20/2021 12:00:00 AM 16.16 61.088 0.046 6.33 19.99 9.42
8/20/2021 12:15:00 AM 16.11 60.998 0.046 6.33 28.25 9.49
8/20/2021 12:30:00 AM 16.07 60.926 0.046 6.33 19.69 9.48
8/20/2021 12:45:00 AM 16.04 60.872 0.046 6.33 19.71 9.51
8/20/2021 1:00:00 AM 16 60.8 0.046 6.33 23.98 9.54
8/20/2021 1:15:00 AM 15.96 60.728 0.046 6.33 21.95 9.56
8/20/2021 1:30:00 AM 15.92 60.656 0.046 6.34 26.17 9.56
8/20/2021 1:45:00 AM 15.89 60.602 0.046 6.34 23.08 9.55
8/20/2021 2:00:00 AM 15.85 60.53 0.046 6.35 18.89 9.58
8/20/2021 2:15:00 AM 15.81 60.458 0.046 6.36 18.38 9.59
8/20/2021 2:30:00 AM 15.78 60.404 0.046 6.34 20.39 9.6
8/20/2021 2:45:00 AM 15.75 60.35 0.046 6.35 20.8 9.62
8/20/2021 3:00:00 AM 15.71 60.278 0.046 6.36 23.21 9.63
8/20/2021 3:15:00 AM 15.68 60.224 0.045 6.35 21.5 9.65
8/20/2021 3:30:00 AM 15.65 60.17 0.045 6.34 36.43 9.65
8/20/2021 3:45:00 AM 15.62 60.116 0.045 6.34 48.51 9.63
8/20/2021 4:00:00 AM 15.59 60.062 0.044 6.35 93.36 9.67
8/20/2021 4:15:00 AM 15.56 60.008 0.044 6.35 17.94 9.68
8/20/2021 4:30:00 AM 15.54 59.972 0.045 6.35 17.77 9.7
8/20/2021 4:45:00 AM 15.52 59.936 0.045 6.34 43.31 9.71
8/20/2021 5:00:00 AM 15.49 59.882 0.045 6.35 52.88 9.7
8/20/2021 5:15:00 AM 15.47 59.846 0.045 6.36 33.38 9.69
8/20/2021 5:30:00 AM 15.45 59.81 0.044 6.37 81.61 9.71
8/20/2021 5:45:00 AM 15.43 59.774 0.044 6.35 72.52 9.71
8/20/2021 6:00:00 AM 15.41 59.738 0.044 6.35 17.23 9.72
8/20/2021 6:15:00 AM 15.39 59.702 0.044 6.37 17.12 9.71
8/20/2021 6:30:00 AM 15.38 59.684 0.044 6.38 16.89 9.72
8/20/2021 6:45:00 AM 15.36 59.648 0.044 6.4 16.4 9.71
8/20/2021 7:00:00 AM 15.34 59.612 0.044 6.39 62.47 9.73
8/20/2021 7:15:00 AM 15.32 59.576 0.045 6.38 46.37 9.74
8/20/2021 7:30:00 AM 15.3 59.54 0.045 6.37 50.96 9.74
8/20/2021 7:45:00 AM 15.29 59.522 0.045 6.37 58.21 9.73
8/20/2021 8:00:00 AM 15.29 59.522 0.045 6.38 16.78 9.77
8/20/2021 8:15:00 AM 15.28 59.504 0.045 6.38 20.24 9.76
8/20/2021 8:30:00 AM 15.29 59.522 0.045 6.39 18.69 9.77
8/20/2021 8:45:00 AM 15.29 59.522 0.045 6.4 21.12 9.76
8/20/2021 9:00:00 AM 15.29 59.522 0.044 6.38 21.67 9.79
8/20/2021 9:15:00 AM 15.29 59.522 0.045 6.41 18.15 9.8
8/20/2021 9:30:00 AM 15.29 59.522 0.045 6.39 18 9.81
8/20/2021 9:45:00 AM 15.3 59.54 0.045 6.4 18.45 9.8
8/20/2021 10:00:00 AM 15.32 59.576 0.045 6.42 16.18 9.78
8/20/2021 10:15:00 AM 15.34 59.612 0.045 6.41 16.01 9.74
8/20/2021 10:30:00 AM 15.38 59.684 0.045 6.42 16.24 9.76
8/20/2021 10:45:00 AM 15.46 59.828 0.046 6.41 16.16 9.72
8/20/2021 11:00:00 AM 15.56 60.008 0.046 6.42 16.17 9.74
8/20/2021 11:15:00 AM 15.65 60.17 0.046 6.42 16.35 9.72
8/20/2021 11:30:00 AM 15.71 60.278 0.046 6.43 16.43 9.74
8/20/2021 11:45:00 AM 15.85 60.53 0.046 6.43 16.17 9.74
8/20/2021 12:00:00 PM 15.98 60.764 0.046 6.43 16.29 9.71
8/20/2021 12:15:00 PM 16.09 60.962 0.045 6.44 15.89 9.65
8/20/2021 12:30:00 PM 16.21 61.178 0.045 6.45 15.64 9.61
8/20/2021 12:45:00 PM 16.26 61.268 0.045 6.45 15.95 9.58
8/20/2021 1:00:00 PM 16.34 61.412 0.045 6.46 15.85 9.51
8/20/2021 1:15:00 PM 16.4 61.52 0.046 6.46 15.86 9.53
8/20/2021 1:30:00 PM 16.54 61.772 0.046 6.49 15.78 9.52
8/20/2021 1:45:00 PM 16.63 61.934 0.045 6.48 15.65 9.48
8/20/2021 2:00:00 PM 16.72 62.096 0.046 6.49 15.62 9.44
8/20/2021 2:15:00 PM 16.71 62.078 0.046 6.49 15.62 9.42
8/20/2021 2:30:00 PM 16.76 62.168 0.046 6.48 15.6 9.44
8/20/2021 2:45:00 PM 16.84 62.312 0.046 6.44 16.64 9.42
8/20/2021 3:00:00 PM 16.89 62.402 0.046 6.48 15.29 9.4
8/20/2021 3:15:00 PM 16.92 62.456 0.046 6.44 15.8 9.39
8/20/2021 3:30:00 PM 16.97 62.546 0.046 6.48 16.14 9.36
8/20/2021 3:45:00 PM 16.92 62.456 0.046 6.48 16.45 9.26
8/20/2021 4:00:00 PM 16.94 62.492 0.046 6.48 16.94 9.21
8/20/2021 4:15:00 PM 16.94 62.492 0.046 6.47 16.33 9.27
8/20/2021 4:30:00 PM 16.93 62.474 0.046 6.47 16.21 9.24
8/20/2021 4:45:00 PM 16.93 62.474 0.046 6.46 16.21 9.28
8/20/2021 5:00:00 PM 16.92 62.456 0.046 6.46 16.21 9.29
8/20/2021 5:15:00 PM 16.93 62.474 0.046 6.47 15.98 9.22
8/20/2021 5:30:00 PM 16.93 62.474 0.046 6.47 16.03 9.24
8/20/2021 5:45:00 PM 16.94 62.492 0.046 6.47 16.4 9.22
8/20/2021 6:00:00 PM 16.94 62.492 0.047 6.46 15.96 9.1
8/20/2021 6:15:00 PM 16.93 62.474 0.047 6.46 16.06 9.11
8/20/2021 6:30:00 PM 16.91 62.438 0.047 6.45 16.31 9.17
8/20/2021 6:45:00 PM 16.87 62.366 0.046 6.44 15.93 9.2
8/20/2021 7:00:00 PM 16.85 62.33 0.046 6.44 15.81 9.23
8/20/2021 7:15:00 PM 16.83 62.294 0.046 6.43 16.29 9.2
8/20/2021 7:30:00 PM 16.82 62.276 0.046 6.43 15.85 9.18
8/20/2021 7:45:00 PM 16.79 62.222 0.046 6.42 15.7 9.18
8/20/2021 8:00:00 PM 16.78 62.204 0.046 6.42 15.72 9.23
8/20/2021 8:15:00 PM 16.75 62.15 0.046 6.42 15.67 9.22
8/20/2021 8:30:00 PM 16.72 62.096 0.046 6.42 15.78 9.21
8/20/2021 8:45:00 PM 16.7 62.06 0.046 6.34 15.58 9.21
8/20/2021 9:00:00 PM 16.68 62.024 0.046 6.41 14.85 9.21
8/20/2021 9:15:00 PM 16.64 61.952 0.047 6.4 14.78 9.12
8/20/2021 9:30:00 PM 16.61 61.898 0.046 6.39 14.73 9.12
8/20/2021 9:45:00 PM 16.58 61.844 0.046 6.39 14.74 9.22
8/20/2021 10:00:00 PM 16.56 61.808 0.046 6.39 14.95 9.19
8/20/2021 10:15:00 PM 16.53 61.754 0.047 6.39 14.58 9.25
8/20/2021 10:30:00 PM 16.5 61.7 0.047 6.4 15.06 9.2
8/20/2021 10:45:00 PM 16.46 61.628 0.046 6.35 14.97 9.23
8/20/2021 11:00:00 PM 16.44 61.592 0.047 6.39 14.23 9.2
8/20/2021 11:15:00 PM 16.41 61.538 0.047 6.39 15.02 9.25
8/20/2021 11:30:00 PM 16.38 61.484 0.046 6.41 14.8 9.28
8/20/2021 11:45:00 PM 16.35 61.43 0.047 6.39 14.88 9.29
8/21/2021 12:00:00 AM 16.32 61.376 0.047 6.41 14.77 9.25
8/21/2021 12:15:00 AM 16.29 61.322 0.047 6.41 14.69 9.31
8/21/2021 12:30:00 AM 16.25 61.25 0.047 6.41 14.32 9.25
8/21/2021 12:45:00 AM 16.22 61.196 0.047 6.41 14.49 9.28
8/21/2021 1:00:00 AM 16.19 61.142 0.047 6.42 14.46 9.3
8/21/2021 1:15:00 AM 16.16 61.088 0.047 6.41 14.63 9.3
8/21/2021 1:30:00 AM 16.13 61.034 0.047 6.41 14.62 9.34
8/21/2021 1:45:00 AM 16.1 60.98 0.048 6.41 14.46 9.32
8/21/2021 2:00:00 AM 16.07 60.926 0.048 6.34 14.51 9.23
8/21/2021 2:15:00 AM 16.04 60.872 0.049 6.39 14.46 9.29
8/21/2021 2:30:00 AM 16.01 60.818 0.049 6.41 14.54 9.34
8/21/2021 2:45:00 AM 15.99 60.782 0.049 6.4 14.46 9.4
8/21/2021 3:00:00 AM 15.97 60.746 0.049 6.41 14.71 9.34
8/21/2021 3:15:00 AM 15.95 60.71 0.049 6.36 14.75 9.38
8/21/2021 3:30:00 AM 15.93 60.674 0.049 6.42 14.79 9.43
8/21/2021 3:45:00 AM 15.9 60.62 0.049 6.38 14.84 9.39
8/21/2021 4:00:00 AM 15.88 60.584 0.049 6.42 14.52 9.39
8/21/2021 4:15:00 AM 15.86 60.548 0.049 6.41 14.58 9.4
8/21/2021 4:30:00 AM 15.84 60.512 0.049 6.41 14.62 9.41
8/21/2021 4:45:00 AM 15.81 60.458 0.049 6.41 14.67 9.47
8/21/2021 5:00:00 AM 15.79 60.422 0.049 6.41 14.64 9.5
8/21/2021 5:15:00 AM 15.76 60.368 0.049 6.41 16.18 9.37
8/21/2021 5:30:00 AM 15.74 60.332 0.049 6.41 15.86 9.41
8/21/2021 5:45:00 AM 15.72 60.296 0.049 6.35 15.62 9.38
8/21/2021 6:00:00 AM 15.71 60.278 0.049 6.4 15.84 9.38
8/21/2021 6:15:00 AM 15.69 60.242 0.049 6.41 15.83 9.32
8/21/2021 6:30:00 AM 15.67 60.206 0.049 6.41 15.47 9.31
8/21/2021 6:45:00 AM 15.65 60.17 0.049 6.41 15.56 9.39
8/21/2021 7:00:00 AM 15.63 60.134 0.048 6.41 15.4 9.46
8/21/2021 7:15:00 AM 15.62 60.116 0.048 6.41 15.21 9.48
8/21/2021 7:30:00 AM 15.61 60.098 0.048 6.41 15.12 9.44
8/21/2021 7:45:00 AM 15.61 60.098 0.048 6.41 15.04 9.44
8/21/2021 8:00:00 AM 15.6 60.08 0.048 6.34 14.75 9.47
8/21/2021 8:15:00 AM 15.6 60.08 0.048 6.41 15.08 9.46
8/21/2021 8:30:00 AM 15.61 60.098 0.048 6.37 15.07 9.47
8/21/2021 8:45:00 AM 15.62 60.116 0.048 6.41 14.96 9.45
8/21/2021 9:00:00 AM 15.64 60.152 0.048 6.42 15.02 9.45
8/21/2021 9:15:00 AM 15.66 60.188 0.048 6.35 14.93 9.49
8/21/2021 9:30:00 AM 15.73 60.314 0.048 6.4 14.73 9.54
8/21/2021 9:45:00 AM 15.83 60.494 0.048 6.41 14.77 9.38
8/21/2021 10:00:00 AM 15.91 60.638 0.048 6.42 14.75 9.26
8/21/2021 10:15:00 AM 16 60.8 0.048 6.42 14.61 9.24
8/21/2021 10:30:00 AM 16.08 60.944 0.048 6.43 14.68 9.21
8/21/2021 10:45:00 AM 16.16 61.088 0.048 6.43 14.45 9.23
8/21/2021 11:00:00 AM 16.26 61.268 0.048 6.43 14.58 9.25
8/21/2021 11:15:00 AM 16.4 61.52 0.048 6.45 14.49 9.37
8/21/2021 11:30:00 AM 16.51 61.718 0.048 6.45 14.5 9.27
8/21/2021 11:45:00 AM 16.63 61.934 0.048 6.46 14.46 9.33
8/21/2021 12:00:00 PM 16.7 62.06 0.048 6.46 14.33 9.31
8/21/2021 12:15:00 PM 16.78 62.204 0.048 6.49 14.6 9.3
8/21/2021 12:30:00 PM 16.92 62.456 0.048 6.49 14.44 9.3
8/21/2021 12:45:00 PM 17 62.6 0.048 6.45 14.55 9.2
8/21/2021 1:00:00 PM 17.11 62.798 0.048 6.49 14.38 9.25
8/21/2021 1:15:00 PM 17.06 62.708 0.048 6.45 14.47 9.27
8/21/2021 1:30:00 PM 17.05 62.69 0.048 6.47 14.21 9.3
8/21/2021 1:45:00 PM 17.01 62.618 0.048 6.47 14.25 9.15
8/21/2021 2:00:00 PM 16.96 62.528 0.048 6.48 14.34 9.16
8/21/2021 2:15:00 PM 16.98 62.564 0.048 6.46 14.33 9.14
8/21/2021 2:30:00 PM 17 62.6 0.048 6.48 14.35 9.15
8/21/2021 2:45:00 PM 17.09 62.762 0.048 6.46 13.76 9.12
8/21/2021 3:00:00 PM 17.12 62.816 0.048 6.47 13.95 9.14
8/21/2021 3:15:00 PM 17.21 62.978 0.048 6.46 13.67 9.08
8/21/2021 3:30:00 PM 17.26 63.068 0.048 6.46 13.93 9.09
8/21/2021 3:45:00 PM 17.3 63.14 0.048 6.47 13.72 9.09
8/21/2021 4:00:00 PM 17.3 63.14 0.048 6.46 13.73 9.05
8/21/2021 4:15:00 PM 17.27 63.086 0.048 6.45 13.66 9.08
8/21/2021 4:30:00 PM 17.34 63.212 0.048 6.46 13.72 9.06
8/21/2021 4:45:00 PM 17.3 63.14 0.048 6.45 13.76 9.04
8/21/2021 5:00:00 PM 17.27 63.086 0.048 6.45 13.89 9.06
8/21/2021 5:15:00 PM 17.25 63.05 0.048 6.46 13.88 9.14
8/21/2021 5:30:00 PM 17.24 63.032 0.048 6.46 12.85 9.25
8/21/2021 5:45:00 PM 17.23 63.014 0.05 6.45 12.5 9.05
8/21/2021 6:00:00 PM 17.25 63.05 0.051 6.45 12.68 9.1
8/21/2021 6:15:00 PM 17.24 63.032 0.051 6.45 12.69 9.04
8/21/2021 6:30:00 PM 17.22 62.996 0.051 6.46 12.69 9.07
8/21/2021 6:45:00 PM 17.19 62.942 0.051 6.46 12.8 8.93
8/21/2021 7:00:00 PM 17.13 62.834 0.052 6.47 12.68 9.04
8/21/2021 7:15:00 PM 17.08 62.744 0.051 6.46 12.83 8.92
8/21/2021 7:30:00 PM 17.03 62.654 0.052 6.43 13.72 9.04
8/21/2021 7:45:00 PM 16.99 62.582 0.051 6.42 13.58 9.1
8/21/2021 8:00:00 PM 16.96 62.528 0.051 6.41 16.61 9.07
8/21/2021 8:15:00 PM 16.94 62.492 0.051 6.41 13.42 9.1
8/21/2021 8:30:00 PM 16.93 62.474 0.051 6.4 13.97 9.12
8/21/2021 8:45:00 PM 16.91 62.438 0.051 6.4 13.89 9.15
8/21/2021 9:00:00 PM 16.88 62.384 0.051 6.41 13.65 9.2
8/21/2021 9:15:00 PM 16.86 62.348 0.051 6.4 13.69 9.18
8/21/2021 9:30:00 PM 16.83 62.294 0.05 6.41 14.21 9.11
8/21/2021 9:45:00 PM 16.8 62.24 0.05 6.43 14.27 9.13
8/21/2021 10:00:00 PM 16.78 62.204 0.05 6.39 13.83 9.17
8/21/2021 10:15:00 PM 16.74 62.132 0.05 6.42 13.71 9.19
8/21/2021 10:30:00 PM 16.72 62.096 0.05 6.42 13.7 9.1
8/21/2021 10:45:00 PM 16.69 62.042 0.05 6.42 13.98 9.09
8/21/2021 11:00:00 PM 16.65 61.97 0.05 6.43 13.77 8.99
8/21/2021 11:15:00 PM 16.62 61.916 0.05 6.42 13.69 8.95
8/21/2021 11:30:00 PM 16.61 61.898 0.05 6.42 13.73 9.04
8/21/2021 11:45:00 PM 16.57 61.826 0.05 6.43 13.63 8.94
8/22/2021 12:00:00 AM 16.55 61.79 0.051 6.42 13.67 8.97
8/22/2021 12:15:00 AM 16.52 61.736 0.05 6.42 13.71 9.07
8/22/2021 12:30:00 AM 16.51 61.718 0.05 6.41 13.98 9.01
8/22/2021 12:45:00 AM 16.48 61.664 0.05 6.43 13.97 8.99
8/22/2021 1:00:00 AM 16.47 61.646 0.051 6.42 13.83 8.99
8/22/2021 1:15:00 AM 16.45 61.61 0.051 6.42 13.99 8.95
8/22/2021 1:30:00 AM 16.43 61.574 0.051 6.41 14.12 9.01
8/22/2021 1:45:00 AM 16.41 61.538 0.051 6.42 14.11 9.07
8/22/2021 2:00:00 AM 16.39 61.502 0.051 6.42 14.06 9.02
8/22/2021 2:15:00 AM 16.38 61.484 0.051 6.44 14.07 9.05
8/22/2021 2:30:00 AM 16.35 61.43 0.051 6.43 14.16 9.04
8/22/2021 2:45:00 AM 16.33 61.394 0.051 6.43 13.89 9.02
8/22/2021 3:00:00 AM 16.31 61.358 0.051 6.43 30.42 9.02
8/22/2021 3:15:00 AM 16.3 61.34 0.051 6.42 13.91 9.01
8/22/2021 3:30:00 AM 16.28 61.304 0.051 6.42 13.72 9.08
8/22/2021 3:45:00 AM 16.26 61.268 0.051 6.45 13.81 9.05
8/22/2021 4:00:00 AM 16.23 61.214 0.051 6.41 14.08 9.07
8/22/2021 4:15:00 AM 16.22 61.196 0.051 6.44 13.85 9.03
8/22/2021 4:30:00 AM 16.2 61.16 0.051 6.43 13.72 9.1
8/22/2021 4:45:00 AM 16.18 61.124 0.051 6.42 13.66 8.95
8/22/2021 5:00:00 AM 16.16 61.088 0.051 6.43 13.58 9.09
8/22/2021 5:15:00 AM 16.14 61.052 0.051 6.43 13.44 9.02
8/22/2021 5:30:00 AM 16.13 61.034 0.051 6.44 13.65 8.89
8/22/2021 5:45:00 AM 16.11 60.998 0.051 6.43 13.56 8.96
8/22/2021 6:00:00 AM 16.1 60.98 0.051 6.43 13.5 8.96
8/22/2021 6:15:00 AM 16.09 60.962 0.051 6.44 13.36 8.76
8/22/2021 6:30:00 AM 16.08 60.944 0.051 6.44 13.54 8.79
8/22/2021 6:45:00 AM 16.06 60.908 0.051 6.44 12.81 9.32
8/22/2021 7:00:00 AM 16.05 60.89 0.051 6.44 12.82 9.27
8/22/2021 7:15:00 AM 16.04 60.872 0.051 6.44 12.86 9.36
8/22/2021 7:30:00 AM 16.04 60.872 0.051 6.44 12.61 9.31
8/22/2021 7:45:00 AM 16.03 60.854 0.051 6.45 12.36 9.32
8/22/2021 8:00:00 AM 16.02 60.836 0.051 6.45 12.75 9.29
8/22/2021 8:15:00 AM 16.02 60.836 0.051 6.44 14.6 9.39
8/22/2021 8:30:00 AM 16.02 60.836 0.051 6.44 17.57 9.38
8/22/2021 8:45:00 AM 16.03 60.854 0.051 6.45 17.24 9.4
8/22/2021 9:00:00 AM 16.05 60.89 0.051 6.45 16.6 9.38
8/22/2021 9:15:00 AM 16.08 60.944 0.051 6.46 12.04 9.43
8/22/2021 9:30:00 AM 16.1 60.98 0.051 6.48 12.17 9.48
8/22/2021 9:45:00 AM 16.13 61.034 0.051 6.44 12.01 9.51
8/22/2021 10:00:00 AM 16.17 61.106 0.051 6.46 12.05 9.42
8/22/2021 10:15:00 AM 16.25 61.25 0.051 6.47 12.18 9.37
8/22/2021 10:30:00 AM 16.31 61.358 0.051 6.48 12.14 9.47
8/22/2021 10:45:00 AM 16.44 61.592 0.051 6.47 12.25 9.46
8/22/2021 11:00:00 AM 16.56 61.808 0.051 6.47 12.07 9.45
8/22/2021 11:15:00 AM 16.59 61.862 0.051 6.47 12.17 9.44
8/22/2021 11:30:00 AM 16.75 62.15 0.051 6.48 12 9.47
8/22/2021 11:45:00 AM 16.77 62.186 0.051 6.48 11.99 9.42
8/22/2021 12:00:00 PM 16.9 62.42 0.051 6.48 12.08 9.43
8/22/2021 12:15:00 PM 17.05 62.69 0.051 6.49 12.01 9.29
8/22/2021 12:30:00 PM 17.14 62.852 0.051 6.5 12 9.38
8/22/2021 12:45:00 PM 17.24 63.032 0.051 6.5 12.01 9.36
8/22/2021 1:00:00 PM 17.42 63.356 0.051 6.51 11.99 9.3
8/22/2021 1:15:00 PM 17.42 63.356 0.052 6.51 12.15 9.31
8/22/2021 1:30:00 PM 17.62 63.716 0.052 6.51 12.15 9.27
8/22/2021 1:45:00 PM 17.5 63.5 0.052 6.51 12.1 9.27
8/22/2021 2:00:00 PM 17.54 63.572 0.052 6.52 12.1 9.28
8/22/2021 2:15:00 PM 17.58 63.644 0.052 6.51 12.15 9.3
8/22/2021 2:30:00 PM 17.56 63.608 0.052 6.52 12.31 9.31
8/22/2021 2:45:00 PM 17.52 63.536 0.051 6.51 12.34 9.32
8/22/2021 3:00:00 PM 17.56 63.608 0.051 6.52 12.2 9.31
8/22/2021 3:15:00 PM 17.54 63.572 0.051 6.5 12.13 9.32
8/22/2021 3:30:00 PM 17.53 63.554 0.052 6.52 12.21 9.29
8/22/2021 3:45:00 PM 17.54 63.572 0.051 6.5 12.3 9.29
8/22/2021 4:00:00 PM 17.54 63.572 0.051 6.5 12.14 9.28
8/22/2021 4:15:00 PM 17.5 63.5 0.051 6.51 12.22 9.27
8/22/2021 4:30:00 PM 17.45 63.41 0.051 6.48 13.43 9.24
8/22/2021 4:45:00 PM 17.41 63.338 0.051 6.47 13.53 9.27
8/22/2021 5:00:00 PM 17.4 63.32 0.051 6.49 14.02 9.23
8/22/2021 5:15:00 PM 17.37 63.266 0.051 6.46 13.02 9.27
8/22/2021 5:30:00 PM 17.33 63.194 0.051 6.47 16.95 9.25
8/22/2021 5:45:00 PM 17.34 63.212 0.051 6.47 14.81 9.26
8/22/2021 6:00:00 PM 17.31 63.158 0.051 6.46 15.07 9.28
8/22/2021 6:15:00 PM 17.28 63.104 0.051 6.46 12.69 9.27
8/22/2021 6:30:00 PM 17.27 63.086 0.052 6.48 12.3 9.29
8/22/2021 6:45:00 PM 17.26 63.068 0.052 6.48 12.15 9.29
8/22/2021 7:00:00 PM 17.23 63.014 0.052 6.47 12.01 9.29
8/22/2021 7:15:00 PM 17.22 62.996 0.052 6.47 23.25 9.28
8/22/2021 7:30:00 PM 17.2 62.96 0.052 6.46 14.82 9.29
8/22/2021 7:45:00 PM 17.18 62.924 0.052 6.45 12 9.21
8/22/2021 8:00:00 PM 17.17 62.906 0.051 6.45 42.53 9.26
8/22/2021 8:15:00 PM 17.15 62.87 0.051 6.44 13.49 9.27
8/22/2021 8:30:00 PM 17.14 62.852 0.051 6.41 13.08 9.27
8/22/2021 8:45:00 PM 17.13 62.834 0.052 6.42 13.07 9.27
8/22/2021 9:00:00 PM 17.11 62.798 0.052 6.4 13.2 9.28
8/22/2021 9:15:00 PM 17.1 62.78 0.051 6.4 12.64 9.27
8/22/2021 9:30:00 PM 17.1 62.78 0.052 6.39 12.89 9.28
8/22/2021 9:45:00 PM 17.09 62.762 0.051 6.41 13.36 9.27
8/22/2021 10:00:00 PM 17.08 62.744 0.052 6.39 12.69 9.28
8/22/2021 10:15:00 PM 17.07 62.726 0.052 6.4 14.43 9.27
8/22/2021 10:30:00 PM 17.06 62.708 0.052 6.4 13.51 9.27
8/22/2021 10:45:00 PM 17.06 62.708 0.052 6.39 13.74 9.28
8/22/2021 11:00:00 PM 17.05 62.69 0.052 6.42 13.37 9.28
8/22/2021 11:15:00 PM 17.04 62.672 0.052 6.41 13.56 9.28
8/22/2021 11:30:00 PM 17.03 62.654 0.052 6.43 14.3 9.29
8/22/2021 11:45:00 PM 17.02 62.636 0.052 6.45 13.47 9.29
8/23/2021 12:00:00 AM 17.01 62.618 0.052 6.44 14.95 9.3
8/23/2021 12:15:00 AM 17 62.6 0.052 6.45 13.5 9.3
8/23/2021 12:30:00 AM 16.98 62.564 0.052 6.45 13.75 9.3
8/23/2021 12:45:00 AM 16.96 62.528 0.052 6.45 14.35 9.3
8/23/2021 1:00:00 AM 16.95 62.51 0.052 6.45 14.56 9.3
8/23/2021 1:15:00 AM 16.94 62.492 0.052 6.46 14.32 9.32
8/23/2021 1:30:00 AM 16.92 62.456 0.052 6.46 14.59 9.31
8/23/2021 1:45:00 AM 16.91 62.438 0.052 6.45 14.64 9.32
8/23/2021 2:00:00 AM 16.89 62.402 0.053 6.46 14.83 9.32
8/23/2021 2:15:00 AM 16.86 62.348 0.052 6.46 14.39 9.33
8/23/2021 2:30:00 AM 16.84 62.312 0.052 6.46 14.29 9.34
8/23/2021 2:45:00 AM 16.82 62.276 0.052 6.45 13.5 9.34
8/23/2021 3:00:00 AM 16.79 62.222 0.052 6.46 14.36 9.34
8/23/2021 3:15:00 AM 16.76 62.168 0.052 6.46 13.91 9.35
8/23/2021 3:30:00 AM 16.73 62.114 0.052 6.46 13.91 9.36
8/23/2021 3:45:00 AM 16.71 62.078 0.052 6.47 13.85 9.35
8/23/2021 4:00:00 AM 16.67 62.006 0.052 6.45 14.07 9.36
8/23/2021 4:15:00 AM 16.65 61.97 0.053 6.45 13.31 9.37
8/23/2021 4:30:00 AM 16.61 61.898 0.052 6.45 12.85 9.38
8/23/2021 4:45:00 AM 16.59 61.862 0.052 6.44 12.13 9.38
8/23/2021 5:00:00 AM 16.56 61.808 0.052 6.45 12.7 9.39
8/23/2021 5:15:00 AM 16.52 61.736 0.052 6.45 12.66 9.4
8/23/2021 5:30:00 AM 16.5 61.7 0.052 6.46 11.84 9.4
8/23/2021 5:45:00 AM 16.46 61.628 0.052 6.45 12.27 9.41
8/23/2021 6:00:00 AM 16.43 61.574 0.052 6.45 12.18 9.41
8/23/2021 6:15:00 AM 16.4 61.52 0.052 6.45 12.19 9.42
8/23/2021 6:30:00 AM 16.36 61.448 0.052 6.45 12.09 9.42
8/23/2021 6:45:00 AM 16.33 61.394 0.052 6.45 12.18 9.44
8/23/2021 7:00:00 AM 16.3 61.34 0.052 6.44 12.07 9.44
8/23/2021 7:15:00 AM 16.28 61.304 0.052 6.44 12.11 9.46
8/23/2021 7:30:00 AM 16.26 61.268 0.052 6.44 12.63 9.47
8/23/2021 7:45:00 AM 16.25 61.25 0.052 6.44 12.5 9.47
8/23/2021 8:00:00 AM 16.24 61.232 0.052 6.44 13.31 9.48
8/23/2021 8:15:00 AM 16.24 61.232 0.052 6.44 12.66 9.49
8/23/2021 8:30:00 AM 16.25 61.25 0.052 6.45 12.85 9.5
8/23/2021 8:45:00 AM 16.25 61.25 0.052 6.45 11.91 9.51
8/23/2021 9:00:00 AM 16.3 61.34 0.052 6.45 11.85 9.51
8/23/2021 9:15:00 AM 16.32 61.376 0.052 6.45 11.87 9.52
8/23/2021 9:30:00 AM 16.38 61.484 0.052 6.46 11.86 9.51
8/23/2021 9:45:00 AM 16.47 61.646 0.052 6.47 11.9 9.51
8/23/2021 10:00:00 AM 16.59 61.862 0.052 6.48 11.86 9.5
8/23/2021 10:15:00 AM 16.64 61.952 0.052 6.47 11.9 9.48
8/23/2021 10:30:00 AM 16.71 62.078 0.052 6.48 11.79 9.47
8/23/2021 10:45:00 AM 16.82 62.276 0.052 6.5 11.88 9.47
8/23/2021 11:00:00 AM 16.92 62.456 0.052 6.51 11.93 9.46
8/23/2021 11:15:00 AM 17.09 62.762 0.053 6.52 11.9 9.44
8/23/2021 11:30:00 AM 17.06 62.708 0.052 6.53 11.85 9.41
8/23/2021 11:45:00 AM 17.23 63.014 0.052 6.53 11.87 9.4
8/23/2021 12:00:00 PM 17.42 63.356 0.052 6.54 11.91 9.38
8/23/2021 12:15:00 PM 17.32 63.176 0.052 6.54 11.87 9.36
8/23/2021 12:30:00 PM 17.65 63.77 0.052 6.54 11.88 9.34
8/23/2021 12:45:00 PM 17.75 63.95 0.052 6.55 11.96 9.31
8/23/2021 1:00:00 PM 17.89 64.202 0.052 6.55 11.85 9.29
8/23/2021 1:15:00 PM 17.93 64.274 0.052 6.55 11.88 9.27
8/23/2021 1:30:00 PM 18.11 64.598 0.052 6.55 11.77 9.25
8/23/2021 1:45:00 PM 18.18 64.724 0.052 6.55 11.92 9.22
8/23/2021 2:00:00 PM 18.25 64.85 0.052 6.55 11.9 9.19
8/23/2021 2:15:00 PM 18.38 65.084 0.053 6.56 11.93 9.19
8/23/2021 2:30:00 PM 18.41 65.138 0.052 6.55 11.76 9.17
8/23/2021 2:45:00 PM 18.5 65.3 0.052 6.55 11.76 9.15
8/23/2021 3:00:00 PM 18.51 65.318 0.053 6.55 11.89 9.15
8/23/2021 3:15:00 PM 18.53 65.354 0.052 6.55 11.82 9.13
8/23/2021 3:30:00 PM 18.54 65.372 0.052 6.55 11.93 9.12
8/23/2021 3:45:00 PM 18.53 65.354 0.052 6.55 11.82 9.11
8/23/2021 4:00:00 PM 18.59 65.462 0.053 6.55 11.86 9.1
8/23/2021 4:15:00 PM 18.58 65.444 0.053 6.55 11.93 9.09
8/23/2021 4:30:00 PM 18.59 65.462 0.052 6.54 11.86 9.08
8/23/2021 4:45:00 PM 18.56 65.408 0.052 6.54 11.88 9.06
8/23/2021 5:00:00 PM 18.55 65.39 0.052 6.54 11.85 9.05
8/23/2021 5:15:00 PM 18.52 65.336 0.052 6.53 11.96 9.05
8/23/2021 5:30:00 PM 18.48 65.264 0.052 6.53 11.88 9.04
8/23/2021 5:45:00 PM 18.44 65.192 0.052 6.53 11.8 9.04
8/23/2021 6:00:00 PM 18.39 65.102 0.052 6.52 11.92 9.04
8/23/2021 6:15:00 PM 18.37 65.066 0.052 6.52 12.09 9.04
8/23/2021 6:30:00 PM 18.33 64.994 0.052 6.52 11.86 9.05
8/23/2021 6:45:00 PM 18.3 64.94 0.052 6.51 11.98 9.05
8/23/2021 7:00:00 PM 18.26 64.868 0.052 6.51 11.96 9.05
8/23/2021 7:15:00 PM 18.2 64.76 0.052 6.5 11.95 9.05
8/23/2021 7:30:00 PM 18.16 64.688 0.052 6.49 12.63 9.04
8/23/2021 7:45:00 PM 18.11 64.598 0.052 6.48 12.09 9.05
8/23/2021 8:00:00 PM 18.07 64.526 0.052 6.48 11.87 9.05
8/23/2021 8:15:00 PM 18.03 64.454 0.052 6.48 11.88 9.05
8/23/2021 8:30:00 PM 17.99 64.382 0.052 6.48 11.95 9.05
8/23/2021 8:45:00 PM 17.95 64.31 0.052 6.48 11.94 9.06
8/23/2021 9:00:00 PM 17.92 64.256 0.052 6.47 11.92 9.07
8/23/2021 9:15:00 PM 17.88 64.184 0.052 6.47 12.09 9.08
8/23/2021 9:30:00 PM 17.85 64.13 0.052 6.47 12.24 9.08
8/23/2021 9:45:00 PM 17.81 64.058 0.052 6.47 11.94 9.08
8/23/2021 10:00:00 PM 17.78 64.004 0.052 6.47 11.91 9.1
8/23/2021 10:15:00 PM 17.75 63.95 0.052 6.47 12.19 9.1
8/23/2021 10:30:00 PM 17.73 63.914 0.052 6.47 12 9.11
8/23/2021 10:45:00 PM 17.71 63.878 0.052 6.47 12 9.11
8/23/2021 11:00:00 PM 17.69 63.842 0.052 6.48 12 9.12
8/23/2021 11:15:00 PM 17.67 63.806 0.052 6.48 11.99 9.12
8/23/2021 11:30:00 PM 17.64 63.752 0.052 6.48 12.08 9.13
8/23/2021 11:45:00 PM 17.62 63.716 0.052 6.48 11.95 9.14
8/24/2021 12:00:00 AM 17.59 63.662 0.052 6.47 11.99 9.14
8/24/2021 12:15:00 AM 17.56 63.608 0.052 6.47 11.95 9.14
8/24/2021 12:30:00 AM 17.54 63.572 0.052 6.47 11.95 9.13
8/24/2021 12:45:00 AM 17.51 63.518 0.052 6.47 11.97 9.15
8/24/2021 1:00:00 AM 17.49 63.482 0.052 6.46 11.96 9.16
8/24/2021 1:15:00 AM 17.46 63.428 0.052 6.47 12.03 9.16
8/24/2021 1:30:00 AM 17.44 63.392 0.052 6.48 11.97 9.17
8/24/2021 1:45:00 AM 17.41 63.338 0.052 6.46 11.98 9.17
8/24/2021 2:00:00 AM 17.38 63.284 0.052 6.48 12.26 9.17
8/24/2021 2:15:00 AM 17.36 63.248 0.052 6.46 12.3 9.19
8/24/2021 2:30:00 AM 17.33 63.194 0.052 6.47 12.15 9.2
8/24/2021 2:45:00 AM 17.31 63.158 0.052 6.46 12.19 9.19
8/24/2021 3:00:00 AM 17.28 63.104 0.052 6.49 12.21 9.19
8/24/2021 3:15:00 AM 17.25 63.05 0.052 6.44 12.21 9.19
8/24/2021 3:30:00 AM 17.22 62.996 0.052 6.46 12.26 9.21
8/24/2021 3:45:00 AM 17.2 62.96 0.052 6.49 12.23 9.21
8/24/2021 4:00:00 AM 17.17 62.906 0.052 6.44 12.17 9.21
8/24/2021 4:15:00 AM 17.15 62.87 0.052 6.5 12.29 9.22
8/24/2021 4:30:00 AM 17.13 62.834 0.052 6.49 12.45 9.23
8/24/2021 4:45:00 AM 17.1 62.78 0.052 6.45 12.45 9.24
8/24/2021 5:00:00 AM 17.08 62.744 0.052 6.5 12.43 9.25
8/24/2021 5:15:00 AM 17.05 62.69 0.052 6.5 12.41 9.26
8/24/2021 5:30:00 AM 17.03 62.654 0.052 6.47 12.36 9.26
8/24/2021 5:45:00 AM 17 62.6 0.052 6.49 12.44 9.26
8/24/2021 6:00:00 AM 16.98 62.564 0.052 6.46 12.63 9.27
8/24/2021 6:15:00 AM 16.96 62.528 0.052 6.5 12.48 9.27
8/24/2021 6:30:00 AM 16.93 62.474 0.052 6.5 12.48 9.27
8/24/2021 6:45:00 AM 16.91 62.438 0.052 6.44 12.57 9.28
8/24/2021 7:00:00 AM 16.89 62.402 0.052 6.47 14.97 9.29
8/24/2021 7:15:00 AM 16.87 62.366 0.052 6.47 13.04 9.29
8/24/2021 7:30:00 AM 16.86 62.348 0.052 6.48 12.88 9.31
8/24/2021 7:45:00 AM 16.85 62.33 0.052 6.5 15.64 9.33
8/24/2021 8:00:00 AM 16.84 62.312 0.052 6.47 15.89 9.34
8/24/2021 8:15:00 AM 16.83 62.294 0.052 6.49 15.17 9.35
8/24/2021 8:30:00 AM 16.83 62.294 0.052 6.49 13.09 9.36
8/24/2021 8:45:00 AM 16.86 62.348 0.052 6.52 13.58 9.38
8/24/2021 9:00:00 AM 16.87 62.366 0.052 6.53 12.95 9.38
8/24/2021 9:15:00 AM 16.9 62.42 0.052 6.47 11.98 9.39
8/24/2021 9:30:00 AM 16.93 62.474 0.052 6.51 12.67 9.4
8/24/2021 9:45:00 AM 17 62.6 0.052 6.54 12.09 9.39
8/24/2021 10:00:00 AM 17.11 62.798 0.052 6.51 12.42 9.38
8/24/2021 10:15:00 AM 17.23 63.014 0.052 6.55 11.98 9.37
8/24/2021 10:30:00 AM 17.36 63.248 0.052 6.55 11.89 9.37
8/24/2021 10:45:00 AM 17.49 63.482 0.052 6.51 12.11 9.36
8/24/2021 11:00:00 AM 17.62 63.716 0.052 6.56 12.11 9.34
8/24/2021 11:15:00 AM 17.75 63.95 0.052 6.57 12.09 9.32
8/24/2021 11:30:00 AM 17.87 64.166 0.052 6.51 12.06 9.3
8/24/2021 11:45:00 AM 18 64.4 0.052 6.57 12.74 9.27
8/24/2021 12:00:00 PM 18.15 64.67 0.052 6.53 13.22 9.23
8/24/2021 12:15:00 PM 18.29 64.922 0.052 6.58 12.93 9.22
8/24/2021 12:30:00 PM 18.42 65.156 0.052 6.58 11.97 9.21
8/24/2021 12:45:00 PM 18.56 65.408 0.052 6.58 11.93 9.18
8/24/2021 1:00:00 PM 18.67 65.606 0.052 6.53 12.05 9.15
8/24/2021 1:15:00 PM 18.78 65.804 0.052 6.59 12.44 9.13
8/24/2021 1:30:00 PM 18.88 65.984 0.052 6.57 12.06 9.1
8/24/2021 1:45:00 PM 18.96 66.128 0.052 6.59 13.98 9.08
8/24/2021 2:00:00 PM 19.02 66.236 0.052 6.59 11.9 9.07
8/24/2021 2:15:00 PM 19.07 66.326 0.052 6.55 12.33 9.06
8/24/2021 2:30:00 PM 19.1 66.38 0.053 6.59 11.94 9.05
8/24/2021 2:45:00 PM 19.12 66.416 0.053 6.55 12.16 9.03
8/24/2021 3:00:00 PM 19.13 66.434 0.053 6.57 12.91 9.03
8/24/2021 3:15:00 PM 19.14 66.452 0.053 6.57 12.12 9.01
8/24/2021 3:30:00 PM 19.12 66.416 0.053 6.59 12.18 8.95
8/24/2021 3:45:00 PM 19.1 66.38 0.053 6.55 12.1 8.99
8/24/2021 4:00:00 PM 19.08 66.344 0.053 6.56 12.14 8.99
8/24/2021 4:15:00 PM 19.04 66.272 0.053 6.56 12.12 8.97
8/24/2021 4:30:00 PM 18.97 66.146 0.053 6.59 12.15 8.95
8/24/2021 4:45:00 PM 18.94 66.092 0.053 6.58 12.06 8.97
8/24/2021 5:00:00 PM 18.92 66.056 0.053 6.58 12.22 8.97
8/24/2021 5:15:00 PM 18.9 66.02 0.053 6.51 11.99 8.97
8/24/2021 5:30:00 PM 18.85 65.93 0.053 6.54 12.09 8.95
8/24/2021 5:45:00 PM 18.81 65.858 0.053 6.54 11.88 8.96
8/24/2021 6:00:00 PM 18.79 65.82201 0.054 6.53 12.19 8.96
8/24/2021 6:15:00 PM 18.76 65.768 0.054 6.51 12.16 8.94
8/24/2021 6:30:00 PM 18.73 65.714 0.054 6.52 12.32 8.94
8/24/2021 6:45:00 PM 18.67 65.606 0.054 6.54 12.45 8.93
8/24/2021 7:00:00 PM 18.62 65.516 0.054 6.49 11.96 8.94
8/24/2021 7:15:00 PM 18.58 65.444 0.054 6.52 12.26 8.94
8/24/2021 7:30:00 PM 18.54 65.372 0.054 6.52 12.04 8.94
8/24/2021 7:45:00 PM 18.49 65.282 0.054 6.5 12.15 8.93
8/24/2021 8:00:00 PM 18.44 65.192 0.053 6.51 12.16 8.89
8/24/2021 8:15:00 PM 18.39 65.102 0.054 6.5 12.22 8.9
8/24/2021 8:30:00 PM 18.35 65.03 0.054 6.5 12.09 8.91
8/24/2021 8:45:00 PM 18.31 64.958 0.054 6.43 12.71 8.88
8/24/2021 9:00:00 PM 18.27 64.886 0.054 6.5 12.21 8.87
8/24/2021 9:15:00 PM 18.23 64.814 0.054 6.5 12.21 8.9
8/24/2021 9:30:00 PM 18.19 64.742 0.054 6.51 12.19 8.9
8/24/2021 9:45:00 PM 18.16 64.688 0.053 6.44 12.28 8.88
8/24/2021 10:00:00 PM 18.12 64.616 0.055 6.5 12.08 8.88
8/24/2021 10:15:00 PM 18.09 64.562 0.054 6.5 12.15 8.86
8/24/2021 10:30:00 PM 18.06 64.508 0.054 6.5 12.06 8.91
8/24/2021 10:45:00 PM 18.05 64.49 0.055 6.48 12.54 8.92
8/24/2021 11:00:00 PM 18.03 64.454 0.054 6.52 12.68 8.94
8/24/2021 11:15:00 PM 18 64.4 0.055 6.52 12.29 8.94
8/24/2021 11:30:00 PM 17.97 64.346 0.055 6.45 12.2 8.86
8/24/2021 11:45:00 PM 17.95 64.31 0.056 6.53 12.21 8.85
8/25/2021 12:00:00 AM 17.93 64.274 0.056 6.48 12.13 8.83
8/25/2021 12:15:00 AM 17.91 64.238 0.056 6.48 12.88 8.88
8/25/2021 12:30:00 AM 17.9 64.22 0.056 6.52 12.23 8.86
8/25/2021 12:45:00 AM 17.89 64.202 0.057 6.48 12.25 8.89
8/25/2021 1:00:00 AM 17.87 64.166 0.057 6.52 13 8.91
8/25/2021 1:15:00 AM 17.86 64.148 0.057 6.49 12.27 8.89
8/25/2021 1:30:00 AM 17.84 64.112 0.058 6.49 12.31 8.95
8/25/2021 1:45:00 AM 17.83 64.094 0.058 6.49 12.29 8.93
8/25/2021 2:00:00 AM 17.82 64.076 0.057 6.49 12.24 8.92
8/25/2021 2:15:00 AM 17.8 64.04 0.057 6.49 12.3 8.96
8/25/2021 2:30:00 AM 17.78 64.004 0.058 6.49 12.31 8.97
8/25/2021 2:45:00 AM 17.76 63.968 0.058 6.51 12.21 8.95
8/25/2021 3:00:00 AM 17.74 63.932 0.058 6.51 12.84 8.96
8/25/2021 3:15:00 AM 17.73 63.914 0.058 6.49 12.21 8.97
8/25/2021 3:30:00 AM 17.71 63.878 0.058 6.49 12.22 8.97
8/25/2021 3:45:00 AM 17.69 63.842 0.058 6.49 12.7 8.97
8/25/2021 4:00:00 AM 17.67 63.806 0.057 6.49 13.2 8.98
8/25/2021 4:15:00 AM 17.65 63.77 0.056 6.49 12.13 8.94
8/25/2021 4:30:00 AM 17.64 63.752 0.056 6.49 12.18 8.97
8/25/2021 4:45:00 AM 17.62 63.716 0.055 6.52 12.39 8.95
8/25/2021 5:00:00 AM 17.61 63.698 0.056 6.52 12.33 8.99
8/25/2021 5:15:00 AM 17.59 63.662 0.055 6.51 12.16 8.97
8/25/2021 5:30:00 AM 17.57 63.626 0.056 6.47 12.31 9.01
8/25/2021 5:45:00 AM 17.57 63.626 0.056 6.49 12.44 9.01
8/25/2021 6:00:00 AM 17.55 63.59 0.056 6.52 12.55 9.05
8/25/2021 6:15:00 AM 17.54 63.572 0.057 6.48 12.23 9.06
8/25/2021 6:30:00 AM 17.52 63.536 0.057 6.52 12.61 9.06
8/25/2021 6:45:00 AM 17.5 63.5 0.057 6.52 12.24 9.05
8/25/2021 7:00:00 AM 17.48 63.464 0.057 6.52 12.17 8.98
8/25/2021 7:15:00 AM 17.47 63.446 0.057 6.51 12.24 9.07
8/25/2021 7:30:00 AM 17.46 63.428 0.057 6.53 12.66 9.1
8/25/2021 7:45:00 AM 17.45 63.41 0.057 6.5 12.65 9.11
8/25/2021 8:00:00 AM 17.45 63.41 0.058 6.54 12.18 9.05
8/25/2021 8:15:00 AM 17.45 63.41 0.059 6.54 12.39 9.13
8/25/2021 8:30:00 AM 17.46 63.428 0.058 6.53 12.29 9.15
8/25/2021 8:45:00 AM 17.47 63.446 0.056 6.55 12.26 9.15
8/25/2021 9:00:00 AM 17.5 63.5 0.056 6.55 12.32 9.14
8/25/2021 9:15:00 AM 17.53 63.554 0.056 6.56 12.19 9.16
8/25/2021 9:30:00 AM 17.61 63.698 0.056 6.56 12.21 9.17
8/25/2021 9:45:00 AM 17.68 63.824 0.056 6.57 12.23 9.16
8/25/2021 10:00:00 AM 17.75 63.95 0.056 6.58 12.18 9.11
8/25/2021 10:15:00 AM 17.84 64.112 0.056 6.58 12.38 9.06
8/25/2021 10:30:00 AM 17.97 64.346 0.055 6.58 12.16 9.04
8/25/2021 10:45:00 AM 18.1 64.58 0.056 6.59 12.03 8.98
8/25/2021 11:00:00 AM 18.23 64.814 0.055 6.59 12.12 9.07
8/25/2021 11:15:00 AM 18.38 65.084 0.055 6.59 12.34 9.04
8/25/2021 11:30:00 AM 18.53 65.354 0.055 6.57 12.02 9.03
8/25/2021 11:45:00 AM 18.66 65.588 0.055 6.59 11.93 9.01
8/25/2021 12:00:00 PM 18.79 65.82201 0.055 6.59 12.12 8.97
8/25/2021 12:15:00 PM 18.97 66.146 0.055 6.6 12.15 8.94
8/25/2021 12:30:00 PM 19.14 66.452 0.055 6.6 12.12 8.94
8/25/2021 12:45:00 PM 19.3 66.74 0.055 6.6 12.12 8.84
8/25/2021 1:00:00 PM 19.44 66.992 0.056 6.57 11.94 8.78
8/25/2021 1:15:00 PM 19.52 67.136 0.055 6.59 13.09 8.83
8/25/2021 1:30:00 PM 19.66 67.388 0.055 6.59 12.1 8.77
8/25/2021 1:45:00 PM 19.78 67.604 0.055 6.59 12.07 8.84
8/25/2021 2:00:00 PM 19.79 67.622 0.056 6.59 12.08 8.8
8/25/2021 2:15:00 PM 19.9 67.82 0.056 6.59 12.04 8.7
8/25/2021 2:30:00 PM 19.96 67.92799 0.056 6.62 12.15 8.75
8/25/2021 2:45:00 PM 20.01 68.018 0.056 6.58 12.02 8.81
8/25/2021 3:00:00 PM 20.05 68.09 0.056 6.61 11.94 8.78
8/25/2021 3:15:00 PM 19.98 67.964 0.056 6.58 12.17 8.73
8/25/2021 3:30:00 PM 19.82 67.676 0.056 6.61 12.13 8.77
8/25/2021 3:45:00 PM 19.69 67.442 0.056 6.6 12.09 8.78
8/25/2021 4:00:00 PM 19.79 67.622 0.056 6.57 11.94 8.8
8/25/2021 4:15:00 PM 19.77 67.586 0.056 6.58 12.15 8.77
8/25/2021 4:30:00 PM 19.72 67.496 0.056 6.58 12.19 8.77
8/25/2021 4:45:00 PM 19.65 67.37 0.056 6.6 12.12 8.81
8/25/2021 5:00:00 PM 19.58 67.244 0.056 6.56 12.13 8.77
8/25/2021 5:15:00 PM 19.56 67.208 0.056 6.58 12.18 8.8
8/25/2021 5:30:00 PM 19.53 67.154 0.056 6.59 12.18 8.76
8/25/2021 5:45:00 PM 19.48 67.064 0.056 6.59 12.15 8.75
8/25/2021 6:00:00 PM 19.44 66.992 0.056 6.58 12.15 8.76
8/25/2021 6:15:00 PM 19.4 66.92 0.056 6.52 12.14 8.78
8/25/2021 6:30:00 PM 19.37 66.866 0.056 6.55 12.19 8.8
8/25/2021 6:45:00 PM 19.29 66.722 0.056 6.55 12.06 8.79
8/25/2021 7:00:00 PM 19.21 66.578 0.057 6.56 12.41 8.81
8/25/2021 7:15:00 PM 19.14 66.452 0.058 6.52 12.22 8.79
8/25/2021 7:30:00 PM 19.07 66.326 0.057 6.5 12.19 8.78
8/25/2021 7:45:00 PM 19.02 66.236 0.057 6.53 12.22 8.79
8/25/2021 8:00:00 PM 18.97 66.146 0.057 6.48 12.16 8.79
8/25/2021 8:15:00 PM 18.92 66.056 0.057 6.53 12.2 8.8
8/25/2021 8:30:00 PM 18.87 65.966 0.057 6.47 12.17 8.76
8/25/2021 8:45:00 PM 18.83 65.894 0.057 6.49 12.09 8.78
8/25/2021 9:00:00 PM 18.78 65.804 0.057 6.49 12.12 8.81
8/25/2021 9:15:00 PM 18.73 65.714 0.057 6.49 12.09 8.82
8/25/2021 9:30:00 PM 18.7 65.66 0.056 6.52 12.14 8.83
8/25/2021 9:45:00 PM 18.67 65.606 0.056 6.47 12.13 8.83
8/25/2021 10:00:00 PM 18.64 65.552 0.056 6.49 12.16 8.85
8/25/2021 10:15:00 PM 18.61 65.498 0.056 6.49 12.16 8.85
8/25/2021 10:30:00 PM 18.57 65.426 0.055 6.49 12.07 8.85
8/25/2021 10:45:00 PM 18.55 65.39 0.055 6.51 12.18 8.85
8/25/2021 11:00:00 PM 18.52 65.336 0.055 6.48 12.23 8.85
8/25/2021 11:15:00 PM 18.5 65.3 0.055 6.52 12.23 8.85
8/25/2021 11:30:00 PM 18.48 65.264 0.055 6.47 12.23 8.87
8/25/2021 11:45:00 PM 18.47 65.246 0.055 6.51 12.29 8.86
8/26/2021 12:00:00 AM 18.46 65.228 0.055 6.53 12.15 8.88
8/26/2021 12:15:00 AM 18.43 65.174 0.055 6.49 12.07 8.87
8/26/2021 12:30:00 AM 18.4 65.12 0.055 6.49 12.15 8.89
8/26/2021 12:45:00 AM 18.38 65.084 0.055 6.49 11.94 8.89
8/26/2021 1:00:00 AM 18.36 65.048 0.055 6.5 11.98 8.91
8/26/2021 1:15:00 AM 18.35 65.03 0.055 6.5 12.02 8.91
8/26/2021 1:30:00 AM 18.34 65.012 0.055 6.5 12.38 8.92
8/26/2021 1:45:00 AM 18.33 64.994 0.055 6.52 12.35 8.89
8/26/2021 2:00:00 AM 18.3 64.94 0.055 6.48 11.95 8.93
8/26/2021 2:15:00 AM 18.29 64.922 0.055 6.5 11.99 8.94
8/26/2021 2:30:00 AM 18.28 64.904 0.055 6.5 11.83 8.95
8/26/2021 2:45:00 AM 18.26 64.868 0.055 6.5 11.89 8.95
8/26/2021 3:00:00 AM 18.25 64.85 0.055 6.5 11.88 8.95
8/26/2021 3:15:00 AM 18.24 64.832 0.055 6.5 11.94 8.94
8/26/2021 3:30:00 AM 18.23 64.814 0.055 6.5 11.94 8.95
8/26/2021 3:45:00 AM 18.22 64.796 0.055 6.5 11.76 8.95
8/26/2021 4:00:00 AM 18.21 64.778 0.056 6.5 12.06 8.93
8/26/2021 4:15:00 AM 18.2 64.76 0.055 6.5 11.99 8.95
8/26/2021 4:30:00 AM 18.17 64.706 0.055 6.5 13.45 8.95
8/26/2021 4:45:00 AM 18.15 64.67 0.055 6.49 11.65 8.96
8/26/2021 5:00:00 AM 18.14 64.652 0.056 6.49 14.36 8.96
8/26/2021 5:15:00 AM 18.13 64.634 0.055 6.5 14.69 8.97
8/26/2021 5:30:00 AM 18.12 64.616 0.056 6.49 14.44 8.97
8/26/2021 5:45:00 AM 18.1 64.58 0.056 6.49 11.73 8.98
8/26/2021 6:00:00 AM 18.08 64.544 0.055 6.5 11.66 8.98
8/26/2021 6:15:00 AM 18.07 64.526 0.056 6.49 11.91 8.98
8/26/2021 6:30:00 AM 18.05 64.49 0.056 6.49 12.07 8.97
8/26/2021 6:45:00 AM 18.04 64.472 0.056 6.49 12.15 8.98
8/26/2021 7:00:00 AM 18.02 64.436 0.056 6.49 11.95 8.98
8/26/2021 7:15:00 AM 18.02 64.436 0.056 6.49 14.75 9
8/26/2021 7:30:00 AM 18.01 64.418 0.056 6.5 11.71 9.01
8/26/2021 7:45:00 AM 18.02 64.436 0.056 6.5 11.78 9.03
8/26/2021 8:00:00 AM 18.04 64.472 0.057 6.51 11.65 9.08
8/26/2021 8:15:00 AM 18.06 64.508 0.057 6.51 373.86 9.09
8/26/2021 8:30:00 AM 18.09 64.562 0.057 6.55 11.2 9.02
8/26/2021 8:45:00 AM 18.14 64.652 0.056 6.55 10.93 9.07
8/26/2021 9:00:00 AM 18.19 64.742 0.056 6.53 11.01 9.11
8/26/2021 9:15:00 AM 18.3 64.94 0.057 6.55 10.91 9.1
8/26/2021 9:30:00 AM 18.38 65.084 0.057 6.57 11.11 9.12
8/26/2021 9:45:00 AM 18.49 65.282 0.057 6.58 11.03 9.12
8/26/2021 10:00:00 AM 18.6 65.48 0.057 6.59 10.98 9.14
8/26/2021 10:15:00 AM 18.76 65.768 0.057 6.57 11.01 9.11
8/26/2021 10:30:00 AM 18.91 66.038 0.057 6.61 11.08 9.09
8/26/2021 10:45:00 AM 18.99 66.182 0.057 6.58 11.02 9.08
8/26/2021 11:00:00 AM 19.05 66.29 0.057 6.61 11.14 9.07
8/26/2021 11:15:00 AM 19.14 66.452 0.057 6.62 11.4 9.06
8/26/2021 11:30:00 AM 19.34 66.812 0.057 6.56 11.46 9.04
8/26/2021 11:45:00 AM 19.6 67.28 0.057 6.6 11.65 9.02
8/26/2021 12:00:00 PM 19.82 67.676 0.057 6.6 11.69 8.97
8/26/2021 12:15:00 PM 19.9 67.82 0.057 6.6 11.8 8.96
8/26/2021 12:30:00 PM 20.04 68.07201 0.057 6.6 11.83 8.93
8/26/2021 12:45:00 PM 20.19 68.342 0.057 6.61 11.78 8.88
8/26/2021 1:00:00 PM 20.35 68.63 0.057 6.61 11.61 8.86
8/26/2021 1:15:00 PM 20.47 68.846 0.057 6.61 11.64 8.83
8/26/2021 1:30:00 PM 20.57 69.026 0.057 6.61 11.71 8.78
8/26/2021 1:45:00 PM 20.65 69.17 0.057 6.61 11.45 8.8
8/26/2021 2:00:00 PM 20.72 69.296 0.057 6.64 11.27 8.76
8/26/2021 2:15:00 PM 20.78 69.404 0.057 6.64 11.38 8.75
8/26/2021 2:30:00 PM 20.84 69.512 0.057 6.64 11.34 8.74
8/26/2021 2:45:00 PM 20.88 69.584 0.057 6.64 11.28 8.75
8/26/2021 3:00:00 PM 20.93 69.674 0.057 6.65 11.36 8.71
8/26/2021 3:15:00 PM 20.93 69.674 0.057 6.58 11.29 8.71
8/26/2021 3:30:00 PM 20.88 69.584 0.057 6.64 11.38 8.71
8/26/2021 3:45:00 PM 20.86 69.548 0.057 6.64 11.39 8.67
8/26/2021 4:00:00 PM 20.83 69.494 0.057 6.64 11.35 8.7
8/26/2021 4:15:00 PM 20.76 69.368 0.057 6.58 11.37 8.7
8/26/2021 4:30:00 PM 20.54 68.972 0.057 6.62 11.72 8.67
8/26/2021 4:45:00 PM 20.49 68.882 0.057 6.63 11.7 8.7
8/26/2021 5:00:00 PM 20.45 68.81 0.057 6.62 12.6 8.69
8/26/2021 5:15:00 PM 20.45 68.81 0.057 6.62 12.83 8.7
8/26/2021 5:30:00 PM 20.42 68.756 0.057 6.62 12.59 8.71
8/26/2021 5:45:00 PM 20.38 68.684 0.057 6.61 13.31 8.68
8/26/2021 6:00:00 PM 20.35 68.63 0.057 6.61 12.81 8.67
8/26/2021 6:15:00 PM 20.3 68.54 0.057 6.59 11.27 8.65
8/26/2021 6:30:00 PM 20.25 68.45 0.058 6.52 11.19 8.61
8/26/2021 6:45:00 PM 20.21 68.378 0.058 6.58 11.32 8.64
8/26/2021 7:00:00 PM 20.17 68.306 0.058 6.57 11.08 8.61
8/26/2021 7:15:00 PM 20.12 68.216 0.058 6.56 11.04 8.59
8/26/2021 7:30:00 PM 20.09 68.162 0.058 6.58 10.92 8.6
8/26/2021 7:45:00 PM 20.03 68.054 0.058 6.58 10.98 8.62
8/26/2021 8:00:00 PM 19.96 67.92799 0.058 6.58 10.95 8.62
8/26/2021 8:15:00 PM 19.9 67.82 0.058 6.58 10.92 8.61
8/26/2021 8:30:00 PM 19.83 67.694 0.059 6.58 10.93 8.63
8/26/2021 8:45:00 PM 19.78 67.604 0.058 6.58 11.01 8.63
8/26/2021 9:00:00 PM 19.73 67.514 0.059 6.57 10.96 8.63
8/26/2021 9:15:00 PM 19.67 67.406 0.059 6.58 11.2 8.63
8/26/2021 9:30:00 PM 19.61 67.298 0.059 6.57 10.77 8.65
8/26/2021 9:45:00 PM 19.55 67.19 0.059 6.57 11.18 8.66
8/26/2021 10:00:00 PM 19.49 67.082 0.059 6.57 10.98 8.66
8/26/2021 10:15:00 PM 19.45 67.01 0.059 6.57 10.85 8.68
8/26/2021 10:30:00 PM 19.41 66.938 0.058 6.57 10.82 8.7
8/26/2021 10:45:00 PM 19.37 66.866 0.059 6.57 10.86 8.7
8/26/2021 11:00:00 PM 19.32 66.776 0.059 6.53 10.59 8.7
8/26/2021 11:15:00 PM 19.28 66.704 0.06 6.53 10.91 8.73
8/26/2021 11:30:00 PM 19.25 66.65 0.06 6.55 11.29 8.72
8/26/2021 11:45:00 PM 19.22 66.596 0.06 6.52 11.3 8.73
8/27/2021 12:00:00 AM 19.2 66.56 0.059 6.54 11.74 8.72
8/27/2021 12:15:00 AM 19.18 66.524 0.058 6.52 11.18 8.73
8/27/2021 12:30:00 AM 19.15 66.47 0.058 6.55 11.48 8.76
8/27/2021 12:45:00 AM 19.12 66.416 0.058 6.54 11.39 8.75
8/27/2021 1:00:00 AM 19.08 66.344 0.059 6.5 11.45 8.76
8/27/2021 1:15:00 AM 19.05 66.29 0.058 6.55 11.73 8.75
8/27/2021 1:30:00 AM 19.02 66.236 0.059 6.54 11.04 8.75
8/27/2021 1:45:00 AM 18.98 66.164 0.059 6.55 11.27 8.75
8/27/2021 2:00:00 AM 18.96 66.128 0.059 6.55 11.65 8.78
8/27/2021 2:15:00 AM 18.93 66.074 0.059 6.54 11.73 8.77
8/27/2021 2:30:00 AM 18.9 66.02 0.059 6.55 11.73 8.78
8/27/2021 2:45:00 AM 18.88 65.984 0.059 6.5 12.03 8.78
8/27/2021 3:00:00 AM 18.85 65.93 0.059 6.52 13.41 8.78
8/27/2021 3:15:00 AM 18.83 65.894 0.059 6.51 13.53 8.79
8/27/2021 3:30:00 AM 18.82 65.876 0.059 6.52 13.48 8.78
8/27/2021 3:45:00 AM 18.81 65.858 0.059 6.52 12.1 8.79
8/27/2021 4:00:00 AM 18.79 65.82201 0.059 6.53 12.33 8.79
8/27/2021 4:15:00 AM 18.77 65.786 0.059 6.53 13.48 8.8
8/27/2021 4:30:00 AM 18.75 65.75 0.059 6.52 12.55 8.82
8/27/2021 4:45:00 AM 18.73 65.714 0.059 6.55 11.73 8.82
8/27/2021 5:00:00 AM 18.71 65.67799 0.059 6.49 11.58 8.81
8/27/2021 5:15:00 AM 18.69 65.642 0.059 6.52 10.71 8.82
8/27/2021 5:30:00 AM 18.68 65.624 0.059 6.54 10.81 8.8
8/27/2021 5:45:00 AM 18.67 65.606 0.059 6.52 10.6 8.8
8/27/2021 6:00:00 AM 18.66 65.588 0.059 6.52 11.45 8.82
8/27/2021 6:15:00 AM 18.63 65.534 0.058 6.52 10.87 8.83
8/27/2021 6:30:00 AM 18.62 65.516 0.059 6.54 10.68 8.84
8/27/2021 6:45:00 AM 18.6 65.48 0.059 6.55 10.61 8.85
8/27/2021 7:00:00 AM 18.58 65.444 0.059 6.5 10.75 8.85
8/27/2021 7:15:00 AM 18.57 65.426 0.059 6.55 12.37 8.86
8/27/2021 7:30:00 AM 18.57 65.426 0.059 6.54 12.35 8.88
8/27/2021 7:45:00 AM 18.56 65.408 0.06 6.51 10.76 8.88
8/27/2021 8:00:00 AM 18.56 65.408 0.059 6.53 13.63 8.95
8/27/2021 8:15:00 AM 18.56 65.408 0.059 6.56 13.21 8.97
8/27/2021 8:30:00 AM 18.57 65.426 0.059 6.56 13.69 8.98
8/27/2021 8:45:00 AM 18.58 65.444 0.059 6.54 12.74 8.99
8/27/2021 9:00:00 AM 18.6 65.48 0.059 6.58 11.97 9.02
8/27/2021 9:15:00 AM 18.63 65.534 0.059 6.55 10.7 9.03
8/27/2021 9:30:00 AM 18.67 65.606 0.059 6.59 10.73 9.06
8/27/2021 9:45:00 AM 18.69 65.642 0.059 6.56 10.79 9.07
8/27/2021 10:00:00 AM 18.74 65.732 0.059 6.58 10.72 9.08
8/27/2021 10:15:00 AM 18.78 65.804 0.059 6.61 10.87 9.09
8/27/2021 10:30:00 AM 18.83 65.894 0.059 6.58 10.74 9.09
8/27/2021 10:45:00 AM 18.89 66.002 0.059 6.6 10.88 9.1
8/27/2021 11:00:00 AM 18.96 66.128 0.059 6.6 11.81 9.11
8/27/2021 11:15:00 AM 19.04 66.272 0.059 6.61 13.98 9.11
8/27/2021 11:30:00 AM 19.11 66.398 0.059 6.63 12.22 9.09
8/27/2021 11:45:00 AM 19.17 66.506 0.059 6.6 13.37 9.09
8/27/2021 12:00:00 PM 19.23 66.614 0.059 6.61 11.77 9.08
8/27/2021 12:15:00 PM 19.3 66.74 0.06 6.63 13.51 9.08
8/27/2021 12:30:00 PM 19.44 66.992 0.059 6.61 12.81 9.08
8/27/2021 12:45:00 PM 19.74 67.532 0.059 6.62 12.62 9.05
8/27/2021 1:00:00 PM 19.82 67.676 0.06 6.62 12.81 9.02
8/27/2021 1:15:00 PM 19.91 67.838 0.06 6.64 12.3 9.01
8/27/2021 1:30:00 PM 20.03 68.054 0.06 6.66 12.06 8.99
8/27/2021 1:45:00 PM 20.16 68.288 0.06 6.65 11.88 8.98
8/27/2021 2:00:00 PM 20.3 68.54 0.06 6.64 12.28 8.93
8/27/2021 2:15:00 PM 20.32 68.576 0.059 6.67 12.73 8.93
8/27/2021 2:30:00 PM 20.42 68.756 0.059 6.65 13.13 8.91
8/27/2021 2:45:00 PM 20.39 68.702 0.06 6.65 12.13 8.86
8/27/2021 3:00:00 PM 20.56 69.008 0.059 6.64 12.38 8.83
8/27/2021 3:15:00 PM 20.37 68.666 0.059 6.66 12.81 8.82
8/27/2021 3:30:00 PM 20.36 68.648 0.059 6.6 13.09 8.81
8/27/2021 3:45:00 PM 20.32 68.576 0.059 6.63 12.62 8.81
8/27/2021 4:00:00 PM 20.43 68.774 0.059 6.66 11.28 8.84
8/27/2021 4:15:00 PM 20.5 68.9 0.06 6.64 12.75 8.81
8/27/2021 4:30:00 PM 20.46 68.828 0.059 6.63 12.03 8.81
8/27/2021 4:45:00 PM 20.34 68.612 0.059 6.62 13.05 8.81
8/27/2021 5:00:00 PM 20.25 68.45 0.059 6.63 13.03 8.8
8/27/2021 5:15:00 PM 20.2 68.36 0.059 6.63 12.71 8.79
8/27/2021 5:30:00 PM 20.14 68.252 0.06 6.61 13.09 8.77
8/27/2021 5:45:00 PM 20.14 68.252 0.06 6.64 10.71 8.75
8/27/2021 6:00:00 PM 20.12 68.216 0.059 6.6 13.5 8.76
8/27/2021 6:15:00 PM 20.11 68.198 0.06 6.63 12.17 8.73
8/27/2021 6:30:00 PM 20.07 68.126 0.06 6.61 12.28 8.69
8/27/2021 6:45:00 PM 20.03 68.054 0.06 6.61 12.96 8.66
8/27/2021 7:00:00 PM 19.99 67.982 0.06 6.61 13.33 8.66
8/27/2021 7:15:00 PM 19.95 67.91 0.06 6.56 11.92 8.65
8/27/2021 7:30:00 PM 19.9 67.82 0.059 6.57 13.5 8.64
8/27/2021 7:45:00 PM 19.85 67.73 0.06 6.59 12.98 8.63
8/27/2021 8:00:00 PM 19.79 67.622 0.06 6.54 12.56 8.65
8/27/2021 8:15:00 PM 19.75 67.55 0.059 6.58 13.41 8.65
8/27/2021 8:30:00 PM 19.7 67.46 0.059 6.52 13.84 8.65
8/27/2021 8:45:00 PM 19.65 67.37 0.059 6.58 13.66 8.65
8/27/2021 9:00:00 PM 19.59 67.262 0.059 6.57 13.57 8.67
8/27/2021 9:15:00 PM 19.55 67.19 0.059 6.53 13.14 8.65
8/27/2021 9:30:00 PM 19.49 67.082 0.06 6.52 13.47 8.68
8/27/2021 9:45:00 PM 19.44 66.992 0.059 6.56 13.54 8.69
8/27/2021 10:00:00 PM 19.39 66.902 0.06 6.55 13.25 8.69
8/27/2021 10:15:00 PM 19.35 66.83 0.06 6.49 10.49 8.7
8/27/2021 10:30:00 PM 19.31 66.758 0.06 6.54 13.25 8.7
8/27/2021 10:45:00 PM 19.28 66.704 0.06 6.54 13.29 8.69
8/27/2021 11:00:00 PM 19.24 66.632 0.06 6.54 12.72 8.7
8/27/2021 11:15:00 PM 19.22 66.596 0.06 6.54 13.4 8.72
8/27/2021 11:30:00 PM 19.19 66.542 0.06 6.51 12.79 8.73
8/27/2021 11:45:00 PM 19.16 66.488 0.06 6.54 12.53 8.74
8/28/2021 12:00:00 AM 19.13 66.434 0.06 6.5 12.8 8.73
8/28/2021 12:15:00 AM 19.1 66.38 0.06 6.52 11.83 8.76
8/28/2021 12:30:00 AM 19.07 66.326 0.06 6.54 13.03 8.75
8/28/2021 12:45:00 AM 19.05 66.29 0.06 6.5 12.79 8.75
8/28/2021 1:00:00 AM 19.03 66.254 0.06 6.51 12.65 8.77
8/28/2021 1:15:00 AM 19.02 66.236 0.06 6.51 12.91 8.76
8/28/2021 1:30:00 AM 19.01 66.218 0.06 6.51 12.57 8.75
8/28/2021 1:45:00 AM 18.99 66.182 0.06 6.54 12.07 8.78
8/28/2021 2:00:00 AM 18.97 66.146 0.059 6.54 12.54 8.77
8/28/2021 2:15:00 AM 18.95 66.11 0.06 6.49 12.98 8.77
8/28/2021 2:30:00 AM 18.94 66.092 0.06 6.54 13.06 8.77
8/28/2021 2:45:00 AM 18.92 66.056 0.06 6.53 12.85 8.78
8/28/2021 3:00:00 AM 18.91 66.038 0.06 6.54 11.46 8.79
8/28/2021 3:15:00 AM 18.9 66.02 0.06 6.55 12.95 8.79
8/28/2021 3:30:00 AM 18.89 66.002 0.06 6.55 13.68 8.79
8/28/2021 3:45:00 AM 18.88 65.984 0.06 6.54 12.98 8.79
8/28/2021 4:00:00 AM 18.86 65.948 0.06 6.55 12.59 8.79
8/28/2021 4:15:00 AM 18.85 65.93 0.06 6.55 13.36 8.78
8/28/2021 4:30:00 AM 18.84 65.912 0.059 6.53 12.77 8.8
8/28/2021 4:45:00 AM 18.82 65.876 0.06 6.54 13.3 8.81
8/28/2021 5:00:00 AM 18.81 65.858 0.06 6.53 11.67 8.8
8/28/2021 5:15:00 AM 18.8 65.84 0.06 6.53 12.09 8.78
8/28/2021 5:30:00 AM 18.79 65.82201 0.06 6.52 11.22 8.77
8/28/2021 5:45:00 AM 18.79 65.82201 0.06 6.53 11.58 8.79
8/28/2021 6:00:00 AM 18.77 65.786 0.061 6.53 11.2 8.78
8/28/2021 6:15:00 AM 18.76 65.768 0.061 6.52 13.04 8.77
8/28/2021 6:30:00 AM 18.75 65.75 0.061 6.53 11.09 8.77
8/28/2021 6:45:00 AM 18.73 65.714 0.061 6.46 11.75 8.8
8/28/2021 7:00:00 AM 18.72 65.696 0.061 6.52 12.48 8.79
8/28/2021 7:15:00 AM 18.71 65.67799 0.061 6.48 11.09 8.8
8/28/2021 7:30:00 AM 18.71 65.67799 0.061 6.53 10.89 8.81
8/28/2021 7:45:00 AM 18.71 65.67799 0.061 6.53 11.44 8.83
8/28/2021 8:00:00 AM 18.7 65.66 0.061 6.47 11.62 8.87
8/28/2021 8:15:00 AM 18.71 65.67799 0.061 6.54 12.52 8.9
8/28/2021 8:30:00 AM 18.73 65.714 0.062 6.53 11.49 8.92
8/28/2021 8:45:00 AM 18.75 65.75 0.061 6.55 11.38 8.97
8/28/2021 9:00:00 AM 18.78 65.804 0.061 6.51 11.3 9.01
8/28/2021 9:15:00 AM 18.82 65.876 0.06 6.57 11.07 9.02
8/28/2021 9:30:00 AM 18.84 65.912 0.061 6.58 11.17 9.04
8/28/2021 9:45:00 AM 18.88 65.984 0.061 6.59 11.42 9.04
8/28/2021 10:00:00 AM 18.94 66.092 0.061 6.58 11.37 9.07
8/28/2021 10:15:00 AM 19.03 66.254 0.061 6.61 11.98 9.09
8/28/2021 10:30:00 AM 19.18 66.524 0.061 6.63 12.47 9.11
8/28/2021 10:45:00 AM 19.21 66.578 0.061 6.6 11.63 9.09
8/28/2021 11:00:00 AM 19.45 67.01 0.061 6.64 11.38 9.12
8/28/2021 11:15:00 AM 19.73 67.514 0.061 6.62 11.59 9.09
8/28/2021 11:30:00 AM 19.96 67.92799 0.061 6.63 11.24 9.04
8/28/2021 11:45:00 AM 20.09 68.162 0.061 6.66 11.07 9.02
8/28/2021 12:00:00 PM 20.23 68.414 0.062 6.66 11.15 8.99
8/28/2021 12:15:00 PM 20.38 68.684 0.062 6.67 12.3 8.99
8/28/2021 12:30:00 PM 20.56 69.008 0.062 6.67 11.91 8.96
8/28/2021 12:45:00 PM 20.7 69.26 0.062 6.67 12.08 8.92
8/28/2021 1:00:00 PM 20.89 69.602 0.061 6.68 10.94 8.89
8/28/2021 1:15:00 PM 21.06 69.908 0.061 6.68 11.14 8.85
8/28/2021 1:30:00 PM 21.2 70.16 0.061 6.67 10.95 8.81
8/28/2021 1:45:00 PM 21.3 70.34 0.061 6.69 10.84 8.81
8/28/2021 2:00:00 PM 21.35 70.43 0.061 6.69 11.03 8.78
8/28/2021 2:15:00 PM 21.33 70.394 0.061 6.69 10.85 8.79
8/28/2021 2:30:00 PM 21.41 70.538 0.061 6.7 10.92 8.78
8/28/2021 2:45:00 PM 21.35 70.43 0.061 6.69 11.04 8.76
8/28/2021 3:00:00 PM 21.36 70.448 0.062 6.71 11.24 8.76
8/28/2021 3:15:00 PM 21.23 70.214 0.061 6.69 10.74 8.68
8/28/2021 3:30:00 PM 21.14 70.052 0.061 6.67 10.74 8.63
8/28/2021 3:45:00 PM 21.02 69.836 0.061 6.66 10.76 8.6
8/28/2021 4:00:00 PM 20.92 69.656 0.061 6.65 11.59 8.6
8/28/2021 4:15:00 PM 20.82 69.476 0.061 6.65 11.51 8.61
8/28/2021 4:30:00 PM 20.75 69.35 0.061 6.6 10.83 8.66
8/28/2021 4:45:00 PM 20.71 69.278 0.061 6.65 10.62 8.68
8/28/2021 5:00:00 PM 20.66 69.188 0.061 6.6 10.82 8.72
8/28/2021 5:15:00 PM 20.59 69.062 0.061 6.63 11.11 8.71
8/28/2021 5:30:00 PM 20.55 68.99 0.061 6.63 12.08 8.75
8/28/2021 5:45:00 PM 20.49 68.882 0.061 6.63 12 8.76
8/28/2021 6:00:00 PM 20.41 68.738 0.062 6.66 11.16 8.78
8/28/2021 6:15:00 PM 20.32 68.576 0.062 6.66 11.21 8.77
8/28/2021 6:30:00 PM 20.24 68.432 0.062 6.61 10.65 8.74
8/28/2021 6:45:00 PM 20.14 68.252 0.061 6.65 10.68 8.72
8/28/2021 7:00:00 PM 20.06 68.108 0.061 6.64 10.83 8.72
8/28/2021 7:15:00 PM 19.98 67.964 0.061 6.6 10.85 8.71
8/28/2021 7:30:00 PM 19.92 67.856 0.062 6.64 10.63 8.71
8/28/2021 7:45:00 PM 19.85 67.73 0.062 6.63 10.89 8.7
8/28/2021 8:00:00 PM 19.78 67.604 0.061 6.6 11.29 8.69
8/28/2021 8:15:00 PM 19.72 67.496 0.062 6.61 10.72 8.68
8/28/2021 8:30:00 PM 19.66 67.388 0.062 6.6 11.16 8.68
8/28/2021 8:45:00 PM 19.6 67.28 0.062 6.56 10.89 8.68
8/28/2021 9:00:00 PM 19.55 67.19 0.062 6.59 11.32 8.68
8/28/2021 9:15:00 PM 19.5 67.1 0.062 6.57 11.35 8.69
8/28/2021 9:30:00 PM 19.45 67.01 0.063 6.59 11.49 8.71
8/28/2021 9:45:00 PM 19.42 66.956 0.063 6.58 11.02 8.7
8/28/2021 10:00:00 PM 19.39 66.902 0.064 6.58 11.11 8.71
8/28/2021 10:15:00 PM 19.36 66.848 0.065 6.57 11.15 8.71
8/28/2021 10:30:00 PM 19.33 66.794 0.065 6.58 10.96 8.73
8/28/2021 10:45:00 PM 19.31 66.758 0.066 6.55 10.93 8.72
8/28/2021 11:00:00 PM 19.29 66.722 0.067 6.58 10.98 8.73
8/28/2021 11:15:00 PM 19.26 66.668 0.067 6.53 11.11 8.73
8/28/2021 11:30:00 PM 19.24 66.632 0.067 6.57 11.13 8.74
8/28/2021 11:45:00 PM 19.22 66.596 0.068 6.58 10.85 8.75
8/29/2021 12:00:00 AM 19.21 66.578 0.068 6.54 10.83 8.75
8/29/2021 12:15:00 AM 19.2 66.56 0.068 6.57 11.12 8.75
8/29/2021 12:30:00 AM 19.18 66.524 0.068 6.57 10.83 8.74
8/29/2021 12:45:00 AM 19.19 66.542 0.068 6.56 10.98 8.74
8/29/2021 1:00:00 AM 19.17 66.506 0.068 6.56 10.98 8.74
8/29/2021 1:15:00 AM 19.16 66.488 0.068 6.57 11.13 8.74
8/29/2021 1:30:00 AM 19.14 66.452 0.068 6.55 11.15 8.74
8/29/2021 1:45:00 AM 19.13 66.434 0.068 6.55 11.08 8.74
8/29/2021 2:00:00 AM 19.11 66.398 0.068 6.54 11.25 8.74
8/29/2021 2:15:00 AM 19.09 66.362 0.068 6.54 10.79 8.75
8/29/2021 2:30:00 AM 19.07 66.326 0.068 6.53 11.11 8.73
8/29/2021 2:45:00 AM 19.06 66.308 0.068 6.55 10.74 8.74
8/29/2021 3:00:00 AM 19.04 66.272 0.068 6.54 10.8 8.74
8/29/2021 3:15:00 AM 19.03 66.254 0.068 6.51 12.86 8.74
8/29/2021 3:30:00 AM 19.01 66.218 0.068 6.53 11.07 8.73
8/29/2021 3:45:00 AM 18.99 66.182 0.068 6.52 11.15 8.73
8/29/2021 4:00:00 AM 18.98 66.164 0.068 6.54 10.79 8.73
8/29/2021 4:15:00 AM 18.97 66.146 0.067 6.54 10.89 8.73
8/29/2021 4:30:00 AM 18.96 66.128 0.068 6.53 10.84 8.75
8/29/2021 4:45:00 AM 18.95 66.11 0.068 6.52 10.92 8.73
8/29/2021 5:00:00 AM 18.93 66.074 0.068 6.53 10.84 8.76
8/29/2021 5:15:00 AM 18.93 66.074 0.068 6.5 10.74 8.74
8/29/2021 5:30:00 AM 18.91 66.038 0.068 6.5 10.82 8.75
8/29/2021 5:45:00 AM 18.9 66.02 0.067 6.52 10.96 8.75
8/29/2021 6:00:00 AM 18.89 66.002 0.067 6.48 10.78 8.74
8/29/2021 6:15:00 AM 18.88 65.984 0.067 6.49 11.09 8.74
8/29/2021 6:30:00 AM 18.87 65.966 0.067 6.5 10.94 8.76
8/29/2021 6:45:00 AM 18.86 65.948 0.067 6.5 10.86 8.75
8/29/2021 7:00:00 AM 18.86 65.948 0.067 6.51 10.83 8.76
8/29/2021 7:15:00 AM 18.86 65.948 0.067 6.48 11.09 8.77
8/29/2021 7:30:00 AM 18.85 65.93 0.067 6.52 10.77 8.79
8/29/2021 7:45:00 AM 18.86 65.948 0.067 6.51 10.93 8.79
8/29/2021 8:00:00 AM 18.87 65.966 0.067 6.52 10.78 8.83
8/29/2021 8:15:00 AM 18.86 65.948 0.067 6.51 10.85 8.84
8/29/2021 8:30:00 AM 18.88 65.984 0.067 6.53 10.95 8.88
8/29/2021 8:45:00 AM 18.91 66.038 0.067 6.56 10.88 8.92
8/29/2021 9:00:00 AM 18.95 66.11 0.067 6.55 10.7 8.96
8/29/2021 9:15:00 AM 18.99 66.182 0.066 6.6 10.81 8.99
8/29/2021 9:30:00 AM 19.05 66.29 0.066 6.61 10.8 9.02
8/29/2021 9:45:00 AM 19.1 66.38 0.066 6.63 10.69 9.06
8/29/2021 10:00:00 AM 19.21 66.578 0.066 6.64 10.74 9.06
8/29/2021 10:15:00 AM 19.23 66.614 0.066 6.64 10.62 9.05
8/29/2021 10:30:00 AM 19.31 66.758 0.066 6.66 11 9.07
8/29/2021 10:45:00 AM 19.43 66.974 0.065 6.67 10.6 9.08
8/29/2021 11:00:00 AM 19.48 67.064 0.065 6.67 10.76 9.05
8/29/2021 11:15:00 AM 19.58 67.244 0.065 6.68 11.45 9.07
8/29/2021 11:30:00 AM 19.68 67.424 0.065 6.68 10.66 9.04
8/29/2021 11:45:00 AM 19.73 67.514 0.065 6.7 10.72 9.04
8/29/2021 12:00:00 PM 19.82 67.676 0.065 6.7 10.73 9.03
8/29/2021 12:15:00 PM 19.84 67.712 0.065 6.69 10.69 9
8/29/2021 12:30:00 PM 19.85 67.73 0.065 6.7 10.62 9
8/29/2021 12:45:00 PM 20.12 68.216 0.065 6.7 10.63 9.03
8/29/2021 1:00:00 PM 20.44 68.792 0.065 6.64 10.58 8.97
8/29/2021 1:15:00 PM 20.57 69.026 0.065 6.71 10.61 8.95
8/29/2021 1:30:00 PM 20.4 68.72 0.065 6.71 10.59 8.94
8/29/2021 1:45:00 PM 20.31 68.558 0.065 6.71 10.52 8.92
8/29/2021 2:00:00 PM 20.24 68.432 0.065 6.67 10.95 8.79
8/29/2021 2:15:00 PM 20.51 68.918 0.063 6.76 13.51 8.66
8/29/2021 2:30:00 PM 20.41 68.738 0.062 6.71 12.64 8.7
8/29/2021 2:45:00 PM 20.38 68.684 0.062 6.7 13.88 8.78
8/29/2021 3:00:00 PM 20.38 68.684 0.063 6.68 15 8.79
8/29/2021 3:15:00 PM 20.29 68.522 0.063 6.69 13.09 8.82
8/29/2021 3:30:00 PM 20.27 68.486 0.063 6.7 12.06 8.86
8/29/2021 3:45:00 PM 20.28 68.504 0.063 6.7 11.58 8.85
8/29/2021 4:00:00 PM 20.3 68.54 0.063 6.71 11.55 8.89
8/29/2021 4:15:00 PM 20.36 68.648 0.063 6.71 11.41 8.89
8/29/2021 4:30:00 PM 20.31 68.558 0.063 6.71 11.24 8.87
8/29/2021 4:45:00 PM 20.26 68.468 0.063 6.71 11.13 8.84
8/29/2021 5:00:00 PM 20.2 68.36 0.063 6.71 11.18 8.82
8/29/2021 5:15:00 PM 20.15 68.27 0.063 6.68 11.52 8.76
8/29/2021 5:30:00 PM 20.1 68.18 0.063 6.65 13.16 8.68
8/29/2021 5:45:00 PM 20.04 68.07201 0.063 6.66 14.3 8.67
8/29/2021 6:00:00 PM 20 68 0.063 6.65 13.39 8.64
8/29/2021 6:15:00 PM 19.95 67.91 0.063 6.64 12.57 8.64
8/29/2021 6:30:00 PM 19.92 67.856 0.063 6.64 11.93 8.61
8/29/2021 6:45:00 PM 19.88 67.784 0.063 6.63 11.77 8.62
8/29/2021 7:00:00 PM 19.85 67.73 0.063 6.63 11.74 8.62
8/29/2021 7:15:00 PM 19.8 67.64 0.063 6.63 11.84 8.63
8/29/2021 7:30:00 PM 19.74 67.532 0.064 6.62 11.87 8.63
8/29/2021 7:45:00 PM 19.7 67.46 0.064 6.56 11.97 8.64
8/29/2021 8:00:00 PM 19.64 67.352 0.064 6.62 12.04 8.63
8/29/2021 8:15:00 PM 19.59 67.262 0.064 6.61 11.88 8.63
8/29/2021 8:30:00 PM 19.52 67.136 0.064 6.63 11.79 8.65
8/29/2021 8:45:00 PM 19.48 67.064 0.064 6.64 11.61 8.65
8/29/2021 9:00:00 PM 19.44 66.992 0.065 6.63 11.56 8.67
8/29/2021 9:15:00 PM 19.39 66.902 0.065 6.63 11.42 8.67
8/29/2021 9:30:00 PM 19.35 66.83 0.064 6.62 11.26 8.68
8/29/2021 9:45:00 PM 19.32 66.776 0.064 6.62 11.24 8.69
8/29/2021 10:00:00 PM 19.28 66.704 0.064 6.63 11.34 8.7
8/29/2021 10:15:00 PM 19.26 66.668 0.064 6.62 11.44 8.69
8/29/2021 10:30:00 PM 19.23 66.614 0.064 6.63 11.38 8.71
8/29/2021 10:45:00 PM 19.2 66.56 0.064 6.61 11.54 8.71
8/29/2021 11:00:00 PM 19.16 66.488 0.064 6.63 11.43 8.71
8/29/2021 11:15:00 PM 19.14 66.452 0.064 6.57 11.35 8.72
8/29/2021 11:30:00 PM 19.11 66.398 0.064 6.6 11.26 8.73
8/29/2021 11:45:00 PM 19.08 66.344 0.065 6.63 11.23 8.72
8/30/2021 12:00:00 AM 19.05 66.29 0.065 6.62 11.21 8.72
8/30/2021 12:15:00 AM 19.01 66.218 0.065 6.61 11.32 8.71
8/30/2021 12:30:00 AM 18.98 66.164 0.064 6.62 11.21 8.74
8/30/2021 12:45:00 AM 18.94 66.092 0.064 6.62 11.2 8.75
8/30/2021 1:00:00 AM 18.91 66.038 0.065 6.61 11.14 8.73
8/30/2021 1:15:00 AM 18.88 65.984 0.065 6.61 11.23 8.76
8/30/2021 1:30:00 AM 18.86 65.948 0.065 6.6 11.17 8.77
8/30/2021 1:45:00 AM 18.83 65.894 0.065 6.61 11.21 8.77
8/30/2021 2:00:00 AM 18.8 65.84 0.065 6.59 11.13 8.78
8/30/2021 2:15:00 AM 18.78 65.804 0.065 6.6 11.08 8.77
8/30/2021 2:30:00 AM 18.75 65.75 0.065 6.61 11.15 8.79
8/30/2021 2:45:00 AM 18.74 65.732 0.065 6.6 11.01 8.78
8/30/2021 3:00:00 AM 18.73 65.714 0.065 6.6 11.07 8.79
8/30/2021 3:15:00 AM 18.71 65.67799 0.065 6.6 11.21 8.78
8/30/2021 3:30:00 AM 18.7 65.66 0.065 6.56 11.21 8.8
8/30/2021 3:45:00 AM 18.68 65.624 0.065 6.56 11.51 8.79
8/30/2021 4:00:00 AM 18.67 65.606 0.065 6.58 11.45 8.77
8/30/2021 4:15:00 AM 18.65 65.57 0.065 6.58 11.53 8.78
8/30/2021 4:30:00 AM 18.63 65.534 0.065 6.54 11.59 8.77
8/30/2021 4:45:00 AM 18.61 65.498 0.065 6.58 11.46 8.77
8/30/2021 5:00:00 AM 18.59 65.462 0.065 6.57 11.4 8.78
8/30/2021 5:15:00 AM 18.58 65.444 0.065 6.57 11.5 8.79
8/30/2021 5:30:00 AM 18.57 65.426 0.065 6.58 11.39 8.79
8/30/2021 5:45:00 AM 18.56 65.408 0.065 6.58 11.21 8.8
8/30/2021 6:00:00 AM 18.54 65.372 0.065 6.58 11.31 8.8
8/30/2021 6:15:00 AM 18.53 65.354 0.065 6.57 11.57 8.82
8/30/2021 6:30:00 AM 18.51 65.318 0.065 6.57 11.41 8.82
8/30/2021 6:45:00 AM 18.5 65.3 0.065 6.57 11.61 8.84
8/30/2021 7:00:00 AM 18.48 65.264 0.065 6.59 11.75 8.86
8/30/2021 7:15:00 AM 18.47 65.246 0.065 6.6 11.63 8.87
8/30/2021 7:30:00 AM 18.46 65.228 0.065 6.62 11.62 8.91
8/30/2021 7:45:00 AM 18.46 65.228 0.065 6.62 11.46 8.94
8/30/2021 8:00:00 AM 18.46 65.228 0.065 6.6 11.35 8.97
8/30/2021 8:15:00 AM 18.46 65.228 0.065 6.63 11.35 8.98
8/30/2021 8:30:00 AM 18.46 65.228 0.065 6.6 11.36 9.02
8/30/2021 8:45:00 AM 18.47 65.246 0.065 6.62 11.43 9.03
8/30/2021 9:00:00 AM 18.47 65.246 0.066 6.63 11.44 9.04
8/30/2021 9:15:00 AM 18.53 65.354 0.066 6.66 11.48 9.1
8/30/2021 9:30:00 AM 18.64 65.552 0.066 6.65 11.62 9.12
8/30/2021 9:45:00 AM 18.62 65.516 0.066 6.65 11.39 9.08
8/30/2021 10:00:00 AM 18.62 65.516 0.067 6.66 11.39 9.09
8/30/2021 10:15:00 AM 18.73 65.714 0.067 6.66 11.43 9.13
8/30/2021 10:30:00 AM 18.8 65.84 0.066 6.68 11.61 9.14
8/30/2021 10:45:00 AM 18.78 65.804 0.067 6.68 11.42 9.09
8/30/2021 11:00:00 AM 18.78 65.804 0.067 6.67 11.37 9.1
8/30/2021 11:15:00 AM 18.84 65.912 0.067 6.68 11.55 9.1
8/30/2021 11:30:00 AM 18.91 66.038 0.067 6.7 11.4 9.11
8/30/2021 11:45:00 AM 19.1 66.38 0.067 6.71 11.37 9.13
8/30/2021 12:00:00 PM 19.12 66.416 0.068 6.72 11.31 9.13
8/30/2021 12:15:00 PM 19.18 66.524 0.068 6.71 11.32 9.13
8/30/2021 12:30:00 PM 19.3 66.74 0.067 6.72 11.42 9.12
8/30/2021 12:45:00 PM 19.31 66.758 0.068 6.73 11.31 9.05
8/30/2021 1:00:00 PM 19.36 66.848 0.068 6.74 11.35 9.09
8/30/2021 1:15:00 PM 19.5 67.1 0.067 6.74 11.35 9.05
8/30/2021 1:30:00 PM 19.56 67.208 0.067 6.69 11.34 9.06
8/30/2021 1:45:00 PM 19.56 67.208 0.067 6.72 11.36 9.05
8/30/2021 2:00:00 PM 19.68 67.424 0.067 6.72 11.22 9.04
8/30/2021 2:15:00 PM 19.68 67.424 0.067 6.73 11.23 9
8/30/2021 2:30:00 PM 19.76 67.568 0.067 6.72 11.24 9
8/30/2021 2:45:00 PM 19.8 67.64 0.067 6.74 11.24 8.97
8/30/2021 3:00:00 PM 19.88 67.784 0.067 6.71 11.16 8.98
8/30/2021 3:15:00 PM 20.03 68.054 0.067 6.72 11.19 8.95
8/30/2021 3:30:00 PM 20.05 68.09 0.067 6.74 11.11 8.94
8/30/2021 3:45:00 PM 20.07 68.126 0.067 6.71 11.17 8.93
8/30/2021 4:00:00 PM 20.07 68.126 0.067 6.74 11.15 8.9
8/30/2021 4:15:00 PM 20.03 68.054 0.067 6.72 11.17 8.89
8/30/2021 4:30:00 PM 20.03 68.054 0.067 6.71 11.12 8.89
8/30/2021 4:45:00 PM 20 68 0.067 6.72 11.12 8.89
8/30/2021 5:00:00 PM 19.99 67.982 0.067 6.74 11.16 8.87
8/30/2021 5:15:00 PM 20.01 68.018 0.067 6.73 11.1 8.86
8/30/2021 5:30:00 PM 19.98 67.964 0.067 6.72 11.11 8.79
8/30/2021 5:45:00 PM 19.94 67.892 0.067 6.68 11.12 8.78
8/30/2021 6:00:00 PM 19.96 67.92799 0.067 6.72 11.05 8.79
8/30/2021 6:15:00 PM 19.94 67.892 0.067 6.68 11.12 8.77
8/30/2021 6:30:00 PM 19.9 67.82 0.067 6.68 11.06 8.74
8/30/2021 6:45:00 PM 19.87 67.766 0.067 6.67 11.12 8.71
8/30/2021 7:00:00 PM 19.83 67.694 0.067 6.64 11.21 8.67
8/30/2021 7:15:00 PM 19.78 67.604 0.067 6.63 11.17 8.63
8/30/2021 7:30:00 PM 19.73 67.514 0.067 6.61 11.09 8.63
8/30/2021 7:45:00 PM 19.68 67.424 0.067 6.6 11.11 8.61
8/30/2021 8:00:00 PM 19.62 67.316 0.067 6.59 11.12 8.61
8/30/2021 8:15:00 PM 19.57 67.226 0.067 6.6 11.06 8.59
8/30/2021 8:30:00 PM 19.52 67.136 0.067 6.56 11.15 8.6
8/30/2021 8:45:00 PM 19.46 67.028 0.067 6.6 11.1 8.61
8/30/2021 9:00:00 PM 19.42 66.956 0.067 6.56 11.3 8.61
8/30/2021 9:15:00 PM 19.37 66.866 0.067 6.58 11.1 8.62
8/30/2021 9:30:00 PM 19.32 66.776 0.067 6.59 11.06 8.64
8/30/2021 9:45:00 PM 19.27 66.686 0.067 6.57 11.12 8.63
8/30/2021 10:00:00 PM 19.23 66.614 0.067 6.58 11.23 8.66
8/30/2021 10:15:00 PM 19.19 66.542 0.068 6.57 11.18 8.65
8/30/2021 10:30:00 PM 19.15 66.47 0.068 6.58 11.15 8.65
8/30/2021 10:45:00 PM 19.12 66.416 0.068 6.6 11.11 8.67
8/30/2021 11:00:00 PM 19.09 66.362 0.068 6.6 11.11 8.68
8/30/2021 11:15:00 PM 19.06 66.308 0.068 6.56 11.07 8.68
8/30/2021 11:30:00 PM 19.03 66.254 0.068 6.59 11.09 8.66
8/30/2021 11:45:00 PM 18.99 66.182 0.068 6.57 11.14 8.68
8/31/2021 12:00:00 AM 18.96 66.128 0.068 6.59 11.08 8.68
8/31/2021 12:15:00 AM 18.94 66.092 0.067 6.57 11.01 8.69
8/31/2021 12:30:00 AM 18.9 66.02 0.068 6.59 11.12 8.69
8/31/2021 12:45:00 AM 18.87 65.966 0.068 6.59 11.07 8.7
8/31/2021 1:00:00 AM 18.84 65.912 0.068 6.59 11.03 8.71
8/31/2021 1:15:00 AM 18.79 65.82201 0.068 6.59 11.03 8.71
8/31/2021 1:30:00 AM 18.76 65.768 0.067 6.59 11.02 8.72
8/31/2021 1:45:00 AM 18.72 65.696 0.067 6.56 11.04 8.73
8/31/2021 2:00:00 AM 18.68 65.624 0.068 6.58 11.06 8.72
8/31/2021 2:15:00 AM 18.65 65.57 0.067 6.56 11.04 8.72
8/31/2021 2:30:00 AM 18.62 65.516 0.068 6.58 11.12 8.73
8/31/2021 2:45:00 AM 18.59 65.462 0.068 6.57 10.95 8.74
8/31/2021 3:00:00 AM 18.57 65.426 0.067 6.58 11.21 8.74
8/31/2021 3:15:00 AM 18.54 65.372 0.067 6.57 11.02 8.76
8/31/2021 3:30:00 AM 18.51 65.318 0.067 6.56 11.39 8.75
8/31/2021 3:45:00 AM 18.49 65.282 0.067 6.56 11.38 8.76
8/31/2021 4:00:00 AM 18.46 65.228 0.067 6.56 11.14 8.75
8/31/2021 4:15:00 AM 18.44 65.192 0.067 6.56 11.22 8.75
8/31/2021 4:30:00 AM 18.42 65.156 0.067 6.56 11.32 8.76
8/31/2021 4:45:00 AM 18.4 65.12 0.067 6.56 11.08 8.76
8/31/2021 5:00:00 AM 18.38 65.084 0.067 6.58 11.26 8.76
8/31/2021 5:15:00 AM 18.36 65.048 0.067 6.56 11.1 8.78
8/31/2021 5:30:00 AM 18.33 64.994 0.067 6.57 11.25 8.78
8/31/2021 5:45:00 AM 18.31 64.958 0.067 6.58 11.26 8.78
8/31/2021 6:00:00 AM 18.29 64.922 0.067 6.56 11.2 8.78
8/31/2021 6:15:00 AM 18.27 64.886 0.067 6.56 11.58 8.79
8/31/2021 6:30:00 AM 18.25 64.85 0.067 6.56 11.52 8.78
8/31/2021 6:45:00 AM 18.23 64.814 0.067 6.56 11.26 8.8
8/31/2021 7:00:00 AM 18.21 64.778 0.068 6.55 11.38 8.8
8/31/2021 7:15:00 AM 18.2 64.76 0.067 6.56 11.31 8.82
8/31/2021 7:30:00 AM 18.19 64.742 0.067 6.59 11.24 8.84
8/31/2021 7:45:00 AM 18.18 64.724 0.067 6.57 11.34 8.87
8/31/2021 8:00:00 AM 18.17 64.706 0.067 6.58 11.3 8.92
8/31/2021 8:15:00 AM 18.17 64.706 0.066 6.59 11.29 8.94
8/31/2021 8:30:00 AM 18.18 64.724 0.067 6.6 11.17 8.97
8/31/2021 8:45:00 AM 18.18 64.724 0.067 6.61 11.12 8.99
8/31/2021 9:00:00 AM 18.2 64.76 0.067 6.6 11.17 9.03
8/31/2021 9:15:00 AM 18.21 64.778 0.067 6.62 11.34 9.04
8/31/2021 9:30:00 AM 18.24 64.832 0.067 6.61 11.29 9.06
8/31/2021 9:45:00 AM 18.25 64.85 0.067 6.63 11.17 9.07
8/31/2021 10:00:00 AM 18.27 64.886 0.067 6.63 11.18 9.09
8/31/2021 10:15:00 AM 18.31 64.958 0.067 6.65 11.18 9.12
8/31/2021 10:30:00 AM 18.36 65.048 0.067 6.64 11.15 9.13
8/31/2021 10:45:00 AM 18.41 65.138 0.066 6.67 11.15 9.17
8/31/2021 11:00:00 AM 18.49 65.282 0.067 6.68 11.11 9.19
8/31/2021 11:15:00 AM 18.56 65.408 0.067 6.67 11.11 9.18
8/31/2021 11:30:00 AM 18.67 65.606 0.067 6.69 12.12 9.2
8/31/2021 11:45:00 AM 18.76 65.768 0.067 6.68 10.97 9.2
8/31/2021 12:00:00 PM 18.89 66.002 0.066 6.69 10.94 9.19
8/31/2021 12:15:00 PM 19.07 66.326 0.067 6.69 11.07 9.16
8/31/2021 12:30:00 PM 19.13 66.434 0.066 6.68 10.97 9.14
8/31/2021 12:45:00 PM 19.28 66.704 0.067 6.71 10.92 9.11
8/31/2021 1:00:00 PM 19.31 66.758 0.067 6.69 10.86 9.1
8/31/2021 1:15:00 PM 19.45 67.01 0.066 6.7 10.9 9.06
8/31/2021 1:30:00 PM 19.57 67.226 0.066 6.7 10.97 9.04
8/31/2021 1:45:00 PM 19.78 67.604 0.066 6.69 11.08 9.02
8/31/2021 2:00:00 PM 19.99 67.982 0.066 6.69 11.05 8.98
8/31/2021 2:15:00 PM 20.16 68.288 0.066 6.71 10.8 8.96
8/31/2021 2:30:00 PM 20.26 68.468 0.067 6.71 10.81 8.93
8/31/2021 2:45:00 PM 20.34 68.612 0.067 6.71 10.8 8.9
8/31/2021 3:00:00 PM 20.36 68.648 0.066 6.71 10.98 8.87
8/31/2021 3:15:00 PM 20.34 68.612 0.066 6.72 10.89 8.84
8/31/2021 3:30:00 PM 20.33 68.594 0.066 6.72 10.9 8.84
8/31/2021 3:45:00 PM 20.33 68.594 0.066 6.73 10.89 8.82
8/31/2021 4:00:00 PM 20.29 68.522 0.066 6.71 10.85 8.8
8/31/2021 4:15:00 PM 20.26 68.468 0.066 6.72 11.05 8.82
8/31/2021 4:30:00 PM 20.15 68.27 0.066 6.71 10.86 8.81
8/31/2021 4:45:00 PM 20.03 68.054 0.066 6.72 10.99 8.84
8/31/2021 5:00:00 PM 19.99 67.982 0.066 6.69 11.11 8.86
8/31/2021 5:15:00 PM 19.99 67.982 0.066 6.7 10.97 8.85
8/31/2021 5:30:00 PM 19.97 67.946 0.066 6.7 10.98 8.84
8/31/2021 5:45:00 PM 19.94 67.892 0.066 6.7 10.99 8.8
8/31/2021 6:00:00 PM 19.89 67.802 0.066 6.69 11.07 8.77
8/31/2021 6:15:00 PM 19.84 67.712 0.066 6.69 11 8.73
8/31/2021 6:30:00 PM 19.79 67.622 0.066 6.67 11.07 8.67
8/31/2021 6:45:00 PM 19.73 67.514 0.067 6.62 11.05 8.67
8/31/2021 7:00:00 PM 19.68 67.424 0.067 6.63 11.05 8.67
8/31/2021 7:15:00 PM 19.62 67.316 0.067 6.65 11.11 8.63
8/31/2021 7:30:00 PM 19.55 67.19 0.067 6.58 11.16 8.59
8/31/2021 7:45:00 PM 19.48 67.064 0.067 6.62 11.11 8.57
8/31/2021 8:00:00 PM 19.41 66.938 0.067 6.6 11.2 8.54
8/31/2021 8:15:00 PM 19.34 66.812 0.067 6.6 11.29 8.56
8/31/2021 8:30:00 PM 19.28 66.704 0.067 6.6 11.01 8.57
8/31/2021 8:45:00 PM 19.22 66.596 0.067 6.58 11.06 8.55
8/31/2021 9:00:00 PM 19.17 66.506 0.067 6.58 11.24 8.57
8/31/2021 9:15:00 PM 19.12 66.416 0.067 6.57 11.21 8.57
8/31/2021 9:30:00 PM 19.07 66.326 0.068 6.58 11.3 8.59
8/31/2021 9:45:00 PM 19.03 66.254 0.068 6.58 11.18 8.58
8/31/2021 10:00:00 PM 18.98 66.164 0.068 6.56 11.22 8.58
8/31/2021 10:15:00 PM 18.94 66.092 0.068 6.58 11.26 8.6
8/31/2021 10:30:00 PM 18.89 66.002 0.067 6.56 11.14 8.61
8/31/2021 10:45:00 PM 18.85 65.93 0.067 6.56 11.24 8.61
8/31/2021 11:00:00 PM 18.81 65.858 0.067 6.58 11.12 8.63
8/31/2021 11:15:00 PM 18.77 65.786 0.067 6.56 11.16 8.61
8/31/2021 11:30:00 PM 18.73 65.714 0.067 6.57 11.12 8.63
8/31/2021 11:45:00 PM 18.7 65.66 0.067 6.57 11.26 8.63
9/1/2021 12:00:00 AM 18.66 65.588 0.068 6.57 11.17 8.64
9/1/2021 12:15:00 AM 18.63 65.534 0.068 6.57 11.08 8.65
9/1/2021 12:30:00 AM 18.6 65.48 0.068 6.57 11.16 8.65
9/1/2021 12:45:00 AM 18.57 65.426 0.068 6.55 11.09 8.65
9/1/2021 1:00:00 AM 18.55 65.39 0.068 6.55 11.17 8.65
9/1/2021 1:15:00 AM 18.52 65.336 0.068 6.57 11.22 8.65
9/1/2021 1:30:00 AM 18.5 65.3 0.068 6.54 11.25 8.64
9/1/2021 1:45:00 AM 18.48 65.264 0.068 6.53 11.23 8.57
9/1/2021 2:00:00 AM 18.45 65.21 0.068 6.55 11.24 8.57
9/1/2021 2:15:00 AM 18.42 65.156 0.067 6.55 11.31 8.6
9/1/2021 2:30:00 AM 18.4 65.12 0.067 6.55 11.3 8.64
9/1/2021 2:45:00 AM 18.38 65.084 0.068 6.55 11.23 8.59
9/1/2021 3:00:00 AM 18.36 65.048 0.067 6.55 11.58 8.65
9/1/2021 3:15:00 AM 18.34 65.012 0.067 6.55 11.53 8.61
9/1/2021 3:30:00 AM 18.32 64.976 0.067 6.54 11.31 8.65
9/1/2021 3:45:00 AM 18.3 64.94 0.068 6.55 11.3 8.56
9/1/2021 4:00:00 AM 18.28 64.904 0.068 6.54 11.42 8.61
9/1/2021 4:15:00 AM 18.27 64.886 0.068 6.54 11.39 8.59
9/1/2021 4:30:00 AM 18.25 64.85 0.067 6.54 11.46 8.61
9/1/2021 4:45:00 AM 18.23 64.814 0.067 6.54 11.34 8.65
9/1/2021 5:00:00 AM 18.21 64.778 0.067 6.56 11.41 8.65
9/1/2021 5:15:00 AM 18.2 64.76 0.068 6.53 11.27 8.52
9/1/2021 5:30:00 AM 18.18 64.724 0.068 6.55 11.46 8.57
9/1/2021 5:45:00 AM 18.16 64.688 0.067 6.55 11.4 8.61
9/1/2021 6:00:00 AM 18.14 64.652 0.067 6.54 11.43 8.68
9/1/2021 6:15:00 AM 18.11 64.598 0.067 6.55 11.35 8.69
9/1/2021 6:30:00 AM 18.09 64.562 0.067 6.54 11.37 8.66
9/1/2021 6:45:00 AM 18.06 64.508 0.067 6.55 11.7 8.67
9/1/2021 7:00:00 AM 18.03 64.454 0.067 6.55 11.66 8.71
9/1/2021 7:15:00 AM 18 64.4 0.067 6.57 11.44 8.72
9/1/2021 7:30:00 AM 17.97 64.346 0.066 6.58 11.63 8.72
9/1/2021 7:45:00 AM 17.95 64.31 0.065 6.58 11.84 8.77
9/1/2021 8:00:00 AM 17.93 64.274 0.065 6.58 11.17 8.79
9/1/2021 8:15:00 AM 17.91 64.238 0.065 6.58 11.13 8.82
9/1/2021 8:30:00 AM 17.89 64.202 0.065 6.59 11.24 8.84
9/1/2021 8:45:00 AM 17.88 64.184 0.065 6.59 11.15 8.8
9/1/2021 9:00:00 AM 17.87 64.166 0.065 6.61 11.18 8.86
9/1/2021 9:15:00 AM 17.86 64.148 0.065 6.63 11.18 8.9
9/1/2021 9:30:00 AM 17.86 64.148 0.065 6.63 11.21 8.98
9/1/2021 9:45:00 AM 17.86 64.148 0.065 6.65 11.19 9.04
9/1/2021 10:00:00 AM 17.88 64.184 0.064 6.66 11.24 9.08
9/1/2021 10:15:00 AM 17.9 64.22 0.064 6.67 11.29 9.14
9/1/2021 10:30:00 AM 17.91 64.238 0.064 6.69 11.28 9.17
9/1/2021 10:45:00 AM 17.92 64.256 0.064 6.69 11.43 9.15
9/1/2021 11:00:00 AM 17.91 64.238 0.065 6.69 11.39 9.05
9/1/2021 11:15:00 AM 17.91 64.238 0.065 6.7 11.51 9.13
9/1/2021 11:30:00 AM 17.91 64.238 0.065 6.69 11.34 9.13
9/1/2021 11:45:00 AM 17.91 64.238 0.065 6.68 11.25 9.12
9/1/2021 12:00:00 PM 17.94 64.292 0.065 6.69 11.19 9.19
9/1/2021 12:15:00 PM 17.95 64.31 0.065 6.71 11.25 9.21
9/1/2021 12:30:00 PM 17.97 64.346 0.065 6.72 11.17 9.23
9/1/2021 12:45:00 PM 17.98 64.364 0.064 6.73 11.18 9.24
9/1/2021 1:00:00 PM 17.98 64.364 0.065 6.73 11.24 9.22
9/1/2021 1:15:00 PM 17.96 64.328 0.065 6.72 12.69 9.19
9/1/2021 1:30:00 PM 17.94 64.292 0.065 6.72 11.28 9.17
9/1/2021 1:45:00 PM 17.92 64.256 0.065 6.71 11.7 9.17
9/1/2021 2:00:00 PM 17.91 64.238 0.066 6.71 11.49 9.16
9/1/2021 2:15:00 PM 17.89 64.202 0.065 6.71 11.32 9.15
9/1/2021 2:30:00 PM 17.88 64.184 0.066 6.71 11.43 9.15
9/1/2021 2:45:00 PM 17.86 64.148 0.066 6.71 13.57 9.14
9/1/2021 3:00:00 PM 17.83 64.094 0.066 6.71 12.75 9.14
9/1/2021 3:15:00 PM 17.82 64.076 0.066 6.7 13 9.14
9/1/2021 3:30:00 PM 17.81 64.058 0.066 6.7 11.81 9.14
9/1/2021 3:45:00 PM 17.79 64.022 0.066 6.71 12.14 9.13
9/1/2021 4:00:00 PM 17.77 63.986 0.066 6.7 13.14 9.1
9/1/2021 4:15:00 PM 17.75 63.95 0.066 6.69 12.71 9.1
9/1/2021 4:30:00 PM 17.75 63.95 0.067 6.7 11.63 9.1
9/1/2021 4:45:00 PM 17.75 63.95 0.068 6.7 11.96 9.16
9/1/2021 5:00:00 PM 17.76 63.968 0.069 6.71 13.9 9.16
9/1/2021 5:15:00 PM 17.75 63.95 0.069 6.71 11.52 9.19
9/1/2021 5:30:00 PM 17.75 63.95 0.069 6.71 12.65 9.17
9/1/2021 5:45:00 PM 17.73 63.914 0.069 6.7 11.24 9.14
9/1/2021 6:00:00 PM 17.72 63.896 0.068 6.69 11.37 9.13
9/1/2021 6:15:00 PM 17.7 63.86 0.068 6.69 11.3 9.11
9/1/2021 6:30:00 PM 17.68 63.824 0.068 6.71 11.36 9.07
9/1/2021 6:45:00 PM 17.65 63.77 0.068 6.68 11.43 9.05
9/1/2021 7:00:00 PM 17.62 63.716 0.069 6.67 11.47 9.04
9/1/2021 7:15:00 PM 17.59 63.662 0.069 6.69 11.55 9.04
9/1/2021 7:30:00 PM 17.56 63.608 0.069 6.69 11.51 9.04
9/1/2021 7:45:00 PM 17.53 63.554 0.07 6.69 11.48 9.05
9/1/2021 8:00:00 PM 17.48 63.464 0.07 6.66 11.39 9.01
9/1/2021 8:15:00 PM 17.43 63.374 0.07 6.68 11.5 9.05
9/1/2021 8:30:00 PM 17.38 63.284 0.07 6.66 11.47 9.06
9/1/2021 8:45:00 PM 17.33 63.194 0.07 6.66 11.51 9.04
9/1/2021 9:00:00 PM 17.27 63.086 0.071 6.66 11.44 9.06
9/1/2021 9:15:00 PM 17.22 62.996 0.071 6.65 11.46 9.07
9/1/2021 9:30:00 PM 17.16 62.888 0.071 6.67 11.45 9.07
9/1/2021 9:45:00 PM 17.11 62.798 0.071 6.64 11.4 9.08
9/1/2021 10:00:00 PM 17.05 62.69 0.071 6.66 11.49 9.11
9/1/2021 10:15:00 PM 17 62.6 0.072 6.64 11.39 9.11
9/1/2021 10:30:00 PM 16.94 62.492 0.072 6.65 11.44 9.13
9/1/2021 10:45:00 PM 16.88 62.384 0.072 6.66 11.48 9.15
9/1/2021 11:00:00 PM 16.82 62.276 0.073 6.63 11.53 9.15
9/1/2021 11:15:00 PM 16.76 62.168 0.073 6.65 11.5 9.17
9/1/2021 11:30:00 PM 16.69 62.042 0.073 6.63 11.45 9.19
9/1/2021 11:45:00 PM 16.62 61.916 0.073 6.63 11.56 9.19
9/2/2021 12:00:00 AM 16.56 61.808 0.073 6.64 11.49 9.2
9/2/2021 12:15:00 AM 16.51 61.718 0.073 6.64 11.47 9.22
9/2/2021 12:30:00 AM 16.44 61.592 0.073 6.64 11.41 9.23
9/2/2021 12:45:00 AM 16.36 61.448 0.073 6.64 11.35 9.23
9/2/2021 1:00:00 AM 16.3 61.34 0.073 6.64 11.36 9.25
9/2/2021 1:15:00 AM 16.23 61.214 0.073 6.62 11.17 9.26
9/2/2021 1:30:00 AM 16.18 61.124 0.072 6.62 11.17 9.28
9/2/2021 1:45:00 AM 16.12 61.016 0.073 6.62 11.16 9.3
9/2/2021 2:00:00 AM 16.06 60.908 0.073 6.64 11.2 9.3
9/2/2021 2:15:00 AM 15.99 60.782 0.072 6.62 11.13 9.31
9/2/2021 2:30:00 AM 15.92 60.656 0.072 6.63 11.1 9.32
9/2/2021 2:45:00 AM 15.86 60.548 0.072 6.62 11.11 9.35
9/2/2021 3:00:00 AM 15.78 60.404 0.073 6.62 11.18 9.35
9/2/2021 3:15:00 AM 15.71 60.278 0.073 6.61 11.14 9.37
9/2/2021 3:30:00 AM 15.65 60.17 0.073 6.61 11.12 9.36
9/2/2021 3:45:00 AM 15.59 60.062 0.072 6.62 11.16 9.39
9/2/2021 4:00:00 AM 15.53 59.954 0.073 6.61 11.17 9.41
9/2/2021 4:15:00 AM 15.47 59.846 0.073 6.61 11.15 9.42
9/2/2021 4:30:00 AM 15.41 59.738 0.073 6.61 11.13 9.43
9/2/2021 4:45:00 AM 15.35 59.63 0.073 6.62 11.5 9.48
9/2/2021 5:00:00 AM 15.3 59.54 0.073 6.6 11.2 9.48
9/2/2021 5:15:00 AM 15.26 59.468 0.073 6.6 11.13 9.49
9/2/2021 5:30:00 AM 15.2 59.36 0.073 6.61 11.07 9.5
9/2/2021 5:45:00 AM 15.16 59.288 0.073 6.61 11.06 9.52
9/2/2021 6:00:00 AM 15.11 59.198 0.073 6.61 11.06 9.53
9/2/2021 6:15:00 AM 15.07 59.126 0.073 6.6 11.15 9.53
9/2/2021 6:30:00 AM 15.02 59.036 0.073 6.61 11.11 9.56
9/2/2021 6:45:00 AM 14.97 58.946 0.073 6.6 11.15 9.57
9/2/2021 7:00:00 AM 14.93 58.874 0.073 6.6 11.19 9.59
9/2/2021 7:15:00 AM 14.89 58.802 0.074 6.61 11.16 9.62
9/2/2021 7:30:00 AM 14.86 58.748 0.074 6.62 11.08 9.65
9/2/2021 7:45:00 AM 14.83 58.694 0.074 6.63 11.04 9.7
9/2/2021 8:00:00 AM 14.79 58.622 0.074 6.64 11.07 9.75
9/2/2021 8:15:00 AM 14.77 58.586 0.074 6.64 11.14 9.79
9/2/2021 8:30:00 AM 14.77 58.586 0.074 6.65 11.09 9.83
9/2/2021 8:45:00 AM 14.77 58.586 0.074 6.66 11.07 9.86
9/2/2021 9:00:00 AM 14.78 58.604 0.073 6.67 11.09 9.88
9/2/2021 9:15:00 AM 14.81 58.658 0.072 6.67 11.08 9.93
9/2/2021 9:30:00 AM 14.89 58.802 0.073 6.68 11.16 9.93